Darstellungsparameter: Aktuell verwendete Einstellungen:
Skalierung der Graphiken ... ?
xyx+y,   Skalierungsfaktor:      Skalierung: Modus: x, Faktor: 1
Darstellungszeitraum ... ?
Vom - - bis: - -   Zeitraum: 11.07.2008 - 10.10.2008
Min/Max/Avg-Anzeige ... ?
Zeige MMA aktuell
Zeige MMA Monat
Zeige MMA alles
Zeige --A aktuell
Zeige --A Monat
Zeige --A alles
Keine MMA-Anzeige
MMA:
Average (ber die Originaldaten)
MMA-Basis: 17.04.2019 - 19.05.2019
Quicknavigation für Darstellung... ?
Tage:      1T, 2T, 3T, 5T -1T -2T -3T -5T +1T +2T +3T +5T
Wochen: 1W, 2W, 3W -1W -2W -3W +1W +2W +3W
Monate: 1M, 3M, 6M -1M -3M -6M +1M +3M +6M
Jahre:    1J, 3J, 5J, 10J -1J -3J -5J -10J +1J +3J +5J +10J
Nutze für die Darstellung ... ?
Originaldaten oder Mittelwerte auf ...
Stundenbasis Tagesbasis Wochenbasis
Monatsbasis Jahresbasis      Datenbasis: Original-Daten
Darstellen als:
Statistik (Auto) Statistik J:M      Darstellung:
Zur Graphik,    zurück zur Übersicht aller Sensoren.
 
Tabellarische Datenbersicht: ?
 
Sensor: Nr:Datum:Temp:Abs-Feuchte:Windchill:Wind:
Aussen-T/F 1 11-07-2008 00:07:02 22.3 C 9.87 g/m*3 22.3 C 0 km/h
2 11-07-2008 00:19:02 20.3 C 11.61 g/m*3 20.3 C 0 km/h
3 11-07-2008 00:31:02 20.5 C 11.74 g/m*3 20.5 C 0 km/h
4 11-07-2008 00:43:02 20.7 C 11.88 g/m*3 20.7 C 0 km/h
5 11-07-2008 00:55:02 20.6 C 11.28 g/m*3 20.6 C 0 km/h
6 11-07-2008 01:07:02 20.6 C 10.92 g/m*3 20.6 C 0 km/h
7 11-07-2008 01:19:02 20.6 C 10.74 g/m*3 20.6 C 0 km/h
8 11-07-2008 01:31:02 20.4 C 10.61 g/m*3 20.4 C 0 km/h
9 11-07-2008 01:43:02 20.5 C 10.85 g/m*3 20.5 C 0 km/h
10 11-07-2008 01:55:02 20.4 C 11.14 g/m*3 20.4 C 0 km/h
11 11-07-2008 02:07:02 19.9 C 11.34 g/m*3 19.9 C 0 km/h
12 11-07-2008 02:19:02 19.7 C 11.21 g/m*3 19.7 C 0 km/h
13 11-07-2008 02:31:02 19.7 C 11.21 g/m*3 19.7 C 0 km/h
14 11-07-2008 02:43:02 19.6 C 11.48 g/m*3 19.6 C 0 km/h
15 11-07-2008 02:55:02 19.4 C 11.51 g/m*3 19.4 C 0 km/h
16 11-07-2008 03:07:02 19.3 C 11.44 g/m*3 19.3 C 0 km/h
17 11-07-2008 03:19:02 19.1 C 11.47 g/m*3 19.1 C 0 km/h
18 11-07-2008 03:31:02 19.2 C 11.21 g/m*3 19.2 C 0 km/h
19 11-07-2008 03:43:02 19.5 C 11.08 g/m*3 19.5 C 0 km/h
20 11-07-2008 03:55:03 19.5 C 11.08 g/m*3 19.5 C 0 km/h
21 11-07-2008 04:07:03 19.4 C 11.18 g/m*3 19.4 C 0 km/h
22 11-07-2008 04:19:03 19.5 C 10.91 g/m*3 19.5 C 0 km/h
23 11-07-2008 04:31:03 19.5 C 11.24 g/m*3 19.5 C 0 km/h
24 11-07-2008 04:43:03 19.4 C 11.18 g/m*3 19.4 C 0 km/h
25 11-07-2008 04:55:03 19.3 C 11.11 g/m*3 19.3 C 0 km/h
Sensor: Nr:Datum:Temp:Abs-Feuchte:Windchill:Wind:
Aussen-T/F 26 11-07-2008 05:07:03 19.1 C 10.98 g/m*3 19.1 C 0 km/h
27 11-07-2008 05:19:03 19.2 C 11.05 g/m*3 19.2 C 0 km/h
28 11-07-2008 05:31:03 19 C 11.08 g/m*3 19 C 0 km/h
29 11-07-2008 05:43:03 18.8 C 11.43 g/m*3 18.8 C 0 km/h
30 11-07-2008 05:55:03 18.9 C 11.66 g/m*3 18.9 C 0 km/h
31 11-07-2008 06:07:03 19.1 C 11.31 g/m*3 19.1 C 0 km/h
32 11-07-2008 06:19:03 19.1 C 11.31 g/m*3 19.1 C 0 km/h
33 11-07-2008 06:31:03 19 C 11.57 g/m*3 19 C 0 km/h
34 11-07-2008 06:43:03 18.8 C 11.92 g/m*3 18.8 C 0 km/h
35 11-07-2008 06:55:03 18.8 C 12.08 g/m*3 18.8 C 0 km/h
36 11-07-2008 07:07:02 19.2 C 12.04 g/m*3 19.2 C 0 km/h
37 11-07-2008 07:19:02 19.6 C 11.99 g/m*3 19.6 C 0 km/h
38 11-07-2008 07:31:01 19.9 C 11.68 g/m*3 19.9 C 0 km/h
39 11-07-2008 07:43:01 20 C 11.41 g/m*3 20 C 0 km/h
40 11-07-2008 07:55:03 19.7 C 11.55 g/m*3 19.7 C 0 km/h
41 11-07-2008 08:07:02 19.7 C 11.72 g/m*3 19.7 C 0 km/h
42 11-07-2008 08:19:03 20.3 C 11.61 g/m*3 20.3 C 0 km/h
43 11-07-2008 08:31:02 21.2 C 11.3 g/m*3 21.2 C 0 km/h
44 11-07-2008 08:43:02 21.5 C 11.31 g/m*3 21.5 C 0 km/h
45 11-07-2008 08:55:02 21.7 C 11.45 g/m*3 21.7 C 0 km/h
46 11-07-2008 09:07:02 21.6 C 11.38 g/m*3 21.6 C 0 km/h
47 11-07-2008 09:19:03 21.5 C 11.31 g/m*3 21.5 C 0 km/h
48 11-07-2008 09:31:02 22 C 11.06 g/m*3 22 C 0 km/h
49 11-07-2008 09:43:02 22.6 C 11.05 g/m*3 22.6 C 0 km/h
50 11-07-2008 09:55:02 23 C 10.89 g/m*3 23 C 0 km/h
Sensor: Nr:Datum:Temp:Abs-Feuchte:Windchill:Wind:
Aussen-T/F 51 11-07-2008 10:07:02 23 C 10.69 g/m*3 23 C 0 km/h
52 11-07-2008 10:19:02 23.2 C 10.6 g/m*3 23.2 C 0 km/h
53 11-07-2008 10:31:02 22.9 C 10.83 g/m*3 22.9 C 0 km/h
54 11-07-2008 10:43:02 22.7 C 10.91 g/m*3 22.7 C 0 km/h
55 11-07-2008 10:55:01 22.5 C 10.59 g/m*3 22.5 C 0 km/h
56 11-07-2008 11:07:02 22.3 C 10.47 g/m*3 22.3 C 0 km/h
57 11-07-2008 11:19:01 21.9 C 10.81 g/m*3 21.9 C 0 km/h
58 11-07-2008 11:31:02 22.5 C 10.59 g/m*3 22.5 C 0 km/h
59 11-07-2008 11:43:03 23.6 C 10.21 g/m*3 23.6 C 0 km/h
60 11-07-2008 11:55:02 23.5 C 9.94 g/m*3 23.5 C 0 km/h
61 11-07-2008 12:07:02 22.8 C 10.16 g/m*3 22.8 C 0 km/h
62 11-07-2008 12:19:01 22.4 C 10.33 g/m*3 22.4 C 0 km/h
63 11-07-2008 12:31:02 23 C 10.28 g/m*3 23 C 0 km/h
64 11-07-2008 12:43:02 22.6 C 10.45 g/m*3 22.6 C 0 km/h
65 11-07-2008 12:55:02 22.9 C 10.42 g/m*3 22.9 C 0 km/h
66 11-07-2008 13:07:02 23.5 C 10.36 g/m*3 23.5 C 0 km/h
67 11-07-2008 13:19:02 23.7 C 10.05 g/m*3 23.7 C 0 km/h
68 11-07-2008 13:31:03 24.2 C 10.12 g/m*3 24.2 C 0 km/h
69 11-07-2008 13:43:03 23 C 10.07 g/m*3 23 C 0 km/h
70 11-07-2008 13:55:02 22 C 10.29 g/m*3 22 C 0 km/h
71 11-07-2008 14:07:01 22.1 C 10.15 g/m*3 22.1 C 0 km/h
72 11-07-2008 14:19:02 22.4 C 10.13 g/m*3 22.4 C 0 km/h
73 11-07-2008 14:31:01 22.1 C 10.35 g/m*3 22.1 C 0 km/h
74 11-07-2008 14:43:01 20.8 C 11.41 g/m*3 20.8 C 0 km/h
75 11-07-2008 14:55:02 20.1 C 11.99 g/m*3 20.1 C 0 km/h
Sensor: Nr:Datum:Temp:Abs-Feuchte:Windchill:Wind:
Aussen-T/F 76 11-07-2008 15:07:01 20.4 C 12.21 g/m*3 20.4 C 0 km/h
77 11-07-2008 15:19:02 20.7 C 11.52 g/m*3 20.7 C 0 km/h
78 11-07-2008 15:31:01 20.9 C 11.47 g/m*3 20.9 C 0 km/h
79 11-07-2008 15:43:01 21.2 C 11.3 g/m*3 21.2 C 0 km/h
80 11-07-2008 15:55:01 21.3 C 11 g/m*3 21.3 C 0 km/h
81 11-07-2008 16:07:01 21.5 C 10.94 g/m*3 21.5 C 0 km/h
82 11-07-2008 16:19:02 21.9 C 11 g/m*3 21.9 C 0 km/h
83 11-07-2008 16:31:01 21.7 C 10.68 g/m*3 21.7 C 0 km/h
84 11-07-2008 16:43:01 20.9 C 10.93 g/m*3 20.9 C 0 km/h
85 11-07-2008 16:55:01 20.7 C 11.16 g/m*3 20.7 C 0 km/h
86 11-07-2008 17:07:02 21.2 C 11.3 g/m*3 21.2 C 0 km/h
87 11-07-2008 17:19:01 22 C 11.06 g/m*3 22 C 0 km/h
88 11-07-2008 17:31:01 22 C 10.67 g/m*3 22 C 0 km/h
89 11-07-2008 17:43:01 22 C 10.67 g/m*3 22 C 0 km/h
90 11-07-2008 17:55:01 22.6 C 10.45 g/m*3 22.6 C 0 km/h
91 11-07-2008 18:07:02 23.5 C 10.15 g/m*3 23.5 C 0 km/h
92 11-07-2008 18:19:01 23.4 C 9.67 g/m*3 23.4 C 0 km/h
93 11-07-2008 18:31:02 22.9 C 9.61 g/m*3 22.9 C 0 km/h
94 11-07-2008 18:43:02 22.2 C 9.42 g/m*3 22.2 C 0 km/h
95 11-07-2008 18:55:02 21.7 C 9.73 g/m*3 21.7 C 0 km/h
96 11-07-2008 19:07:02 21.5 C 9.99 g/m*3 21.5 C 0 km/h
97 11-07-2008 19:19:02 21.6 C 9.86 g/m*3 21.6 C 0 km/h
98 11-07-2008 19:31:02 21.5 C 9.99 g/m*3 21.5 C 0 km/h
99 11-07-2008 19:43:02 19.7 C 11.72 g/m*3 19.7 C 0 km/h
100 11-07-2008 19:55:02 18.6 C 12.57 g/m*3 18.6 C 0 km/h
Sensor: Nr:Datum:Temp:Abs-Feuchte:Windchill:Wind:
Aussen-T/F 101 11-07-2008 20:07:01 18.3 C 12.82 g/m*3 18.3 C 0 km/h
102 11-07-2008 20:19:01 18 C 12.59 g/m*3 18 C 0 km/h
103 11-07-2008 20:31:02 18.3 C 12.51 g/m*3 18.3 C 0 km/h
104 11-07-2008 20:43:02 18.1 C 11.43 g/m*3 18.1 C 0 km/h
105 11-07-2008 20:55:02 17.9 C 11.3 g/m*3 17.9 C 0 km/h
106 11-07-2008 21:07:02 17.8 C 11.23 g/m*3 17.8 C 0 km/h
107 11-07-2008 21:19:02 17.6 C 11.1 g/m*3 17.6 C 0 km/h
108 11-07-2008 21:31:02 17.5 C 11.18 g/m*3 17.5 C 0 km/h
109 11-07-2008 21:43:02 17.4 C 11.12 g/m*3 17.4 C 0 km/h
110 11-07-2008 21:55:02 17.5 C 11.33 g/m*3 17.5 C 0 km/h
111 11-07-2008 22:07:02 17.2 C 11.13 g/m*3 17.2 C 0 km/h
112 11-07-2008 22:19:02 17.2 C 11.28 g/m*3 17.2 C 0 km/h
113 11-07-2008 22:31:02 17.2 C 11.28 g/m*3 17.2 C 0 km/h
114 11-07-2008 22:43:02 17.2 C 11.28 g/m*3 17.2 C 0 km/h
115 11-07-2008 22:55:02 17.2 C 11.42 g/m*3 17.2 C 0 km/h
116 11-07-2008 23:07:02 17.7 C 11.62 g/m*3 17.7 C 0 km/h
117 11-07-2008 23:19:02 17.5 C 11.33 g/m*3 17.5 C 0 km/h
118 11-07-2008 23:31:02 17.6 C 11.25 g/m*3 17.6 C 0 km/h
119 11-07-2008 23:43:02 17.5 C 11.18 g/m*3 17.5 C 0 km/h
120 11-07-2008 23:55:01 17.6 C 11.1 g/m*3 17.6 C 0 km/h
121 12-07-2008 00:08:03 17.4 C 11.12 g/m*3 17.4 C 0 km/h
122 12-07-2008 00:20:03 17.5 C 11.03 g/m*3 17.5 C 0 km/h
123 12-07-2008 00:32:03 17.2 C 10.84 g/m*3 17.2 C 0 km/h
124 12-07-2008 00:44:03 17.1 C 10.92 g/m*3 17.1 C 0 km/h
125 12-07-2008 00:56:03 17.1 C 10.92 g/m*3 17.1 C 0 km/h
Sensor: Nr:Datum:Temp:Abs-Feuchte:Windchill:Wind:
Aussen-T/F 126 12-07-2008 01:08:03 17.1 C 10.77 g/m*3 17.1 C 0 km/h
127 12-07-2008 01:20:03 17.2 C 10.84 g/m*3 17.2 C 0 km/h
128 12-07-2008 01:32:03 17.1 C 10.77 g/m*3 17.1 C 0 km/h
129 12-07-2008 01:44:03 17 C 10.71 g/m*3 17 C 0 km/h
130 12-07-2008 01:56:03 16.9 C 10.79 g/m*3 16.9 C 0 km/h
131 12-07-2008 02:08:03 16.9 C 10.79 g/m*3 16.9 C 0 km/h
132 12-07-2008 02:20:03 16.8 C 10.72 g/m*3 16.8 C 0 km/h
133 12-07-2008 02:32:03 16.7 C 10.66 g/m*3 16.7 C 0 km/h
134 12-07-2008 02:44:03 16.8 C 10.58 g/m*3 16.8 C 0 km/h
135 12-07-2008 02:56:03 16.9 C 10.64 g/m*3 16.9 C 0 km/h
136 12-07-2008 03:08:03 16.9 C 10.5 g/m*3 16.9 C 0 km/h
137 12-07-2008 03:20:04 16.8 C 10.44 g/m*3 16.8 C 0 km/h
138 12-07-2008 03:32:04 16.7 C 10.37 g/m*3 16.7 C 0 km/h
139 12-07-2008 03:44:04 16.7 C 10.37 g/m*3 16.7 C 0 km/h
140 12-07-2008 03:56:04 16.7 C 10.37 g/m*3 16.7 C 0 km/h
141 12-07-2008 04:08:04 16.8 C 10.58 g/m*3 16.8 C 0 km/h
142 12-07-2008 04:20:04 16.9 C 10.5 g/m*3 16.9 C 0 km/h
143 12-07-2008 04:32:04 16.9 C 10.5 g/m*3 16.9 C 0 km/h
144 12-07-2008 04:44:04 17 C 10.27 g/m*3 17 C 0 km/h
145 12-07-2008 04:56:04 17.1 C 10.19 g/m*3 17.1 C 0 km/h
146 12-07-2008 05:08:04 17 C 10.13 g/m*3 17 C 0 km/h
147 12-07-2008 05:20:04 16.8 C 10.29 g/m*3 16.8 C 0 km/h
148 12-07-2008 05:32:04 16.6 C 10.31 g/m*3 16.6 C 0 km/h
149 12-07-2008 05:44:04 16.4 C 10.19 g/m*3 16.4 C 0 km/h
150 12-07-2008 05:56:04 16.2 C 10.2 g/m*3 16.2 C 0 km/h
Sensor: Nr:Datum:Temp:Abs-Feuchte:Windchill:Wind:
Aussen-T/F 151 12-07-2008 06:08:04 16 C 10.22 g/m*3 16 C 0 km/h
152 12-07-2008 06:20:04 15.8 C 10.36 g/m*3 15.8 C 0 km/h
153 12-07-2008 06:32:04 15.8 C 10.5 g/m*3 15.8 C 0 km/h
154 12-07-2008 06:44:04 15.8 C 10.5 g/m*3 15.8 C 0 km/h
155 12-07-2008 06:56:04 16 C 10.49 g/m*3 16 C 0 km/h
156 12-07-2008 07:08:04 16.1 C 10.55 g/m*3 16.1 C 0 km/h
157 12-07-2008 07:20:04 16.3 C 10.41 g/m*3 16.3 C 0 km/h
158 12-07-2008 07:32:05 16.6 C 10.31 g/m*3 16.6 C 0 km/h
159 12-07-2008 07:44:05 16.8 C 10.01 g/m*3 16.8 C 0 km/h
160 12-07-2008 07:56:05 17 C 9.69 g/m*3 17 C 0 km/h
161 12-07-2008 08:08:05 17.2 C 9.67 g/m*3 17.2 C 0 km/h
162 12-07-2008 08:20:02 17.4 C 9.34 g/m*3 17.4 C 0 km/h
163 12-07-2008 08:32:02 17.8 C 9.26 g/m*3 17.8 C 0 km/h
164 12-07-2008 08:44:02 17.9 C 9.01 g/m*3 17.9 C 0 km/h
165 12-07-2008 08:56:02 18.1 C 8.65 g/m*3 18.1 C 0 km/h
166 12-07-2008 09:08:02 18.2 C 8.7 g/m*3 18.2 C 0 km/h
167 12-07-2008 09:20:03 18 C 8.6 g/m*3 18 C 0 km/h
168 12-07-2008 09:32:02 18.5 C 8.86 g/m*3 18.5 C 0 km/h
169 12-07-2008 09:44:02 18.5 C 9.18 g/m*3 18.5 C 0 km/h
170 12-07-2008 09:56:01 16.2 C 10.34 g/m*3 16.2 C 0 km/h
171 12-07-2008 10:08:02 16 C 10.9 g/m*3 16 C 0 km/h
172 12-07-2008 10:20:01 16 C 11.04 g/m*3 16 C 0 km/h
173 12-07-2008 10:32:01 16.7 C 11.51 g/m*3 16.7 C 0 km/h
174 12-07-2008 10:44:01 18 C 11.21 g/m*3 18 C 0 km/h
175 12-07-2008 10:56:01 19.3 C 10.62 g/m*3 19.3 C 0 km/h
Sensor: Nr:Datum:Temp:Abs-Feuchte:Windchill:Wind:
Aussen-T/F 176 12-07-2008 11:08:02 20.3 C 9.5 g/m*3 20.3 C 0 km/h
177 12-07-2008 11:20:01 19.6 C 8.78 g/m*3 19.6 C 0 km/h
178 12-07-2008 11:32:02 17.6 C 10.05 g/m*3 17.6 C 0 km/h
179 12-07-2008 11:44:03 15.7 C 10.17 g/m*3 15.7 C 0 km/h
180 12-07-2008 11:56:02 15.5 C 10.57 g/m*3 15.5 C 0 km/h
181 12-07-2008 12:08:02 16.6 C 11.3 g/m*3 16.6 C 0 km/h
182 12-07-2008 12:20:02 17.5 C 11.03 g/m*3 17.5 C 0 km/h
183 12-07-2008 12:32:02 18.9 C 11.02 g/m*3 18.9 C 0 km/h
184 12-07-2008 12:44:02 20.7 C 10.26 g/m*3 20.7 C 0 km/h
185 12-07-2008 12:56:01 21.4 C 9.37 g/m*3 21.4 C 0 km/h
186 12-07-2008 13:08:02 20.1 C 8.69 g/m*3 20.1 C 0 km/h
187 12-07-2008 13:20:01 19.7 C 8.66 g/m*3 19.7 C 0 km/h
188 12-07-2008 13:32:02 19.4 C 8.34 g/m*3 19.4 C 0 km/h
189 12-07-2008 13:44:02 19.3 C 9.62 g/m*3 19.3 C 0 km/h
190 12-07-2008 13:56:01 20 C 8.64 g/m*3 20 C 0 km/h
191 12-07-2008 14:08:01 20.8 C 8.69 g/m*3 20.8 C 0 km/h
192 12-07-2008 14:20:02 21.6 C 7.78 g/m*3 21.6 C 0 km/h
193 12-07-2008 14:32:01 21.6 C 8.16 g/m*3 21.6 C 0 km/h
194 12-07-2008 14:44:01 21.5 C 7.92 g/m*3 21.5 C 0 km/h
195 12-07-2008 14:56:01 21.4 C 7.5 g/m*3 21.4 C 0 km/h
196 12-07-2008 15:08:02 20.3 C 7.39 g/m*3 20.3 C 0 km/h
197 12-07-2008 15:20:01 21.2 C 7.78 g/m*3 21.2 C 0 km/h
198 12-07-2008 15:32:03 21.1 C 7.55 g/m*3 21.1 C 0 km/h
199 12-07-2008 15:44:03 20.4 C 7.43 g/m*3 20.4 C 0 km/h
200 12-07-2008 15:56:03 19.1 C 7.54 g/m*3 19.1 C 0 km/h
Sensor: Nr:Datum:Temp:Abs-Feuchte:Windchill:Wind:
Aussen-T/F 201 12-07-2008 16:08:02 18.6 C 8.59 g/m*3 18.6 C 0 km/h
202 12-07-2008 16:20:03 19.6 C 8.27 g/m*3 19.6 C 0 km/h
203 12-07-2008 16:32:02 20.3 C 7.91 g/m*3 20.3 C 0 km/h
204 12-07-2008 16:44:02 20.4 C 7.61 g/m*3 20.4 C 0 km/h
205 12-07-2008 16:56:02 18.9 C 8.75 g/m*3 18.9 C 0 km/h
206 12-07-2008 17:08:02 17.1 C 9.75 g/m*3 17.1 C 0 km/h
207 12-07-2008 17:20:03 17.2 C 10.4 g/m*3 17.2 C 0 km/h
208 12-07-2008 17:32:02 17.2 C 10.54 g/m*3 17.2 C 0 km/h
209 12-07-2008 17:44:02 17.3 C 10.31 g/m*3 17.3 C 0 km/h
210 12-07-2008 17:56:02 16.4 C 10.33 g/m*3 16.4 C 0 km/h
211 12-07-2008 18:08:02 16.3 C 10.68 g/m*3 16.3 C 0 km/h
212 12-07-2008 18:20:02 16.4 C 10.89 g/m*3 16.4 C 0 km/h
213 12-07-2008 18:32:02 17.1 C 10.77 g/m*3 17.1 C 0 km/h
214 12-07-2008 18:44:02 17.8 C 11.23 g/m*3 17.8 C 0 km/h
215 12-07-2008 18:56:01 19.7 C 9.68 g/m*3 19.7 C 0 km/h
216 12-07-2008 19:08:01 19.7 C 9.51 g/m*3 19.7 C 0 km/h
217 12-07-2008 19:20:01 20.3 C 9.67 g/m*3 20.3 C 0 km/h
218 12-07-2008 19:32:01 19.7 C 9 g/m*3 19.7 C 0 km/h
219 12-07-2008 19:44:02 19 C 9.29 g/m*3 19 C 0 km/h
220 12-07-2008 19:56:01 18.7 C 9.29 g/m*3 18.7 C 0 km/h
221 12-07-2008 20:08:02 18.4 C 9.12 g/m*3 18.4 C 0 km/h
222 12-07-2008 20:20:01 18 C 9.68 g/m*3 18 C 0 km/h
223 12-07-2008 20:32:02 17.6 C 9.75 g/m*3 17.6 C 0 km/h
224 12-07-2008 20:44:02 17 C 9.55 g/m*3 17 C 0 km/h
225 12-07-2008 20:56:02 16.6 C 9.75 g/m*3 16.6 C 0 km/h
Sensor: Nr:Datum:Temp:Abs-Feuchte:Windchill:Wind:
Aussen-T/F 226 12-07-2008 21:08:02 16.5 C 9.41 g/m*3 16.5 C 0 km/h
227 12-07-2008 21:20:02 16.2 C 9.24 g/m*3 16.2 C 0 km/h
228 12-07-2008 21:32:02 16 C 9.4 g/m*3 16 C 0 km/h
229 12-07-2008 21:44:02 16.1 C 9.46 g/m*3 16.1 C 0 km/h
230 12-07-2008 21:56:02 16 C 9.54 g/m*3 16 C 0 km/h
231 12-07-2008 22:08:01 15.9 C 9.75 g/m*3 15.9 C 0 km/h
232 12-07-2008 22:20:01 15.8 C 9.83 g/m*3 15.8 C 0 km/h
233 12-07-2008 22:32:02 15.8 C 9.83 g/m*3 15.8 C 0 km/h
234 12-07-2008 22:44:02 15.7 C 9.9 g/m*3 15.7 C 0 km/h
235 12-07-2008 22:56:02 15.7 C 9.9 g/m*3 15.7 C 0 km/h
236 12-07-2008 23:08:02 15.8 C 9.96 g/m*3 15.8 C 0 km/h
237 12-07-2008 23:20:02 15.6 C 9.84 g/m*3 15.6 C 0 km/h
238 12-07-2008 23:33:03 15.5 C 9.78 g/m*3 15.5 C 0 km/h
239 12-07-2008 23:45:03 15.5 C 9.78 g/m*3 15.5 C 0 km/h
240 12-07-2008 23:57:03 15.5 C 9.78 g/m*3 15.5 C 0 km/h
241 13-07-2008 00:09:03 15.2 C 9.61 g/m*3 15.2 C 0 km/h
242 13-07-2008 00:21:03 14.9 C 9.56 g/m*3 14.9 C 0 km/h
243 13-07-2008 00:33:03 14.8 C 9.63 g/m*3 14.8 C 0 km/h
244 13-07-2008 00:45:03 14.7 C 9.57 g/m*3 14.7 C 0 km/h
245 13-07-2008 00:57:03 14.4 C 9.52 g/m*3 14.4 C 0 km/h
246 13-07-2008 01:09:03 14.2 C 9.52 g/m*3 14.2 C 0 km/h
247 13-07-2008 01:21:03 14.2 C 9.65 g/m*3 14.2 C 0 km/h
248 13-07-2008 01:33:03 14.2 C 9.77 g/m*3 14.2 C 0 km/h
249 13-07-2008 01:45:03 14.2 C 9.65 g/m*3 14.2 C 0 km/h
250 13-07-2008 01:57:03 14.2 C 9.65 g/m*3 14.2 C 0 km/h
Sensor: Nr:Datum:Temp:Abs-Feuchte:Windchill:Wind:
Aussen-T/F 251 13-07-2008 02:09:03 14.1 C 9.71 g/m*3 14.1 C 0 km/h
252 13-07-2008 02:21:03 14 C 9.65 g/m*3 14 C 0 km/h
253 13-07-2008 02:33:03 14 C 9.77 g/m*3 14 C 0 km/h
254 13-07-2008 02:45:03 13.9 C 9.83 g/m*3 13.9 C 0 km/h
255 13-07-2008 02:57:03 13.8 C 9.77 g/m*3 13.8 C 0 km/h
256 13-07-2008 03:09:04 13.8 C 9.77 g/m*3 13.8 C 0 km/h
257 13-07-2008 03:21:04 14 C 9.89 g/m*3 14 C 0 km/h
258 13-07-2008 03:33:04 14.1 C 9.95 g/m*3 14.1 C 0 km/h
259 13-07-2008 03:45:04 14.1 C 9.95 g/m*3 14.1 C 0 km/h
260 13-07-2008 03:57:04 13.9 C 9.95 g/m*3 13.9 C 0 km/h
261 13-07-2008 04:09:04 13.8 C 9.89 g/m*3 13.8 C 0 km/h
262 13-07-2008 04:21:04 13.8 C 10.01 g/m*3 13.8 C 0 km/h
263 13-07-2008 04:33:04 13.9 C 10.07 g/m*3 13.9 C 0 km/h
264 13-07-2008 04:45:04 14 C 10.01 g/m*3 14 C 0 km/h
265 13-07-2008 04:57:04 13.9 C 9.95 g/m*3 13.9 C 0 km/h
266 13-07-2008 05:09:04 14 C 10.01 g/m*3 14 C 0 km/h
267 13-07-2008 05:21:04 13.8 C 10.01 g/m*3 13.8 C 0 km/h
268 13-07-2008 05:33:04 13.8 C 10.01 g/m*3 13.8 C 0 km/h
269 13-07-2008 05:45:04 13.8 C 10.01 g/m*3 13.8 C 0 km/h
270 13-07-2008 05:57:04 13.8 C 10.01 g/m*3 13.8 C 0 km/h
271 13-07-2008 06:09:04 13.8 C 10.01 g/m*3 13.8 C 0 km/h
272 13-07-2008 06:21:04 13.8 C 9.89 g/m*3 13.8 C 0 km/h
273 13-07-2008 06:33:04 13.9 C 9.95 g/m*3 13.9 C 0 km/h
274 13-07-2008 06:45:04 13.9 C 9.95 g/m*3 13.9 C 0 km/h
275 13-07-2008 06:57:04 13.9 C 9.83 g/m*3 13.9 C 0 km/h
Sensor: Nr:Datum:Temp:Abs-Feuchte:Windchill:Wind:
Aussen-T/F 276 13-07-2008 07:09:05 14 C 9.53 g/m*3 14 C 0 km/h
277 13-07-2008 07:21:05 14.1 C 9.47 g/m*3 14.1 C 0 km/h
278 13-07-2008 07:33:05 14.2 C 9.52 g/m*3 14.2 C 0 km/h
279 13-07-2008 07:45:05 14.4 C 9.39 g/m*3 14.4 C 0 km/h
280 13-07-2008 07:57:05 14.6 C 9.51 g/m*3 14.6 C 0 km/h
281 13-07-2008 08:09:05 14.7 C 9.44 g/m*3 14.7 C 0 km/h
282 13-07-2008 08:21:05 15 C 9.1 g/m*3 15 C 0 km/h
283 13-07-2008 08:33:03 15.1 C 8.64 g/m*3 15.1 C 0 km/h
284 13-07-2008 08:45:02 15.2 C 8.57 g/m*3 15.2 C 0 km/h
285 13-07-2008 08:57:02 15.6 C 8.64 g/m*3 15.6 C 0 km/h
286 13-07-2008 09:09:02 16.1 C 8.64 g/m*3 16.1 C 0 km/h
287 13-07-2008 09:21:02 16.2 C 8.55 g/m*3 16.2 C 0 km/h
288 13-07-2008 09:33:02 15.7 C 8.03 g/m*3 15.7 C 0 km/h
289 13-07-2008 09:45:01 15.7 C 8.3 g/m*3 15.7 C 0 km/h
290 13-07-2008 09:57:01 16.2 C 8.55 g/m*3 16.2 C 0 km/h
291 13-07-2008 10:09:02 17.8 C 8.2 g/m*3 17.8 C 0 km/h
292 13-07-2008 10:21:01 18.1 C 7.88 g/m*3 18.1 C 0 km/h
293 13-07-2008 10:33:02 17.8 C 7.74 g/m*3 17.8 C 0 km/h
294 13-07-2008 10:45:02 17.9 C 7.79 g/m*3 17.9 C 0 km/h
295 13-07-2008 10:57:02 18.6 C 7.48 g/m*3 18.6 C 0 km/h
296 13-07-2008 11:09:02 18.8 C 6.6 g/m*3 18.8 C 0 km/h
297 13-07-2008 11:21:01 19 C 6.52 g/m*3 19 C 0 km/h
298 13-07-2008 11:33:02 19.8 C 6.83 g/m*3 19.8 C 0 km/h
299 13-07-2008 11:45:02 20.2 C 6.29 g/m*3 20.2 C 0 km/h
300 13-07-2008 11:57:02 19.9 C 6.01 g/m*3 19.9 C 0 km/h
Sensor: Nr:Datum:Temp:Abs-Feuchte:Windchill:Wind:
Aussen-T/F 301 13-07-2008 12:09:02 21.3 C 5.78 g/m*3 21.3 C 0 km/h
302 13-07-2008 12:21:02 21.2 C 5.93 g/m*3 21.2 C 0 km/h
303 13-07-2008 12:33:03 22.1 C 5.86 g/m*3 22.1 C 0 km/h
304 13-07-2008 12:45:02 22 C 5.43 g/m*3 22 C 0 km/h
305 13-07-2008 12:57:02 21.4 C 5.81 g/m*3 21.4 C 0 km/h
306 13-07-2008 13:09:01 21 C 5.5 g/m*3 21 C 0 km/h
307 13-07-2008 13:21:02 21.1 C 5.53 g/m*3 21.1 C 0 km/h
308 13-07-2008 13:33:01 21.2 C 6.12 g/m*3 21.2 C 0 km/h
309 13-07-2008 13:45:02 22.5 C 6.19 g/m*3 22.5 C 0 km/h
310 13-07-2008 13:57:02 23.6 C 5.96 g/m*3 23.6 C 0 km/h
311 13-07-2008 14:09:02 23.6 C 5.53 g/m*3 23.6 C 0 km/h
312 13-07-2008 14:21:01 21.4 C 5.62 g/m*3 21.4 C 0 km/h
313 13-07-2008 14:33:02 20.4 C 5.66 g/m*3 20.4 C 0 km/h
314 13-07-2008 14:45:02 19.4 C 5.84 g/m*3 19.4 C 0 km/h
315 13-07-2008 14:57:02 19.9 C 6.19 g/m*3 19.9 C 0 km/h
316 13-07-2008 15:09:02 21.5 C 5.66 g/m*3 21.5 C 0 km/h
317 13-07-2008 15:21:02 23.7 C 5.78 g/m*3 23.7 C 0 km/h
318 13-07-2008 15:33:02 23.3 C 4.81 g/m*3 23.3 C 0 km/h
319 13-07-2008 15:45:02 22.5 C 4.99 g/m*3 22.5 C 0 km/h
320 13-07-2008 15:57:02 21.6 C 5.12 g/m*3 21.6 C 0 km/h
321 13-07-2008 16:09:03 21.6 C 5.12 g/m*3 21.6 C 0 km/h
322 13-07-2008 16:21:02 23.5 C 5.08 g/m*3 23.5 C 0 km/h
323 13-07-2008 16:33:02 23.5 C 5.08 g/m*3 23.5 C 0 km/h
324 13-07-2008 16:45:02 22.2 C 5.1 g/m*3 22.2 C 0 km/h
325 13-07-2008 16:57:02 21.5 C 5.47 g/m*3 21.5 C 0 km/h
Sensor: Nr:Datum:Temp:Abs-Feuchte:Windchill:Wind:
Aussen-T/F 326 13-07-2008 17:09:01 21.3 C 5.78 g/m*3 21.3 C 0 km/h
327 13-07-2008 17:21:02 21.2 C 5.93 g/m*3 21.2 C 0 km/h
328 13-07-2008 17:33:02 20.9 C 5.83 g/m*3 20.9 C 0 km/h
329 13-07-2008 17:45:02 20.5 C 6.23 g/m*3 20.5 C 0 km/h
330 13-07-2008 17:57:03 20.4 C 6.01 g/m*3 20.4 C 0 km/h
331 13-07-2008 18:09:02 21 C 5.86 g/m*3 21 C 0 km/h
332 13-07-2008 18:21:02 21.6 C 5.69 g/m*3 21.6 C 0 km/h
333 13-07-2008 18:33:02 21.6 C 5.5 g/m*3 21.6 C 0 km/h
334 13-07-2008 18:45:02 23 C 5.34 g/m*3 23 C 0 km/h
335 13-07-2008 18:57:02 23.2 C 5.2 g/m*3 23.2 C 0 km/h
336 13-07-2008 19:09:02 22 C 4.85 g/m*3 22 C 0 km/h
337 13-07-2008 19:21:02 22.2 C 5.1 g/m*3 22.2 C 0 km/h
338 13-07-2008 19:33:01 22.3 C 4.94 g/m*3 22.3 C 0 km/h
339 13-07-2008 19:45:02 22.7 C 5.46 g/m*3 22.7 C 0 km/h
340 13-07-2008 19:57:02 22.7 C 5.25 g/m*3 22.7 C 0 km/h
341 13-07-2008 20:09:01 22.7 C 5.05 g/m*3 22.7 C 0 km/h
342 13-07-2008 20:21:02 22.6 C 5.22 g/m*3 22.6 C 0 km/h
343 13-07-2008 20:33:01 22.1 C 5.27 g/m*3 22.1 C 0 km/h
344 13-07-2008 20:45:02 21.6 C 6.07 g/m*3 21.6 C 0 km/h
345 13-07-2008 20:57:02 21 C 5.68 g/m*3 21 C 0 km/h
346 13-07-2008 21:09:01 20.1 C 5.91 g/m*3 20.1 C 0 km/h
347 13-07-2008 21:21:01 19.3 C 5.81 g/m*3 19.3 C 0 km/h
348 13-07-2008 21:33:01 18.8 C 5.96 g/m*3 18.8 C 0 km/h
349 13-07-2008 21:45:01 18 C 6.3 g/m*3 18 C 0 km/h
350 13-07-2008 21:57:01 17.3 C 6.19 g/m*3 17.3 C 0 km/h
Sensor: Nr:Datum:Temp:Abs-Feuchte:Windchill:Wind:
Aussen-T/F 351 13-07-2008 22:09:02 16.9 C 6.33 g/m*3 16.9 C 0 km/h
352 13-07-2008 22:21:01 16.6 C 6.5 g/m*3 16.6 C 0 km/h
353 13-07-2008 22:33:02 16.4 C 6.42 g/m*3 16.4 C 0 km/h
354 13-07-2008 22:45:02 16.1 C 6.58 g/m*3 16.1 C 0 km/h
355 13-07-2008 22:57:02 15.8 C 6.73 g/m*3 15.8 C 0 km/h
356 13-07-2008 23:10:02 15.4 C 6.83 g/m*3 15.4 C 0 km/h
357 13-07-2008 23:22:02 15.1 C 6.97 g/m*3 15.1 C 0 km/h
358 13-07-2008 23:34:02 14.9 C 7.01 g/m*3 14.9 C 0 km/h
359 13-07-2008 23:46:02 14.7 C 7.05 g/m*3 14.7 C 0 km/h
360 13-07-2008 23:58:02 14.2 C 7.2 g/m*3 14.2 C 0 km/h
361 14-07-2008 00:10:02 14 C 7.24 g/m*3 14 C 0 km/h
362 14-07-2008 00:22:02 13.8 C 7.39 g/m*3 13.8 C 0 km/h
363 14-07-2008 00:34:02 13.6 C 7.53 g/m*3 13.6 C 0 km/h
364 14-07-2008 00:46:02 13.4 C 7.44 g/m*3 13.4 C 0 km/h
365 14-07-2008 00:58:02 13.2 C 7.58 g/m*3 13.2 C 0 km/h
366 14-07-2008 01:10:02 13.1 C 7.65 g/m*3 13.1 C 0 km/h
367 14-07-2008 01:22:03 13 C 7.6 g/m*3 13 C 0 km/h
368 14-07-2008 01:34:03 13 C 7.71 g/m*3 13 C 0 km/h
369 14-07-2008 01:46:03 12.8 C 7.73 g/m*3 12.8 C 0 km/h
370 14-07-2008 01:58:03 12.7 C 7.68 g/m*3 12.7 C 0 km/h
371 14-07-2008 02:10:03 12.4 C 7.76 g/m*3 12.4 C 0 km/h
372 14-07-2008 02:22:03 12.3 C 7.82 g/m*3 12.3 C 0 km/h
373 14-07-2008 02:34:03 12.1 C 7.83 g/m*3 12.1 C 0 km/h
374 14-07-2008 02:46:03 12 C 7.78 g/m*3 12 C 0 km/h
375 14-07-2008 02:58:03 11.8 C 7.89 g/m*3 11.8 C 0 km/h
Sensor: Nr:Datum:Temp:Abs-Feuchte:Windchill:Wind:
Aussen-T/F 376 14-07-2008 03:10:03 11.5 C 7.75 g/m*3 11.5 C 0 km/h
377 14-07-2008 03:22:03 11.4 C 7.8 g/m*3 11.4 C 0 km/h
378 14-07-2008 03:34:03 11.3 C 7.85 g/m*3 11.3 C 0 km/h
379 14-07-2008 03:46:03 11.2 C 7.8 g/m*3 11.2 C 0 km/h
380 14-07-2008 03:58:03 11 C 7.81 g/m*3 11 C 0 km/h
381 14-07-2008 04:10:03 10.9 C 7.86 g/m*3 10.9 C 0 km/h
382 14-07-2008 04:22:03 10.8 C 7.81 g/m*3 10.8 C 0 km/h
383 14-07-2008 04:34:03 10.7 C 7.86 g/m*3 10.7 C 0 km/h
384 14-07-2008 04:46:03 10.4 C 7.81 g/m*3 10.4 C 0 km/h
385 14-07-2008 04:58:03 10.4 C 7.81 g/m*3 10.4 C 0 km/h
386 14-07-2008 05:10:03 10.3 C 7.76 g/m*3 10.3 C 0 km/h
387 14-07-2008 05:22:04 10.2 C 7.8 g/m*3 10.2 C 0 km/h
388 14-07-2008 05:34:04 10.1 C 7.75 g/m*3 10.1 C 0 km/h
389 14-07-2008 05:46:04 10 C 7.8 g/m*3 10 C 0 km/h
390 14-07-2008 05:58:04 10 C 7.8 g/m*3 10 C 0 km/h
391 14-07-2008 06:10:04 9.9 C 7.84 g/m*3 9.9 C 0 km/h
392 14-07-2008 06:22:04 9.9 C 7.94 g/m*3 9.9 C 0 km/h
393 14-07-2008 06:34:04 10 C 7.89 g/m*3 10 C 0 km/h
394 14-07-2008 06:46:04 9.9 C 7.94 g/m*3 9.9 C 0 km/h
395 14-07-2008 06:58:04 9.9 C 7.84 g/m*3 9.9 C 0 km/h
396 14-07-2008 07:10:03 10.1 C 7.85 g/m*3 10.1 C 0 km/h
397 14-07-2008 07:22:02 10.2 C 7.9 g/m*3 10.2 C 0 km/h
398 14-07-2008 07:34:03 10.5 C 7.95 g/m*3 10.5 C 0 km/h
399 14-07-2008 07:46:02 10.8 C 8.11 g/m*3 10.8 C 0 km/h
400 14-07-2008 07:58:02 11.1 C 8.06 g/m*3 11.1 C 0 km/h
Sensor: Nr:Datum:Temp:Abs-Feuchte:Windchill:Wind:
Aussen-T/F 401 14-07-2008 08:10:02 11.3 C 8.06 g/m*3 11.3 C 0 km/h
402 14-07-2008 08:22:02 11.7 C 8.16 g/m*3 11.7 C 0 km/h
403 14-07-2008 08:34:02 12.5 C 8.69 g/m*3 12.5 C 0 km/h
404 14-07-2008 08:46:02 12.9 C 8.68 g/m*3 12.9 C 0 km/h
405 14-07-2008 08:58:02 13.5 C 8.66 g/m*3 13.5 C 0 km/h
406 14-07-2008 09:10:02 14.4 C 9.02 g/m*3 14.4 C 0 km/h
407 14-07-2008 09:22:01 15.2 C 8.96 g/m*3 15.2 C 0 km/h
408 14-07-2008 09:34:02 16.2 C 8.83 g/m*3 16.2 C 0 km/h
409 14-07-2008 09:46:02 17.3 C 8.84 g/m*3 17.3 C 0 km/h
410 14-07-2008 09:58:02 16.8 C 8.15 g/m*3 16.8 C 0 km/h
411 14-07-2008 10:10:02 16.6 C 8.19 g/m*3 16.6 C 0 km/h
412 14-07-2008 10:22:02 17.4 C 8 g/m*3 17.4 C 0 km/h
413 14-07-2008 10:34:02 16.8 C 7.15 g/m*3 16.8 C 0 km/h
414 14-07-2008 10:46:01 18.1 C 7.88 g/m*3 18.1 C 0 km/h
415 14-07-2008 10:58:01 19.2 C 7.09 g/m*3 19.2 C 0 km/h
416 14-07-2008 11:10:02 18.5 C 6.8 g/m*3 18.5 C 0 km/h
417 14-07-2008 11:22:01 19.2 C 6.76 g/m*3 19.2 C 0 km/h
418 14-07-2008 11:34:01 19.5 C 6.88 g/m*3 19.5 C 0 km/h
419 14-07-2008 11:46:02 20.7 C 7.02 g/m*3 20.7 C 0 km/h
420 14-07-2008 11:58:02 20.2 C 6.99 g/m*3 20.2 C 0 km/h
421 14-07-2008 12:10:02 21.6 C 6.83 g/m*3 21.6 C 0 km/h
422 14-07-2008 12:22:02 22 C 6.79 g/m*3 22 C 0 km/h
423 14-07-2008 12:34:03 22.1 C 6.44 g/m*3 22.1 C 0 km/h
424 14-07-2008 12:46:02 23.2 C 6.65 g/m*3 23.2 C 0 km/h
425 14-07-2008 12:58:03 23.2 C 6.24 g/m*3 23.2 C 0 km/h
Sensor: Nr:Datum:Temp:Abs-Feuchte:Windchill:Wind:
Aussen-T/F 426 14-07-2008 13:10:01 24.2 C 6.16 g/m*3 24.2 C 0 km/h
427 14-07-2008 13:22:02 25.8 C 6.02 g/m*3 25.8 C 0 km/h
428 14-07-2008 13:34:01 26 C 5.36 g/m*3 26 C 0 km/h
429 14-07-2008 13:46:02 25.5 C 5.21 g/m*3 25.5 C 0 km/h
430 14-07-2008 13:58:02 24.5 C 5.15 g/m*3 24.5 C 0 km/h
431 14-07-2008 14:10:01 25.5 C 5.45 g/m*3 25.5 C 0 km/h
432 14-07-2008 14:22:01 24.3 C 5.09 g/m*3 24.3 C 0 km/h
433 14-07-2008 14:34:01 24.1 C 5.47 g/m*3 24.1 C 0 km/h
434 14-07-2008 14:46:02 24.5 C 5.6 g/m*3 24.5 C 0 km/h
435 14-07-2008 14:58:02 25.8 C 5.54 g/m*3 25.8 C 0 km/h
436 14-07-2008 15:10:02 25.7 C 5.03 g/m*3 25.7 C 0 km/h
437 14-07-2008 15:22:02 25.6 C 5.48 g/m*3 25.6 C 0 km/h
438 14-07-2008 15:34:02 25.7 C 4.79 g/m*3 25.7 C 0 km/h
439 14-07-2008 15:46:01 26.3 C 5.2 g/m*3 26.3 C 0 km/h
440 14-07-2008 15:58:01 26.8 C 5.09 g/m*3 26.8 C 0 km/h
441 14-07-2008 16:10:02 27 C 5.15 g/m*3 27 C 0 km/h
442 14-07-2008 16:22:02 27.6 C 5.32 g/m*3 27.6 C 0 km/h
443 14-07-2008 16:34:02 27.4 C 5.26 g/m*3 27.4 C 0 km/h
444 14-07-2008 16:46:02 27.5 C 5.29 g/m*3 27.5 C 0 km/h
445 14-07-2008 16:58:02 26.9 C 5.12 g/m*3 26.9 C 0 km/h
446 14-07-2008 17:10:02 27.3 C 5.23 g/m*3 27.3 C 0 km/h
447 14-07-2008 17:22:02 27.3 C 5.23 g/m*3 27.3 C 0 km/h
448 14-07-2008 17:34:02 27.2 C 5.2 g/m*3 27.2 C 0 km/h
449 14-07-2008 17:46:02 27 C 5.15 g/m*3 27 C 0 km/h
450 14-07-2008 17:58:02 27.9 C 5.41 g/m*3 27.9 C 0 km/h
Sensor: Nr:Datum:Temp:Abs-Feuchte:Windchill:Wind:
Aussen-T/F 451 14-07-2008 18:10:02 27.1 C 5.18 g/m*3 27.1 C 0 km/h
452 14-07-2008 18:22:01 25.1 C 5.56 g/m*3 25.1 C 0 km/h
453 14-07-2008 18:34:02 24.2 C 5.5 g/m*3 24.2 C 0 km/h
454 14-07-2008 18:46:02 25.3 C 5.38 g/m*3 25.3 C 0 km/h
455 14-07-2008 18:58:02 24.8 C 5.01 g/m*3 24.8 C 0 km/h
456 14-07-2008 19:10:02 24.6 C 5.18 g/m*3 24.6 C 0 km/h
457 14-07-2008 19:22:02 23.8 C 5.38 g/m*3 23.8 C 0 km/h
458 14-07-2008 19:34:03 23.7 C 5.56 g/m*3 23.7 C 0 km/h
459 14-07-2008 19:46:02 24.5 C 5.6 g/m*3 24.5 C 0 km/h
460 14-07-2008 19:58:02 25.3 C 5.62 g/m*3 25.3 C 0 km/h
461 14-07-2008 20:10:02 25.4 C 4.94 g/m*3 25.4 C 0 km/h
462 14-07-2008 20:22:02 24.6 C 4.95 g/m*3 24.6 C 0 km/h
463 14-07-2008 20:34:02 23.9 C 5.41 g/m*3 23.9 C 0 km/h
464 14-07-2008 20:46:02 23.4 C 5.68 g/m*3 23.4 C 0 km/h
465 14-07-2008 20:58:02 23.1 C 5.79 g/m*3 23.1 C 0 km/h
466 14-07-2008 21:10:02 22.6 C 6.23 g/m*3 22.6 C 0 km/h
467 14-07-2008 21:22:02 21.7 C 6.49 g/m*3 21.7 C 0 km/h
468 14-07-2008 21:34:03 20.8 C 6.7 g/m*3 20.8 C 0 km/h
469 14-07-2008 21:46:02 20.2 C 6.64 g/m*3 20.2 C 0 km/h
470 14-07-2008 21:58:02 19.9 C 6.87 g/m*3 19.9 C 0 km/h
471 14-07-2008 22:10:02 19.7 C 6.96 g/m*3 19.7 C 0 km/h
472 14-07-2008 22:22:02 19.3 C 6.97 g/m*3 19.3 C 0 km/h
473 14-07-2008 22:34:01 19 C 7.01 g/m*3 19 C 0 km/h
474 14-07-2008 22:46:02 18.7 C 7.2 g/m*3 18.7 C 0 km/h
475 14-07-2008 22:58:02 18.4 C 7.08 g/m*3 18.4 C 0 km/h
Sensor: Nr:Datum:Temp:Abs-Feuchte:Windchill:Wind:
Aussen-T/F 476 14-07-2008 23:10:01 18 C 7.22 g/m*3 18 C 0 km/h
477 14-07-2008 23:22:02 17.7 C 7.39 g/m*3 17.7 C 0 km/h
478 14-07-2008 23:35:02 17.6 C 7.35 g/m*3 17.6 C 0 km/h
479 14-07-2008 23:47:02 17.2 C 7.18 g/m*3 17.2 C 0 km/h
480 14-07-2008 23:59:02 16.8 C 7.43 g/m*3 16.8 C 0 km/h
481 15-07-2008 00:11:03 16.4 C 7.54 g/m*3 16.4 C 0 km/h
482 15-07-2008 00:23:03 16.3 C 7.49 g/m*3 16.3 C 0 km/h
483 15-07-2008 00:35:03 16.2 C 7.45 g/m*3 16.2 C 0 km/h
484 15-07-2008 00:47:03 15.8 C 7.67 g/m*3 15.8 C 0 km/h
485 15-07-2008 00:59:03 15.6 C 7.85 g/m*3 15.6 C 0 km/h
486 15-07-2008 01:11:03 15.3 C 7.84 g/m*3 15.3 C 0 km/h
487 15-07-2008 01:23:03 15.2 C 7.66 g/m*3 15.2 C 0 km/h
488 15-07-2008 01:35:03 15 C 7.69 g/m*3 15 C 0 km/h
489 15-07-2008 01:47:03 14.8 C 7.85 g/m*3 14.8 C 0 km/h
490 15-07-2008 01:59:03 14.7 C 7.93 g/m*3 14.7 C 0 km/h
491 15-07-2008 02:11:03 14.3 C 7.74 g/m*3 14.3 C 0 km/h
492 15-07-2008 02:23:03 14.3 C 7.74 g/m*3 14.3 C 0 km/h
493 15-07-2008 02:35:03 14.1 C 7.77 g/m*3 14.1 C 0 km/h
494 15-07-2008 02:47:03 14 C 7.84 g/m*3 14 C 0 km/h
495 15-07-2008 02:59:03 13.8 C 7.98 g/m*3 13.8 C 0 km/h
496 15-07-2008 03:11:03 13.7 C 7.93 g/m*3 13.7 C 0 km/h
497 15-07-2008 03:23:03 13.6 C 7.89 g/m*3 13.6 C 0 km/h
498 15-07-2008 03:35:03 13.5 C 7.84 g/m*3 13.5 C 0 km/h
499 15-07-2008 03:47:03 13.4 C 7.79 g/m*3 13.4 C 0 km/h
500 15-07-2008 03:59:04 13.4 C 7.9 g/m*3 13.4 C 0 km/h
Sensor: Nr:Datum:Temp:Abs-Feuchte:Windchill:Wind:
Aussen-T/F 501 15-07-2008 04:11:04 13.2 C 7.81 g/m*3 13.2 C 0 km/h
502 15-07-2008 04:23:04 13.1 C 7.87 g/m*3 13.1 C 0 km/h
503 15-07-2008 04:35:04 12.9 C 7.89 g/m*3 12.9 C 0 km/h
504 15-07-2008 04:47:04 12.8 C 7.95 g/m*3 12.8 C 0 km/h
505 15-07-2008 04:59:04 12.7 C 7.9 g/m*3 12.7 C 0 km/h
506 15-07-2008 05:11:04 12.7 C 7.9 g/m*3 12.7 C 0 km/h
507 15-07-2008 05:23:04 12.5 C 7.81 g/m*3 12.5 C 0 km/h
508 15-07-2008 05:35:04 12.5 C 7.92 g/m*3 12.5 C 0 km/h
509 15-07-2008 05:47:04 12.4 C 7.98 g/m*3 12.4 C 0 km/h
510 15-07-2008 05:59:04 12.3 C 7.93 g/m*3 12.3 C 0 km/h
511 15-07-2008 06:11:04 12.1 C 8.04 g/m*3 12.1 C 0 km/h
512 15-07-2008 06:23:04 12.1 C 8.04 g/m*3 12.1 C 0 km/h
513 15-07-2008 06:35:04 12.4 C 8.19 g/m*3 12.4 C 0 km/h
514 15-07-2008 06:47:04 12.6 C 8.19 g/m*3 12.6 C 0 km/h
515 15-07-2008 06:59:04 12.8 C 8.29 g/m*3 12.8 C 0 km/h
516 15-07-2008 07:11:02 13 C 8.28 g/m*3 13 C 0 km/h
517 15-07-2008 07:23:02 13.2 C 8.15 g/m*3 13.2 C 0 km/h
518 15-07-2008 07:35:03 13.4 C 8.37 g/m*3 13.4 C 0 km/h
519 15-07-2008 07:47:02 13.5 C 8.3 g/m*3 13.5 C 0 km/h
520 15-07-2008 07:59:02 13.8 C 8.46 g/m*3 13.8 C 0 km/h
521 15-07-2008 08:11:02 14.1 C 8.5 g/m*3 14.1 C 0 km/h
522 15-07-2008 08:23:02 14.5 C 8.58 g/m*3 14.5 C 0 km/h
523 15-07-2008 08:35:02 15 C 8.59 g/m*3 15 C 0 km/h
524 15-07-2008 08:47:01 15.7 C 8.56 g/m*3 15.7 C 0 km/h
525 15-07-2008 08:59:01 16.4 C 8.37 g/m*3 16.4 C 0 km/h
Sensor: Nr:Datum:Temp:Abs-Feuchte:Windchill:Wind:
Aussen-T/F 526 15-07-2008 09:11:02 17 C 8.25 g/m*3 17 C 0 km/h
527 15-07-2008 09:23:01 17.8 C 8.2 g/m*3 17.8 C 0 km/h
528 15-07-2008 09:35:02 18.4 C 8.02 g/m*3 18.4 C 0 km/h
529 15-07-2008 09:47:02 19 C 7.99 g/m*3 19 C 0 km/h
530 15-07-2008 09:59:03 19.5 C 8.06 g/m*3 19.5 C 0 km/h
531 15-07-2008 10:11:02 20.3 C 7.91 g/m*3 20.3 C 0 km/h
532 15-07-2008 10:23:02 21.1 C 7.74 g/m*3 21.1 C 0 km/h
533 15-07-2008 10:35:01 21.5 C 7.73 g/m*3 21.5 C 0 km/h
534 15-07-2008 10:47:02 22 C 7.38 g/m*3 22 C 0 km/h
535 15-07-2008 10:59:02 22.6 C 7.23 g/m*3 22.6 C 0 km/h
536 15-07-2008 11:11:01 22.8 C 7.32 g/m*3 22.8 C 0 km/h
537 15-07-2008 11:23:02 23.2 C 7.28 g/m*3 23.2 C 0 km/h
538 15-07-2008 11:35:01 23.2 C 7.07 g/m*3 23.2 C 0 km/h
539 15-07-2008 11:47:02 24 C 6.96 g/m*3 24 C 0 km/h
540 15-07-2008 11:59:02 24.1 C 7 g/m*3 24.1 C 0 km/h
541 15-07-2008 12:11:01 24.9 C 6.87 g/m*3 24.9 C 0 km/h
542 15-07-2008 12:23:02 25.4 C 6.36 g/m*3 25.4 C 0 km/h
543 15-07-2008 12:35:01 25.8 C 6.26 g/m*3 25.8 C 0 km/h
544 15-07-2008 12:47:02 25.7 C 6.22 g/m*3 25.7 C 0 km/h
545 15-07-2008 12:59:02 26.2 C 6.15 g/m*3 26.2 C 0 km/h
546 15-07-2008 13:11:02 26.7 C 5.82 g/m*3 26.7 C 0 km/h
547 15-07-2008 13:23:02 27.9 C 5.68 g/m*3 27.9 C 0 km/h
548 15-07-2008 13:35:02 28.3 C 5.53 g/m*3 28.3 C 0 km/h
549 15-07-2008 13:47:01 27.8 C 5.65 g/m*3 27.8 C 0 km/h
550 15-07-2008 13:59:01 27.4 C 5.53 g/m*3 27.4 C 0 km/h
Sensor: Nr:Datum:Temp:Abs-Feuchte:Windchill:Wind:
Aussen-T/F 551 15-07-2008 14:11:01 27.3 C 5.49 g/m*3 27.3 C 0 km/h
552 15-07-2008 14:19:01 27.4 C 5.53 g/m*3 27.4 C 0 km/h
553 15-07-2008 14:49:01 28.2 C 6.05 g/m*3 28.2 C 0 km/h
554 15-07-2008 15:19:01 28.8 C 5.97 g/m*3 28.8 C 0 km/h
555 15-07-2008 15:49:01 29 C 6.32 g/m*3 29 C 0 km/h
556 15-07-2008 16:19:02 30 C 6.37 g/m*3 30 C 0 km/h
557 15-07-2008 16:49:01 30 C 6.06 g/m*3 30 C 0 km/h
558 15-07-2008 17:19:02 30.6 C 6.26 g/m*3 30.6 C 0 km/h
559 15-07-2008 17:49:03 31 C 6.4 g/m*3 31 C 0 km/h
560 15-07-2008 18:19:02 30.7 C 6.3 g/m*3 30.7 C 0 km/h
561 15-07-2008 18:49:01 30.6 C 6.26 g/m*3 30.6 C 0 km/h
562 15-07-2008 19:19:01 30.4 C 6.2 g/m*3 30.4 C 0 km/h
563 15-07-2008 19:49:01 29.3 C 6.42 g/m*3 29.3 C 0 km/h
564 15-07-2008 20:19:01 28.2 C 6.87 g/m*3 28.2 C 0 km/h
565 15-07-2008 20:49:01 26.6 C 7.55 g/m*3 26.6 C 0 km/h
566 15-07-2008 21:19:02 25.8 C 7.7 g/m*3 25.8 C 0 km/h
567 15-07-2008 21:49:01 24.4 C 9.79 g/m*3 24.4 C 0 km/h
568 15-07-2008 22:19:02 23.4 C 10.3 g/m*3 23.4 C 0 km/h
569 15-07-2008 22:49:01 22.7 C 10.3 g/m*3 22.7 C 0 km/h
570 15-07-2008 23:19:02 21.9 C 10.42 g/m*3 21.9 C 0 km/h
571 15-07-2008 23:49:02 21.4 C 10.31 g/m*3 21.4 C 0 km/h
572 16-07-2008 00:19:02 21.5 C 10.37 g/m*3 21.5 C 0 km/h
573 16-07-2008 00:49:01 21.5 C 10.37 g/m*3 21.5 C 0 km/h
574 16-07-2008 01:19:02 21.4 C 10.5 g/m*3 21.4 C 0 km/h
575 16-07-2008 01:49:01 21.5 C 10.56 g/m*3 21.5 C 0 km/h
Sensor: Nr:Datum:Temp:Abs-Feuchte:Windchill:Wind:
Aussen-T/F 576 16-07-2008 02:19:02 21 C 10.62 g/m*3 21 C 0 km/h
577 16-07-2008 02:49:02 20.8 C 10.68 g/m*3 20.8 C 0 km/h
578 16-07-2008 03:19:01 20.2 C 10.84 g/m*3 20.2 C 0 km/h
579 16-07-2008 03:49:01 20 C 10.71 g/m*3 20 C 0 km/h
580 16-07-2008 04:19:01 20.2 C 10.32 g/m*3 20.2 C 0 km/h
581 16-07-2008 04:49:01 20 C 10.02 g/m*3 20 C 0 km/h
582 16-07-2008 05:19:01 19.6 C 10.3 g/m*3 19.6 C 0 km/h
583 16-07-2008 05:49:01 19.6 C 10.3 g/m*3 19.6 C 0 km/h
584 16-07-2008 06:35:05 19.5 C 10.41 g/m*3 19.5 C 0 km/h
585 16-07-2008 07:05:05 19.3 C 10.45 g/m*3 19.3 C 0 km/h
586 16-07-2008 07:35:05 19.6 C 10.64 g/m*3 19.6 C 0 km/h
587 16-07-2008 08:05:05 19.8 C 10.76 g/m*3 19.8 C 0 km/h
588 16-07-2008 08:35:06 20.7 C 10.62 g/m*3 20.7 C 0 km/h
589 16-07-2008 09:05:06 21 C 10.26 g/m*3 21 C 0 km/h
590 16-07-2008 09:35:06 21.7 C 9.92 g/m*3 21.7 C 0 km/h
591 16-07-2008 10:05:06 22.5 C 8.99 g/m*3 22.5 C 0 km/h
592 16-07-2008 10:35:06 22.7 C 9.09 g/m*3 22.7 C 0 km/h
593 16-07-2008 11:05:06 24 C 8.7 g/m*3 24 C 0 km/h
594 16-07-2008 11:35:06 24.1 C 8.1 g/m*3 24.1 C 0 km/h
595 16-07-2008 12:05:06 24.7 C 8.15 g/m*3 24.7 C 0 km/h
596 16-07-2008 12:35:06 25.7 C 7.42 g/m*3 25.7 C 0 km/h
597 16-07-2008 13:05:06 26.4 C 7.22 g/m*3 26.4 C 0 km/h
598 16-07-2008 13:35:06 26.6 C 7.05 g/m*3 26.6 C 0 km/h
599 16-07-2008 14:05:06 25.5 C 7.34 g/m*3 25.5 C 0 km/h
600 16-07-2008 14:35:06 24.5 C 7.83 g/m*3 24.5 C 0 km/h
Sensor: Nr:Datum:Temp:Abs-Feuchte:Windchill:Wind:
Aussen-T/F 601 16-07-2008 15:05:06 22.8 C 9.14 g/m*3 22.8 C 0 km/h
602 16-07-2008 15:35:06 19.2 C 11.05 g/m*3 19.2 C 0 km/h
603 16-07-2008 16:05:06 18.1 C 12.98 g/m*3 18.1 C 0 km/h
604 16-07-2008 16:35:06 17 C 12.15 g/m*3 17 C 0 km/h
605 16-07-2008 17:05:06 17.3 C 12.67 g/m*3 17.3 C 0 km/h
606 16-07-2008 17:35:06 17.5 C 12.67 g/m*3 17.5 C 0 km/h
607 16-07-2008 18:05:07 17.6 C 12.9 g/m*3 17.6 C 0 km/h
608 16-07-2008 18:35:07 18.4 C 13.05 g/m*3 18.4 C 0 km/h
609 16-07-2008 19:05:07 18.5 C 12.34 g/m*3 18.5 C 0 km/h
610 16-07-2008 19:35:07 19.9 C 12.03 g/m*3 19.9 C 0 km/h
611 16-07-2008 20:05:07 19.1 C 11.64 g/m*3 19.1 C 0 km/h
612 16-07-2008 20:35:07 17.8 C 11.84 g/m*3 17.8 C 0 km/h
613 16-07-2008 21:05:07 17.2 C 11.72 g/m*3 17.2 C 0 km/h
614 16-07-2008 21:35:07 16.9 C 11.65 g/m*3 16.9 C 0 km/h
615 16-07-2008 22:05:07 16.4 C 11.17 g/m*3 16.4 C 0 km/h
616 16-07-2008 22:35:07 16 C 10.9 g/m*3 16 C 0 km/h
617 16-07-2008 23:05:07 16.2 C 11.17 g/m*3 16.2 C 0 km/h
618 16-07-2008 23:35:07 16.5 C 11.37 g/m*3 16.5 C 0 km/h
619 17-07-2008 00:05:07 16.5 C 11.51 g/m*3 16.5 C 0 km/h
620 17-07-2008 00:35:07 16.5 C 11.23 g/m*3 16.5 C 0 km/h
621 17-07-2008 01:05:07 16 C 10.22 g/m*3 16 C 0 km/h
622 17-07-2008 01:35:07 15.5 C 9.91 g/m*3 15.5 C 0 km/h
623 17-07-2008 02:05:07 15.1 C 9.42 g/m*3 15.1 C 0 km/h
624 17-07-2008 02:35:07 14.7 C 9.32 g/m*3 14.7 C 0 km/h
625 17-07-2008 03:05:07 14.7 C 9.07 g/m*3 14.7 C 0 km/h
Sensor: Nr:Datum:Temp:Abs-Feuchte:Windchill:Wind:
Aussen-T/F 626 17-07-2008 03:35:08 14.7 C 8.69 g/m*3 14.7 C 0 km/h
627 17-07-2008 04:05:08 14.5 C 8.83 g/m*3 14.5 C 0 km/h
628 17-07-2008 04:35:08 14.2 C 8.67 g/m*3 14.2 C 0 km/h
629 17-07-2008 05:05:08 14 C 8.44 g/m*3 14 C 0 km/h
630 17-07-2008 05:35:08 13.8 C 8.7 g/m*3 13.8 C 0 km/h
631 17-07-2008 06:05:08 13.4 C 8.95 g/m*3 13.4 C 0 km/h
632 17-07-2008 06:35:08 13.5 C 9.12 g/m*3 13.5 C 0 km/h
633 17-07-2008 07:05:08 13.9 C 9.23 g/m*3 13.9 C 0 km/h
634 17-07-2008 07:35:08 14.4 C 9.02 g/m*3 14.4 C 0 km/h
635 17-07-2008 08:05:08 14.9 C 9.43 g/m*3 14.9 C 0 km/h
636 17-07-2008 08:35:08 15.4 C 9.33 g/m*3 15.4 C 0 km/h
637 17-07-2008 09:05:08 16 C 9.13 g/m*3 16 C 0 km/h
638 17-07-2008 09:35:08 17 C 8.54 g/m*3 17 C 0 km/h
639 17-07-2008 10:05:08 17.9 C 8.4 g/m*3 17.9 C 0 km/h
640 17-07-2008 10:35:08 18.3 C 7.35 g/m*3 18.3 C 0 km/h
641 17-07-2008 11:05:08 19.2 C 7.09 g/m*3 19.2 C 0 km/h
642 17-07-2008 11:35:08 19.1 C 7.05 g/m*3 19.1 C 0 km/h
643 17-07-2008 12:05:08 19.8 C 6.83 g/m*3 19.8 C 0 km/h
644 17-07-2008 12:35:08 20.8 C 6.88 g/m*3 20.8 C 0 km/h
645 17-07-2008 13:05:08 21.9 C 6.56 g/m*3 21.9 C 0 km/h
646 17-07-2008 13:35:08 23 C 6.17 g/m*3 23 C 0 km/h
647 17-07-2008 14:05:09 22.4 C 6.16 g/m*3 22.4 C 0 km/h
648 17-07-2008 14:35:09 22.5 C 6.39 g/m*3 22.5 C 0 km/h
649 17-07-2008 15:05:09 21.8 C 6.91 g/m*3 21.8 C 0 km/h
650 17-07-2008 15:35:09 20.2 C 7.17 g/m*3 20.2 C 0 km/h
Sensor: Nr:Datum:Temp:Abs-Feuchte:Windchill:Wind:
Aussen-T/F 651 17-07-2008 16:05:09 19.5 C 7.55 g/m*3 19.5 C 0 km/h
652 17-07-2008 16:35:09 19.6 C 7.6 g/m*3 19.6 C 0 km/h
653 17-07-2008 17:05:09 19.7 C 8.15 g/m*3 19.7 C 0 km/h
654 17-07-2008 17:35:09 19.9 C 8.42 g/m*3 19.9 C 0 km/h
655 17-07-2008 18:05:09 20.3 C 8.44 g/m*3 20.3 C 0 km/h
656 17-07-2008 18:35:09 20.3 C 8.27 g/m*3 20.3 C 0 km/h
657 17-07-2008 19:05:09 19.8 C 8.37 g/m*3 19.8 C 0 km/h
658 17-07-2008 19:35:09 18.9 C 8.42 g/m*3 18.9 C 0 km/h
659 17-07-2008 20:05:09 17.3 C 8.84 g/m*3 17.3 C 0 km/h
660 17-07-2008 20:35:09 16.2 C 9.65 g/m*3 16.2 C 0 km/h
661 17-07-2008 21:05:09 15.6 C 9.84 g/m*3 15.6 C 0 km/h
662 17-07-2008 21:35:09 15.6 C 9.84 g/m*3 15.6 C 0 km/h
663 17-07-2008 22:05:09 14.5 C 10.2 g/m*3 14.5 C 0 km/h
664 17-07-2008 22:35:09 14.4 C 10.51 g/m*3 14.4 C 0 km/h
665 17-07-2008 23:05:09 14.8 C 10.64 g/m*3 14.8 C 0 km/h
666 17-07-2008 23:35:09 15 C 10.51 g/m*3 15 C 0 km/h
667 18-07-2008 00:05:10 14.9 C 10.32 g/m*3 14.9 C 0 km/h
668 18-07-2008 00:35:10 14.8 C 10.26 g/m*3 14.8 C 0 km/h
669 18-07-2008 01:05:10 14.5 C 10.45 g/m*3 14.5 C 0 km/h
670 18-07-2008 01:35:10 14.1 C 10.32 g/m*3 14.1 C 0 km/h
671 18-07-2008 02:05:10 13.8 C 10.37 g/m*3 13.8 C 0 km/h
672 18-07-2008 02:35:10 14 C 10.37 g/m*3 14 C 0 km/h
673 18-07-2008 03:05:10 14 C 10.49 g/m*3 14 C 0 km/h
674 18-07-2008 03:35:10 13.7 C 10.54 g/m*3 13.7 C 0 km/h
675 18-07-2008 04:05:10 13.6 C 10.59 g/m*3 13.6 C 0 km/h
Sensor: Nr:Datum:Temp:Abs-Feuchte:Windchill:Wind:
Aussen-T/F 676 18-07-2008 04:35:10 13.5 C 10.53 g/m*3 13.5 C 0 km/h
677 18-07-2008 05:05:10 13.9 C 10.19 g/m*3 13.9 C 0 km/h
678 18-07-2008 05:35:10 13.8 C 10.13 g/m*3 13.8 C 0 km/h
679 18-07-2008 06:05:10 13.8 C 10.25 g/m*3 13.8 C 0 km/h
680 18-07-2008 06:35:10 13.9 C 9.95 g/m*3 13.9 C 0 km/h
681 18-07-2008 07:05:10 14.1 C 9.71 g/m*3 14.1 C 0 km/h
682 18-07-2008 07:35:10 14.5 C 9.33 g/m*3 14.5 C 0 km/h
683 18-07-2008 08:05:10 14.7 C 9.32 g/m*3 14.7 C 0 km/h
684 18-07-2008 08:35:10 14.8 C 9.25 g/m*3 14.8 C 0 km/h
685 18-07-2008 09:05:10 15.5 C 9.12 g/m*3 15.5 C 0 km/h
686 18-07-2008 09:35:10 16 C 9.26 g/m*3 16 C 0 km/h
687 18-07-2008 10:05:10 15.6 C 9.44 g/m*3 15.6 C 0 km/h
688 18-07-2008 10:35:11 16.7 C 9.24 g/m*3 16.7 C 0 km/h
689 18-07-2008 11:05:11 17.8 C 8.95 g/m*3 17.8 C 0 km/h
690 18-07-2008 11:35:11 16.5 C 8.99 g/m*3 16.5 C 0 km/h
691 18-07-2008 12:05:11 16.8 C 9.29 g/m*3 16.8 C 0 km/h
692 18-07-2008 12:35:11 16.7 C 9.38 g/m*3 16.7 C 0 km/h
693 18-07-2008 13:05:11 17.8 C 9.11 g/m*3 17.8 C 0 km/h
694 18-07-2008 13:35:11 20.2 C 8.57 g/m*3 20.2 C 0 km/h
695 18-07-2008 14:05:11 19.7 C 8.66 g/m*3 19.7 C 0 km/h
696 18-07-2008 14:35:11 20.2 C 7.87 g/m*3 20.2 C 0 km/h
697 18-07-2008 15:05:11 21.3 C 8.02 g/m*3 21.3 C 0 km/h
698 18-07-2008 15:35:11 20.4 C 8.14 g/m*3 20.4 C 0 km/h
699 18-07-2008 16:05:11 20.7 C 7.92 g/m*3 20.7 C 0 km/h
700 18-07-2008 16:35:11 20.3 C 7.56 g/m*3 20.3 C 0 km/h
Sensor: Nr:Datum:Temp:Abs-Feuchte:Windchill:Wind:
Aussen-T/F 701 18-07-2008 17:05:11 19.2 C 8.08 g/m*3 19.2 C 0 km/h
702 18-07-2008 17:35:11 17.5 C 10.73 g/m*3 17.5 C 0 km/h
703 18-07-2008 18:05:11 18 C 10.44 g/m*3 18 C 0 km/h
704 18-07-2008 18:35:11 17.9 C 10.54 g/m*3 17.9 C 0 km/h
705 18-07-2008 19:05:11 18.5 C 10.44 g/m*3 18.5 C 0 km/h
706 18-07-2008 19:35:11 18.9 C 10.53 g/m*3 18.9 C 0 km/h
707 18-07-2008 20:05:11 18.2 C 10.26 g/m*3 18.2 C 0 km/h
708 18-07-2008 20:35:12 17.7 C 10.11 g/m*3 17.7 C 0 km/h
709 18-07-2008 21:05:12 17.5 C 9.69 g/m*3 17.5 C 0 km/h
710 18-07-2008 21:35:12 17.4 C 9.48 g/m*3 17.4 C 0 km/h
711 18-07-2008 22:05:12 17.1 C 9.17 g/m*3 17.1 C 0 km/h
712 18-07-2008 22:35:12 17.2 C 9.23 g/m*3 17.2 C 0 km/h
713 18-07-2008 23:05:12 17.1 C 9.32 g/m*3 17.1 C 0 km/h
714 18-07-2008 23:35:12 17.1 C 9.17 g/m*3 17.1 C 0 km/h
715 19-07-2008 00:05:12 16.9 C 9.49 g/m*3 16.9 C 0 km/h
716 19-07-2008 00:35:12 16.7 C 9.52 g/m*3 16.7 C 0 km/h
717 19-07-2008 01:05:12 16.4 C 9.91 g/m*3 16.4 C 0 km/h
718 19-07-2008 01:35:12 16.8 C 9.72 g/m*3 16.8 C 0 km/h
719 19-07-2008 02:05:12 16.7 C 9.38 g/m*3 16.7 C 0 km/h
720 19-07-2008 02:35:12 16.6 C 9.32 g/m*3 16.6 C 0 km/h
721 19-07-2008 03:05:12 16.9 C 9.06 g/m*3 16.9 C 0 km/h
722 19-07-2008 03:35:12 17 C 8.83 g/m*3 17 C 0 km/h
723 19-07-2008 04:05:12 17.5 C 8.5 g/m*3 17.5 C 0 km/h
724 19-07-2008 04:35:12 17.1 C 9.03 g/m*3 17.1 C 0 km/h
725 19-07-2008 05:05:12 16.2 C 9.52 g/m*3 16.2 C 0 km/h
Sensor: Nr:Datum:Temp:Abs-Feuchte:Windchill:Wind:
Aussen-T/F 726 19-07-2008 05:35:12 17 C 9.26 g/m*3 17 C 0 km/h
727 19-07-2008 06:05:12 16.8 C 9.44 g/m*3 16.8 C 0 km/h
728 19-07-2008 06:35:12 16.6 C 9.61 g/m*3 16.6 C 0 km/h
729 19-07-2008 07:05:13 17.2 C 9.52 g/m*3 17.2 C 0 km/h
730 19-07-2008 07:35:13 17.5 C 9.69 g/m*3 17.5 C 0 km/h
731 19-07-2008 08:05:13 17.8 C 9.71 g/m*3 17.8 C 0 km/h
732 19-07-2008 08:35:13 18.5 C 9.97 g/m*3 18.5 C 0 km/h
733 19-07-2008 09:05:13 19.3 C 9.45 g/m*3 19.3 C 0 km/h
734 19-07-2008 09:35:13 19.4 C 9.34 g/m*3 19.4 C 0 km/h
735 19-07-2008 10:05:13 21 C 9.34 g/m*3 21 C 0 km/h
736 19-07-2008 10:35:13 21.5 C 9.43 g/m*3 21.5 C 0 km/h
737 19-07-2008 11:05:13 21.8 C 9.4 g/m*3 21.8 C 0 km/h
738 19-07-2008 11:35:13 22.4 C 9.33 g/m*3 22.4 C 0 km/h
739 19-07-2008 12:05:13 23.3 C 9.41 g/m*3 23.3 C 0 km/h
740 19-07-2008 12:35:13 24.3 C 8.63 g/m*3 24.3 C 0 km/h
741 19-07-2008 13:05:13 24.9 C 8.47 g/m*3 24.9 C 0 km/h
742 19-07-2008 13:35:13 24.8 C 8.88 g/m*3 24.8 C 0 km/h
743 19-07-2008 14:05:13 26.1 C 7.83 g/m*3 26.1 C 0 km/h
744 19-07-2008 14:35:13 26.3 C 7.67 g/m*3 26.3 C 0 km/h
745 19-07-2008 15:05:13 25.2 C 7.92 g/m*3 25.2 C 0 km/h
746 19-07-2008 15:35:13 20.4 C 11.5 g/m*3 20.4 C 0 km/h
747 19-07-2008 16:05:13 23 C 13.77 g/m*3 23 C 0 km/h
748 19-07-2008 16:35:13 24.4 C 10.46 g/m*3 24.4 C 0 km/h
749 19-07-2008 17:05:14 23.6 C 10.21 g/m*3 23.6 C 0 km/h
750 19-07-2008 17:35:14 24.5 C 9.4 g/m*3 24.5 C 0 km/h
Sensor: Nr:Datum:Temp:Abs-Feuchte:Windchill:Wind:
Aussen-T/F 751 19-07-2008 18:05:14 25.4 C 8.71 g/m*3 25.4 C 0 km/h
752 19-07-2008 18:35:14 25.6 C 7.14 g/m*3 25.6 C 0 km/h
753 19-07-2008 19:05:14 17.2 C 5.42 g/m*3 17.2 C 0 km/h
754 19-07-2008 19:35:14 17 C 11.43 g/m*3 17 C 0 km/h
755 19-07-2008 20:05:14 17.4 C 11.26 g/m*3 17.4 C 0 km/h
756 19-07-2008 20:35:14 17.7 C 12.07 g/m*3 17.7 C 0 km/h
757 19-07-2008 21:05:14 17.7 C 12.07 g/m*3 17.7 C 0 km/h
758 19-07-2008 21:35:14 17.5 C 11.93 g/m*3 17.5 C 0 km/h
759 19-07-2008 22:05:14 16.6 C 11.58 g/m*3 16.6 C 0 km/h
760 19-07-2008 22:35:14 16.1 C 10.97 g/m*3 16.1 C 0 km/h
761 19-07-2008 23:05:14 15.6 C 10.37 g/m*3 15.6 C 0 km/h
762 19-07-2008 23:35:14 15.4 C 10.25 g/m*3 15.4 C 0 km/h
763 20-07-2008 00:05:14 15 C 10.13 g/m*3 15 C 0 km/h
764 20-07-2008 00:35:14 14.8 C 10.01 g/m*3 14.8 C 0 km/h
765 20-07-2008 01:05:14 14.9 C 9.3 g/m*3 14.9 C 0 km/h
766 20-07-2008 01:35:14 14.4 C 9.15 g/m*3 14.4 C 0 km/h
767 20-07-2008 02:05:14 14.8 C 8.99 g/m*3 14.8 C 0 km/h
768 20-07-2008 02:35:14 14.4 C 8.9 g/m*3 14.4 C 0 km/h
769 20-07-2008 03:05:15 14.2 C 8.91 g/m*3 14.2 C 0 km/h
770 20-07-2008 03:35:15 14.1 C 8.86 g/m*3 14.1 C 0 km/h
771 20-07-2008 04:05:15 14 C 8.56 g/m*3 14 C 0 km/h
772 20-07-2008 04:35:15 13.7 C 8.64 g/m*3 13.7 C 0 km/h
773 20-07-2008 05:05:15 13.3 C 8.78 g/m*3 13.3 C 0 km/h
774 20-07-2008 05:35:15 12.7 C 8.91 g/m*3 12.7 C 0 km/h
775 20-07-2008 06:05:15 12.4 C 8.96 g/m*3 12.4 C 0 km/h
Sensor: Nr:Datum:Temp:Abs-Feuchte:Windchill:Wind:
Aussen-T/F 776 20-07-2008 06:35:15 12.6 C 9.07 g/m*3 12.6 C 0 km/h
777 20-07-2008 07:05:15 12.9 C 9.24 g/m*3 12.9 C 0 km/h
778 20-07-2008 07:35:15 13.3 C 9.13 g/m*3 13.3 C 0 km/h
779 20-07-2008 08:05:15 13.7 C 8.88 g/m*3 13.7 C 0 km/h
780 20-07-2008 08:35:15 14.1 C 8.62 g/m*3 14.1 C 0 km/h
781 20-07-2008 09:05:15 14.7 C 8.69 g/m*3 14.7 C 0 km/h
782 20-07-2008 09:35:15 15.8 C 8.62 g/m*3 15.8 C 0 km/h
783 20-07-2008 10:05:15 16.5 C 8.43 g/m*3 16.5 C 0 km/h
784 20-07-2008 10:35:15 17.1 C 8.59 g/m*3 17.1 C 0 km/h
785 20-07-2008 11:05:15 18 C 8.29 g/m*3 18 C 0 km/h
786 20-07-2008 11:35:15 18.8 C 8.7 g/m*3 18.8 C 0 km/h
787 20-07-2008 12:05:15 20 C 8.12 g/m*3 20 C 0 km/h
788 20-07-2008 12:35:15 19.5 C 8.06 g/m*3 19.5 C 0 km/h
789 20-07-2008 13:05:15 19.5 C 7.89 g/m*3 19.5 C 0 km/h
790 20-07-2008 13:35:16 18.8 C 8.05 g/m*3 18.8 C 0 km/h
791 20-07-2008 14:05:16 19.7 C 7.81 g/m*3 19.7 C 0 km/h
792 20-07-2008 14:35:16 21.2 C 7.41 g/m*3 21.2 C 0 km/h
793 20-07-2008 15:05:16 21.8 C 6.72 g/m*3 21.8 C 0 km/h
794 20-07-2008 15:35:16 22.6 C 6.63 g/m*3 22.6 C 0 km/h
795 20-07-2008 16:05:16 14.5 C 9.7 g/m*3 14.5 C 0 km/h
796 20-07-2008 16:35:16 14.8 C 10.51 g/m*3 14.8 C 0 km/h
797 20-07-2008 17:05:16 15.9 C 10.02 g/m*3 15.9 C 0 km/h
798 20-07-2008 17:35:16 15.4 C 9.72 g/m*3 15.4 C 0 km/h
799 20-07-2008 18:05:16 14.3 C 9.95 g/m*3 14.3 C 0 km/h
800 20-07-2008 18:35:16 16.5 C 9.83 g/m*3 16.5 C 0 km/h
Sensor: Nr:Datum:Temp:Abs-Feuchte:Windchill:Wind:
Aussen-T/F 801 20-07-2008 19:05:16 16.8 C 9.29 g/m*3 16.8 C 0 km/h
802 20-07-2008 19:35:16 16.4 C 9.21 g/m*3 16.4 C 0 km/h
803 20-07-2008 20:05:16 16.4 C 9.91 g/m*3 16.4 C 0 km/h
804 20-07-2008 20:35:16 13.3 C 9.01 g/m*3 13.3 C 0 km/h
805 20-07-2008 21:05:16 13.8 C 9.89 g/m*3 13.8 C 0 km/h
806 20-07-2008 21:35:16 13 C 9.3 g/m*3 13 C 0 km/h
807 20-07-2008 22:05:16 12.9 C 9.58 g/m*3 12.9 C 0 km/h
808 20-07-2008 22:35:16 12.4 C 9.29 g/m*3 12.4 C 0 km/h
809 20-07-2008 23:05:16 11.9 C 9.11 g/m*3 11.9 C 0 km/h
810 20-07-2008 23:35:16 11.7 C 8.99 g/m*3 11.7 C 0 km/h
811 21-07-2008 00:05:17 11.1 C 8.76 g/m*3 11.1 C 0 km/h
812 21-07-2008 00:35:17 11.5 C 9.09 g/m*3 11.5 C 0 km/h
813 21-07-2008 01:05:17 11 C 8.71 g/m*3 11 C 0 km/h
814 21-07-2008 01:35:17 10.7 C 8.55 g/m*3 10.7 C 0 km/h
815 21-07-2008 02:05:17 10.5 C 8.53 g/m*3 10.5 C 0 km/h
816 21-07-2008 02:35:17 10.3 C 8.33 g/m*3 10.3 C 0 km/h
817 21-07-2008 03:05:17 10.1 C 8.04 g/m*3 10.1 C 0 km/h
818 21-07-2008 03:35:17 10.1 C 7.56 g/m*3 10.1 C 0 km/h
819 21-07-2008 04:05:17 10 C 7.61 g/m*3 10 C 0 km/h
820 21-07-2008 04:35:17 10.4 C 7.61 g/m*3 10.4 C 0 km/h
821 21-07-2008 05:05:17 10.4 C 7.71 g/m*3 10.4 C 0 km/h
822 21-07-2008 05:35:17 10.3 C 7.85 g/m*3 10.3 C 0 km/h
823 21-07-2008 06:05:17 10.6 C 7.71 g/m*3 10.6 C 0 km/h
824 21-07-2008 06:35:17 10.9 C 7.66 g/m*3 10.9 C 0 km/h
825 21-07-2008 07:05:17 11.3 C 7.75 g/m*3 11.3 C 0 km/h
Sensor: Nr:Datum:Temp:Abs-Feuchte:Windchill:Wind:
Aussen-T/F 826 21-07-2008 07:35:17 11.8 C 7.89 g/m*3 11.8 C 0 km/h
827 21-07-2008 08:05:17 12.6 C 7.97 g/m*3 12.6 C 0 km/h
828 21-07-2008 08:35:17 13 C 7.71 g/m*3 13 C 0 km/h
829 21-07-2008 09:05:17 13.1 C 7.65 g/m*3 13.1 C 0 km/h
830 21-07-2008 09:35:18 15.1 C 7.48 g/m*3 15.1 C 0 km/h
831 21-07-2008 10:05:18 15.8 C 7.4 g/m*3 15.8 C 0 km/h
832 21-07-2008 10:35:18 17 C 6.66 g/m*3 17 C 0 km/h
833 21-07-2008 11:05:18 17.1 C 6.84 g/m*3 17.1 C 0 km/h
834 21-07-2008 11:35:18 17 C 6.66 g/m*3 17 C 0 km/h
835 21-07-2008 12:05:18 14.1 C 8.25 g/m*3 14.1 C 0 km/h
836 21-07-2008 12:35:18 15.8 C 8.48 g/m*3 15.8 C 0 km/h
837 21-07-2008 13:05:18 17 C 8.83 g/m*3 17 C 0 km/h
838 21-07-2008 13:35:18 15.7 C 8.96 g/m*3 15.7 C 0 km/h
839 21-07-2008 14:05:18 14.5 C 8.71 g/m*3 14.5 C 0 km/h
840 21-07-2008 14:35:18 14 C 9.17 g/m*3 14 C 0 km/h
841 21-07-2008 15:05:18 13.4 C 8.83 g/m*3 13.4 C 0 km/h
842 21-07-2008 15:35:18 14.6 C 8.88 g/m*3 14.6 C 0 km/h
843 21-07-2008 16:05:18 13.9 C 8.99 g/m*3 13.9 C 0 km/h
844 21-07-2008 16:35:18 12.4 C 8.63 g/m*3 12.4 C 0 km/h
845 21-07-2008 17:05:18 11.7 C 8.99 g/m*3 11.7 C 0 km/h
846 21-07-2008 17:35:18 11.9 C 9.11 g/m*3 11.9 C 0 km/h
847 21-07-2008 18:05:18 12.6 C 8.85 g/m*3 12.6 C 0 km/h
848 21-07-2008 18:35:18 12.4 C 8.74 g/m*3 12.4 C 0 km/h
849 21-07-2008 19:05:19 12.6 C 8.74 g/m*3 12.6 C 0 km/h
850 21-07-2008 19:35:19 12.7 C 8.35 g/m*3 12.7 C 0 km/h
Sensor: Nr:Datum:Temp:Abs-Feuchte:Windchill:Wind:
Aussen-T/F 851 21-07-2008 20:05:19 12.1 C 8.47 g/m*3 12.1 C 0 km/h
852 21-07-2008 20:35:19 12 C 8.63 g/m*3 12 C 0 km/h
853 21-07-2008 21:05:19 11.8 C 8.74 g/m*3 11.8 C 0 km/h
854 21-07-2008 21:35:19 11.9 C 8.9 g/m*3 11.9 C 0 km/h
855 21-07-2008 22:05:19 11.7 C 8.99 g/m*3 11.7 C 0 km/h
856 21-07-2008 22:35:19 11.5 C 9.09 g/m*3 11.5 C 0 km/h
857 21-07-2008 23:05:19 12 C 9.17 g/m*3 12 C 0 km/h
858 21-07-2008 23:35:19 12.2 C 9.17 g/m*3 12.2 C 0 km/h
859 22-07-2008 00:05:19 12.1 C 9.01 g/m*3 12.1 C 0 km/h
860 22-07-2008 00:35:19 12.1 C 9.33 g/m*3 12.1 C 0 km/h
861 22-07-2008 01:05:19 12.3 C 9.45 g/m*3 12.3 C 0 km/h
862 22-07-2008 01:35:19 12.4 C 9.4 g/m*3 12.4 C 0 km/h
863 22-07-2008 02:05:19 12.4 C 9.4 g/m*3 12.4 C 0 km/h
864 22-07-2008 02:35:19 12.7 C 9.24 g/m*3 12.7 C 0 km/h
865 22-07-2008 03:05:19 12.4 C 9.07 g/m*3 12.4 C 0 km/h
866 22-07-2008 03:35:19 11.9 C 9 g/m*3 11.9 C 0 km/h
867 22-07-2008 04:05:19 11.8 C 9.05 g/m*3 11.8 C 0 km/h
868 22-07-2008 04:35:19 12 C 9.27 g/m*3 12 C 0 km/h
869 22-07-2008 05:05:20 11.8 C 9.37 g/m*3 11.8 C 0 km/h
870 22-07-2008 05:35:20 11.8 C 9.58 g/m*3 11.8 C 0 km/h
871 22-07-2008 06:05:20 12 C 9.8 g/m*3 12 C 0 km/h
872 22-07-2008 06:35:20 12 C 9.91 g/m*3 12 C 0 km/h
873 22-07-2008 07:05:20 12 C 9.91 g/m*3 12 C 0 km/h
874 22-07-2008 07:35:20 12.1 C 9.97 g/m*3 12.1 C 0 km/h
875 22-07-2008 08:05:20 12.5 C 10.33 g/m*3 12.5 C 0 km/h
Sensor: Nr:Datum:Temp:Abs-Feuchte:Windchill:Wind:
Aussen-T/F 876 22-07-2008 08:35:20 12.5 C 10.33 g/m*3 12.5 C 0 km/h
877 22-07-2008 09:05:20 12.5 C 10.33 g/m*3 12.5 C 0 km/h
878 22-07-2008 09:35:20 12.9 C 10.37 g/m*3 12.9 C 0 km/h
879 22-07-2008 10:05:20 13.4 C 10.11 g/m*3 13.4 C 0 km/h
880 22-07-2008 10:35:20 14 C 9.77 g/m*3 14 C 0 km/h
881 22-07-2008 11:05:20 15 C 9.87 g/m*3 15 C 0 km/h
882 22-07-2008 11:35:20 15.2 C 9.48 g/m*3 15.2 C 0 km/h
883 22-07-2008 12:05:20 15.1 C 8.9 g/m*3 15.1 C 0 km/h
884 22-07-2008 12:35:20 15.5 C 9.12 g/m*3 15.5 C 0 km/h
885 22-07-2008 13:05:20 15.4 C 8.93 g/m*3 15.4 C 0 km/h
886 22-07-2008 13:35:20 15.5 C 8.86 g/m*3 15.5 C 0 km/h
887 22-07-2008 14:05:20 15.5 C 8.86 g/m*3 15.5 C 0 km/h
888 22-07-2008 14:35:20 16.7 C 9.38 g/m*3 16.7 C 0 km/h
889 22-07-2008 15:05:20 16.8 C 8.58 g/m*3 16.8 C 0 km/h
890 22-07-2008 15:35:21 17.8 C 8.2 g/m*3 17.8 C 0 km/h
891 22-07-2008 16:05:21 17.3 C 8.1 g/m*3 17.3 C 0 km/h
892 22-07-2008 16:35:21 18 C 8.45 g/m*3 18 C 0 km/h
893 22-07-2008 17:05:21 18.5 C 8.07 g/m*3 18.5 C 0 km/h
894 22-07-2008 17:35:21 17.6 C 7.95 g/m*3 17.6 C 0 km/h
895 22-07-2008 18:05:21 18.8 C 8.21 g/m*3 18.8 C 0 km/h
896 22-07-2008 18:35:21 18.2 C 9.01 g/m*3 18.2 C 0 km/h
897 22-07-2008 19:05:21 18.5 C 9.02 g/m*3 18.5 C 0 km/h
898 22-07-2008 19:35:21 18.4 C 8.97 g/m*3 18.4 C 0 km/h
899 22-07-2008 20:05:21 17.3 C 9.43 g/m*3 17.3 C 0 km/h
900 22-07-2008 20:35:21 18 C 9.52 g/m*3 18 C 0 km/h
Sensor: Nr:Datum:Temp:Abs-Feuchte:Windchill:Wind:
Aussen-T/F 901 22-07-2008 21:05:21 17.2 C 9.23 g/m*3 17.2 C 0 km/h
902 22-07-2008 21:35:21 15.8 C 9.29 g/m*3 15.8 C 0 km/h
903 22-07-2008 22:05:21 14.6 C 9.01 g/m*3 14.6 C 0 km/h
904 22-07-2008 22:35:21 14 C 8.81 g/m*3 14 C 0 km/h
905 22-07-2008 23:05:21 13.5 C 9.12 g/m*3 13.5 C 0 km/h
906 22-07-2008 23:35:21 13.1 C 9.13 g/m*3 13.1 C 0 km/h
907 23-07-2008 00:05:21 13.1 C 9.36 g/m*3 13.1 C 0 km/h
908 23-07-2008 00:35:21 13 C 9.41 g/m*3 13 C 0 km/h
909 23-07-2008 01:05:21 12.5 C 9.24 g/m*3 12.5 C 0 km/h
910 23-07-2008 01:35:22 12 C 9.06 g/m*3 12 C 0 km/h
911 23-07-2008 02:05:22 11.6 C 9.04 g/m*3 11.6 C 0 km/h
912 23-07-2008 02:35:22 11.3 C 8.87 g/m*3 11.3 C 0 km/h
913 23-07-2008 03:05:22 11.2 C 9.02 g/m*3 11.2 C 0 km/h
914 23-07-2008 03:35:22 10.7 C 8.74 g/m*3 10.7 C 0 km/h
915 23-07-2008 04:05:22 10.4 C 8.58 g/m*3 10.4 C 0 km/h
916 23-07-2008 04:35:22 10.4 C 8.77 g/m*3 10.4 C 0 km/h
917 23-07-2008 05:05:22 10.5 C 8.92 g/m*3 10.5 C 0 km/h
918 23-07-2008 05:35:22 10.7 C 9.04 g/m*3 10.7 C 0 km/h
919 23-07-2008 06:05:22 10.8 C 9.09 g/m*3 10.8 C 0 km/h
920 23-07-2008 06:35:22 10.8 C 9.09 g/m*3 10.8 C 0 km/h
921 23-07-2008 07:05:22 10.5 C 8.92 g/m*3 10.5 C 0 km/h
922 23-07-2008 07:35:22 10.8 C 8.99 g/m*3 10.8 C 0 km/h
923 23-07-2008 08:05:22 10.9 C 8.85 g/m*3 10.9 C 0 km/h
924 23-07-2008 08:35:22 11.8 C 9.16 g/m*3 11.8 C 0 km/h
925 23-07-2008 09:05:22 12.9 C 9.13 g/m*3 12.9 C 0 km/h
Sensor: Nr:Datum:Temp:Abs-Feuchte:Windchill:Wind:
Aussen-T/F 926 23-07-2008 09:35:22 12.8 C 9.18 g/m*3 12.8 C 0 km/h
927 23-07-2008 10:05:22 15.4 C 9.46 g/m*3 15.4 C 0 km/h
928 23-07-2008 10:35:22 17 C 9.69 g/m*3 17 C 0 km/h
929 23-07-2008 11:05:22 18.1 C 9.73 g/m*3 18.1 C 0 km/h
930 23-07-2008 11:35:22 19.4 C 9.18 g/m*3 19.4 C 0 km/h
931 23-07-2008 12:05:23 21.1 C 8.29 g/m*3 21.1 C 0 km/h
932 23-07-2008 12:35:23 22.2 C 8.25 g/m*3 22.2 C 0 km/h
933 23-07-2008 13:05:23 23.9 C 7.36 g/m*3 23.9 C 0 km/h
934 23-07-2008 13:35:23 25.9 C 7.26 g/m*3 25.9 C 0 km/h
935 23-07-2008 14:05:23 26 C 6.09 g/m*3 26 C 0 km/h
936 23-07-2008 14:35:23 25.7 C 7.18 g/m*3 25.7 C 0 km/h
937 23-07-2008 15:05:23 26.3 C 6.93 g/m*3 26.3 C 0 km/h
938 23-07-2008 15:35:23 28.9 C 7.14 g/m*3 28.9 C 0 km/h
939 23-07-2008 16:05:23 29.2 C 6.97 g/m*3 29.2 C 0 km/h
940 23-07-2008 16:35:23 29.2 C 6.39 g/m*3 29.2 C 0 km/h
941 23-07-2008 17:05:23 30.1 C 6.1 g/m*3 30.1 C 0 km/h
942 23-07-2008 17:35:23 29.3 C 6.42 g/m*3 29.3 C 0 km/h
943 23-07-2008 18:05:23 28.8 C 6.53 g/m*3 28.8 C 0 km/h
944 23-07-2008 18:35:23 30 C 6.67 g/m*3 30 C 0 km/h
945 23-07-2008 19:05:23 27.9 C 6.76 g/m*3 27.9 C 0 km/h
946 23-07-2008 19:35:23 28.7 C 7.06 g/m*3 28.7 C 0 km/h
947 23-07-2008 20:05:23 27.8 C 6.99 g/m*3 27.8 C 0 km/h
948 23-07-2008 20:35:23 25.2 C 7.68 g/m*3 25.2 C 0 km/h
949 23-07-2008 21:05:23 23.6 C 8.51 g/m*3 23.6 C 0 km/h
950 23-07-2008 21:35:23 22.5 C 9.39 g/m*3 22.5 C 0 km/h
Sensor: Nr:Datum:Temp:Abs-Feuchte:Windchill:Wind:
Aussen-T/F 951 23-07-2008 22:05:24 20.7 C 9.54 g/m*3 20.7 C 0 km/h
952 23-07-2008 22:35:24 19.9 C 9.62 g/m*3 19.9 C 0 km/h
953 23-07-2008 23:05:24 19.2 C 9.56 g/m*3 19.2 C 0 km/h
954 23-07-2008 23:35:24 18.6 C 9.55 g/m*3 18.6 C 0 km/h
955 24-07-2008 00:05:24 18.1 C 9.89 g/m*3 18.1 C 0 km/h
956 24-07-2008 00:35:24 17.5 C 9.24 g/m*3 17.5 C 0 km/h
957 24-07-2008 01:05:24 16.8 C 9.01 g/m*3 16.8 C 0 km/h
958 24-07-2008 01:35:24 16.3 C 8.88 g/m*3 16.3 C 0 km/h
959 24-07-2008 02:05:24 15.9 C 8.94 g/m*3 15.9 C 0 km/h
960 24-07-2008 02:35:24 15.4 C 8.93 g/m*3 15.4 C 0 km/h
961 24-07-2008 03:05:24 14.8 C 8.99 g/m*3 14.8 C 0 km/h
962 24-07-2008 03:35:24 14.7 C 9.19 g/m*3 14.7 C 0 km/h
963 24-07-2008 04:05:24 14.1 C 9.1 g/m*3 14.1 C 0 km/h
964 24-07-2008 04:35:24 13.7 C 9.12 g/m*3 13.7 C 0 km/h
965 24-07-2008 05:05:24 13.3 C 9.01 g/m*3 13.3 C 0 km/h
966 24-07-2008 05:35:24 13 C 8.96 g/m*3 13 C 0 km/h
967 24-07-2008 06:05:24 12.8 C 9.07 g/m*3 12.8 C 0 km/h
968 24-07-2008 06:35:24 12.8 C 9.07 g/m*3 12.8 C 0 km/h
969 24-07-2008 07:05:24 12.9 C 9.24 g/m*3 12.9 C 0 km/h
970 24-07-2008 07:35:24 13.1 C 9.24 g/m*3 13.1 C 0 km/h
971 24-07-2008 08:05:24 13.6 C 9.53 g/m*3 13.6 C 0 km/h
972 24-07-2008 08:35:25 14.3 C 9.71 g/m*3 14.3 C 0 km/h
973 24-07-2008 09:05:25 15.4 C 10.25 g/m*3 15.4 C 0 km/h
974 24-07-2008 09:35:25 17 C 10.13 g/m*3 17 C 0 km/h
975 24-07-2008 10:05:25 18.9 C 10.04 g/m*3 18.9 C 0 km/h
Sensor: Nr:Datum:Temp:Abs-Feuchte:Windchill:Wind:
Aussen-T/F 976 24-07-2008 10:35:25 20.8 C 8.87 g/m*3 20.8 C 0 km/h
977 24-07-2008 11:05:25 22.4 C 8.34 g/m*3 22.4 C 0 km/h
978 24-07-2008 11:35:25 23.1 C 7.65 g/m*3 23.1 C 0 km/h
979 24-07-2008 12:05:25 24.5 C 7.83 g/m*3 24.5 C 0 km/h
980 24-07-2008 12:35:25 26.5 C 7.01 g/m*3 26.5 C 0 km/h
981 24-07-2008 13:05:25 25.7 C 6.46 g/m*3 25.7 C 0 km/h
982 24-07-2008 13:35:25 29 C 6.32 g/m*3 29 C 0 km/h
983 24-07-2008 14:05:25 28.8 C 5.97 g/m*3 28.8 C 0 km/h
984 24-07-2008 14:35:25 28.3 C 6.36 g/m*3 28.3 C 0 km/h
985 24-07-2008 15:05:25 29.9 C 6.03 g/m*3 29.9 C 0 km/h
986 24-07-2008 15:35:25 30.7 C 6.3 g/m*3 30.7 C 0 km/h
987 24-07-2008 16:05:25 31 C 6.4 g/m*3 31 C 0 km/h
988 24-07-2008 16:35:25 31.4 C 6.54 g/m*3 31.4 C 0 km/h
989 24-07-2008 17:05:25 31.6 C 6.61 g/m*3 31.6 C 0 km/h
990 24-07-2008 17:35:25 32.1 C 6.79 g/m*3 32.1 C 0 km/h
991 24-07-2008 18:05:26 32.3 C 6.86 g/m*3 32.3 C 0 km/h
992 24-07-2008 18:35:26 32.3 C 6.86 g/m*3 32.3 C 0 km/h
993 24-07-2008 19:05:26 32.3 C 6.86 g/m*3 32.3 C 0 km/h
994 24-07-2008 19:35:26 31.6 C 6.61 g/m*3 31.6 C 0 km/h
995 24-07-2008 20:05:26 31.2 C 6.47 g/m*3 31.2 C 0 km/h
996 24-07-2008 20:35:26 30.3 C 7.4 g/m*3 30.3 C 0 km/h
997 24-07-2008 21:05:26 27.1 C 7.76 g/m*3 27.1 C 0 km/h
998 24-07-2008 21:35:26 25 C 7.37 g/m*3 25 C 0 km/h
999 24-07-2008 22:05:26 23.7 C 7.7 g/m*3 23.7 C 0 km/h
1000 24-07-2008 22:35:26 22.7 C 7.88 g/m*3 22.7 C 0 km/h
Sensor: Nr:Datum:Temp:Abs-Feuchte:Windchill:Wind:
Aussen-T/F 1001 24-07-2008 23:05:26 22.2 C 8.05 g/m*3 22.2 C 0 km/h
1002 24-07-2008 23:35:26 21.8 C 8.25 g/m*3 21.8 C 0 km/h
1003 25-07-2008 00:05:26 21.2 C 8.15 g/m*3 21.2 C 0 km/h
1004 25-07-2008 00:35:26 20.9 C 8.38 g/m*3 20.9 C 0 km/h
1005 25-07-2008 01:05:26 20.2 C 8.22 g/m*3 20.2 C 0 km/h
1006 25-07-2008 01:35:26 19.9 C 8.42 g/m*3 19.9 C 0 km/h
1007 25-07-2008 02:05:26 19.5 C 8.22 g/m*3 19.5 C 0 km/h
1008 25-07-2008 02:35:26 19.1 C 8.36 g/m*3 19.1 C 0 km/h
1009 25-07-2008 03:05:26 18.5 C 8.54 g/m*3 18.5 C 0 km/h
1010 25-07-2008 03:35:26 18.1 C 8.65 g/m*3 18.1 C 0 km/h
1011 25-07-2008 04:05:27 17.9 C 9.01 g/m*3 17.9 C 0 km/h
1012 25-07-2008 04:35:27 17.5 C 9.24 g/m*3 17.5 C 0 km/h
1013 25-07-2008 05:05:27 17.4 C 9.34 g/m*3 17.4 C 0 km/h
1014 25-07-2008 05:35:27 17 C 9.12 g/m*3 17 C 0 km/h
1015 25-07-2008 06:05:27 16.6 C 9.32 g/m*3 16.6 C 0 km/h
1016 25-07-2008 06:35:27 16.2 C 9.52 g/m*3 16.2 C 0 km/h
1017 25-07-2008 07:05:27 16.3 C 9.71 g/m*3 16.3 C 0 km/h
1018 25-07-2008 07:35:27 16.8 C 9.87 g/m*3 16.8 C 0 km/h
1019 25-07-2008 08:05:27 16.9 C 9.78 g/m*3 16.9 C 0 km/h
1020 25-07-2008 08:35:27 17.9 C 9.92 g/m*3 17.9 C 0 km/h
1021 25-07-2008 09:05:27 20 C 9.51 g/m*3 20 C 0 km/h
1022 25-07-2008 09:35:27 20.4 C 9.91 g/m*3 20.4 C 0 km/h
1023 25-07-2008 10:05:27 20.8 C 10.14 g/m*3 20.8 C 0 km/h
1024 25-07-2008 10:35:27 22.7 C 9.9 g/m*3 22.7 C 0 km/h
1025 25-07-2008 11:05:27 24.4 C 9.57 g/m*3 24.4 C 0 km/h
Sensor: Nr:Datum:Temp:Abs-Feuchte:Windchill:Wind:
Aussen-T/F 1026 25-07-2008 11:35:27 25.6 C 9.52 g/m*3 25.6 C 0 km/h
1027 25-07-2008 12:05:27 27.1 C 9.32 g/m*3 27.1 C 0 km/h
1028 25-07-2008 12:35:27 28.8 C 8.81 g/m*3 28.8 C 0 km/h
1029 25-07-2008 13:05:27 29.7 C 8.95 g/m*3 29.7 C 0 km/h
1030 25-07-2008 13:35:27 30.7 C 8.19 g/m*3 30.7 C 0 km/h
1031 25-07-2008 14:05:27 31.3 C 7.48 g/m*3 31.3 C 0 km/h
1032 25-07-2008 14:35:28 31.2 C 7.44 g/m*3 31.2 C 0 km/h
1033 25-07-2008 15:05:28 32.1 C 7.13 g/m*3 32.1 C 0 km/h
1034 25-07-2008 15:35:28 32.6 C 6.97 g/m*3 32.6 C 0 km/h
1035 25-07-2008 16:05:28 32.3 C 6.86 g/m*3 32.3 C 0 km/h
1036 25-07-2008 16:35:28 33.3 C 7.23 g/m*3 33.3 C 0 km/h
1037 25-07-2008 17:05:28 32.5 C 6.93 g/m*3 32.5 C 0 km/h
1038 25-07-2008 17:35:28 32.5 C 6.93 g/m*3 32.5 C 0 km/h
1039 25-07-2008 18:05:28 32.5 C 6.93 g/m*3 32.5 C 0 km/h
1040 25-07-2008 18:35:28 33.2 C 7.2 g/m*3 33.2 C 0 km/h
1041 25-07-2008 19:05:28 32.8 C 7.04 g/m*3 32.8 C 0 km/h
1042 25-07-2008 19:35:28 31.3 C 8.46 g/m*3 31.3 C 0 km/h
1043 25-07-2008 20:05:28 30.7 C 9.45 g/m*3 30.7 C 0 km/h
1044 25-07-2008 20:35:28 29.3 C 9.93 g/m*3 29.3 C 0 km/h
1045 25-07-2008 21:05:28 27.8 C 9.95 g/m*3 27.8 C 0 km/h
1046 25-07-2008 21:35:28 26.6 C 9.82 g/m*3 26.6 C 0 km/h
1047 25-07-2008 22:05:28 25.8 C 9.63 g/m*3 25.8 C 0 km/h
1048 25-07-2008 22:35:28 24.9 C 10.07 g/m*3 24.9 C 0 km/h
1049 25-07-2008 23:05:28 24.3 C 9.96 g/m*3 24.3 C 0 km/h
1050 25-07-2008 23:35:28 23.6 C 10.42 g/m*3 23.6 C 0 km/h
Sensor: Nr:Datum:Temp:Abs-Feuchte:Windchill:Wind:
Aussen-T/F 1051 26-07-2008 00:05:28 23 C 10.48 g/m*3 23 C 0 km/h
1052 26-07-2008 00:35:29 22.2 C 10.6 g/m*3 22.2 C 0 km/h
1053 26-07-2008 01:05:29 22.2 C 10.8 g/m*3 22.2 C 0 km/h
1054 26-07-2008 01:35:29 21.3 C 10.81 g/m*3 21.3 C 0 km/h
1055 26-07-2008 02:05:29 21 C 10.99 g/m*3 21 C 0 km/h
1056 26-07-2008 02:35:29 20.5 C 11.21 g/m*3 20.5 C 0 km/h
1057 26-07-2008 03:05:29 20.2 C 11.19 g/m*3 20.2 C 0 km/h
1058 26-07-2008 03:35:29 20 C 11.23 g/m*3 20 C 0 km/h
1059 26-07-2008 04:05:29 20.2 C 11.19 g/m*3 20.2 C 0 km/h
1060 26-07-2008 04:35:29 20 C 11.23 g/m*3 20 C 0 km/h
1061 26-07-2008 05:05:29 19.9 C 11.51 g/m*3 19.9 C 0 km/h
1062 26-07-2008 05:35:29 19.1 C 11.31 g/m*3 19.1 C 0 km/h
1063 26-07-2008 06:05:29 18.8 C 11.6 g/m*3 18.8 C 0 km/h
1064 26-07-2008 06:35:29 19.1 C 11.64 g/m*3 19.1 C 0 km/h
1065 26-07-2008 07:05:29 19.5 C 11.75 g/m*3 19.5 C 0 km/h
1066 26-07-2008 07:35:29 19.6 C 11.65 g/m*3 19.6 C 0 km/h
1067 26-07-2008 08:05:29 19.8 C 11.79 g/m*3 19.8 C 0 km/h
1068 26-07-2008 08:35:29 20.2 C 11.71 g/m*3 20.2 C 0 km/h
1069 26-07-2008 09:05:29 21 C 11.36 g/m*3 21 C 0 km/h
1070 26-07-2008 09:35:29 22 C 11.65 g/m*3 22 C 0 km/h
1071 26-07-2008 10:05:29 23.7 C 11.55 g/m*3 23.7 C 0 km/h
1072 26-07-2008 10:35:30 25.1 C 11.81 g/m*3 25.1 C 0 km/h
1073 26-07-2008 11:05:30 25.8 C 12.28 g/m*3 25.8 C 0 km/h
1074 26-07-2008 11:35:30 27.3 C 12.04 g/m*3 27.3 C 0 km/h
1075 26-07-2008 12:05:30 29.6 C 12.17 g/m*3 29.6 C 0 km/h
Sensor: Nr:Datum:Temp:Abs-Feuchte:Windchill:Wind:
Aussen-T/F 1076 26-07-2008 12:35:30 30.2 C 11.34 g/m*3 30.2 C 0 km/h
1077 26-07-2008 13:05:30 30.6 C 10.96 g/m*3 30.6 C 0 km/h
1078 26-07-2008 13:35:30 30.7 C 11.02 g/m*3 30.7 C 0 km/h
1079 26-07-2008 14:05:30 30.9 C 10.5 g/m*3 30.9 C 0 km/h
1080 26-07-2008 14:35:30 31 C 10.24 g/m*3 31 C 0 km/h
1081 26-07-2008 15:05:30 31.8 C 10.02 g/m*3 31.8 C 0 km/h
1082 26-07-2008 15:35:30 32.1 C 10.18 g/m*3 32.1 C 0 km/h
1083 26-07-2008 16:05:30 33.2 C 7.55 g/m*3 33.2 C 0 km/h
1084 26-07-2008 16:35:30 32.2 C 8.53 g/m*3 32.2 C 0 km/h
1085 26-07-2008 17:05:30 31.7 C 8.64 g/m*3 31.7 C 0 km/h
1086 26-07-2008 17:35:30 29 C 10.05 g/m*3 29 C 0 km/h
1087 26-07-2008 18:05:30 25.3 C 11.71 g/m*3 25.3 C 0 km/h
1088 26-07-2008 18:35:30 20.8 C 14.12 g/m*3 20.8 C 0 km/h
1089 26-07-2008 19:05:30 20.9 C 15.3 g/m*3 20.9 C 0 km/h
1090 26-07-2008 19:35:30 20.6 C 15.21 g/m*3 20.6 C 0 km/h
1091 26-07-2008 20:05:31 21.1 C 14.37 g/m*3 21.1 C 0 km/h
1092 26-07-2008 20:35:31 20.8 C 14.49 g/m*3 20.8 C 0 km/h
1093 26-07-2008 21:05:31 20.8 C 14.3 g/m*3 20.8 C 0 km/h
1094 26-07-2008 21:35:31 19.5 C 14.1 g/m*3 19.5 C 0 km/h
1095 26-07-2008 22:05:31 19.3 C 13.6 g/m*3 19.3 C 0 km/h
1096 26-07-2008 22:35:31 19 C 13.36 g/m*3 19 C 0 km/h
1097 26-07-2008 23:05:31 18.9 C 13.61 g/m*3 18.9 C 0 km/h
1098 26-07-2008 23:35:31 18.8 C 14.17 g/m*3 18.8 C 0 km/h
1099 27-07-2008 00:05:31 18.5 C 14.08 g/m*3 18.5 C 0 km/h
1100 27-07-2008 00:35:31 18.4 C 14 g/m*3 18.4 C 0 km/h
Sensor: Nr:Datum:Temp:Abs-Feuchte:Windchill:Wind:
Aussen-T/F 1101 27-07-2008 01:05:31 18.5 C 14.08 g/m*3 18.5 C 0 km/h
1102 27-07-2008 01:35:31 18.3 C 13.92 g/m*3 18.3 C 0 km/h
1103 27-07-2008 02:05:31 18.1 C 13.6 g/m*3 18.1 C 0 km/h
1104 27-07-2008 02:35:31 17.8 C 13.51 g/m*3 17.8 C 0 km/h
1105 27-07-2008 03:05:31 18 C 13.67 g/m*3 18 C 0 km/h
1106 27-07-2008 03:35:31 18.4 C 14 g/m*3 18.4 C 0 km/h
1107 27-07-2008 04:05:31 18.4 C 13.84 g/m*3 18.4 C 0 km/h
1108 27-07-2008 04:35:31 18.5 C 13.92 g/m*3 18.5 C 0 km/h
1109 27-07-2008 05:05:31 18.7 C 13.93 g/m*3 18.7 C 0 km/h
1110 27-07-2008 05:35:32 18.7 C 13.93 g/m*3 18.7 C 0 km/h
1111 27-07-2008 06:05:32 18.8 C 14.01 g/m*3 18.8 C 0 km/h
1112 27-07-2008 06:35:32 18.8 C 14.01 g/m*3 18.8 C 0 km/h
1113 27-07-2008 07:05:32 19 C 13.85 g/m*3 19 C 0 km/h
1114 27-07-2008 07:35:32 19.2 C 13.85 g/m*3 19.2 C 0 km/h
1115 27-07-2008 08:05:32 19.6 C 13.67 g/m*3 19.6 C 0 km/h
1116 27-07-2008 08:35:32 19.7 C 13.25 g/m*3 19.7 C 0 km/h
1117 27-07-2008 09:05:32 19.9 C 13.23 g/m*3 19.9 C 0 km/h
1118 27-07-2008 09:35:32 20.1 C 13.04 g/m*3 20.1 C 0 km/h
1119 27-07-2008 10:05:32 20.4 C 13.09 g/m*3 20.4 C 0 km/h
1120 27-07-2008 10:35:32 21.6 C 13.66 g/m*3 21.6 C 0 km/h
1121 27-07-2008 11:05:32 23.4 C 13.04 g/m*3 23.4 C 0 km/h
1122 27-07-2008 11:35:32 24.3 C 12.83 g/m*3 24.3 C 0 km/h
1123 27-07-2008 12:05:32 24.9 C 13.05 g/m*3 24.9 C 0 km/h
1124 27-07-2008 12:35:32 26.5 C 12.77 g/m*3 26.5 C 0 km/h
1125 27-07-2008 13:05:32 28.2 C 12.1 g/m*3 28.2 C 0 km/h
Sensor: Nr:Datum:Temp:Abs-Feuchte:Windchill:Wind:
Aussen-T/F 1126 27-07-2008 13:35:32 29.9 C 11.46 g/m*3 29.9 C 0 km/h
1127 27-07-2008 14:05:32 30.3 C 11.4 g/m*3 30.3 C 0 km/h
1128 27-07-2008 14:35:32 31.2 C 10.67 g/m*3 31.2 C 0 km/h
1129 27-07-2008 15:05:33 31.8 C 10.02 g/m*3 31.8 C 0 km/h
1130 27-07-2008 15:35:33 32.4 C 10 g/m*3 32.4 C 0 km/h
1131 27-07-2008 16:05:33 33 C 8.9 g/m*3 33 C 0 km/h
1132 27-07-2008 16:35:33 32.7 C 8.76 g/m*3 32.7 C 0 km/h
1133 27-07-2008 17:05:33 33.8 C 7.43 g/m*3 33.8 C 0 km/h
1134 27-07-2008 17:35:33 33.6 C 7.35 g/m*3 33.6 C 0 km/h
1135 27-07-2008 18:05:33 32 C 9.45 g/m*3 32 C 0 km/h
1136 27-07-2008 18:35:33 31 C 10.88 g/m*3 31 C 0 km/h
1137 27-07-2008 19:05:33 25.1 C 12.04 g/m*3 25.1 C 0 km/h
1138 27-07-2008 19:35:33 22.8 C 15.65 g/m*3 22.8 C 0 km/h
1139 27-07-2008 20:05:33 21.7 C 15.83 g/m*3 21.7 C 0 km/h
1140 27-07-2008 20:35:33 21 C 15.39 g/m*3 21 C 0 km/h
1141 27-07-2008 21:05:33 21.6 C 15.36 g/m*3 21.6 C 0 km/h
1142 27-07-2008 21:35:33 21.5 C 14.71 g/m*3 21.5 C 0 km/h
1143 27-07-2008 22:05:33 21.3 C 14.54 g/m*3 21.3 C 0 km/h
1144 27-07-2008 22:35:33 21 C 13.92 g/m*3 21 C 0 km/h
1145 27-07-2008 23:05:33 20.8 C 13.76 g/m*3 20.8 C 0 km/h
1146 27-07-2008 23:35:33 20.7 C 13.68 g/m*3 20.7 C 0 km/h
1147 28-07-2008 00:05:33 20.3 C 13.54 g/m*3 20.3 C 0 km/h
1148 28-07-2008 00:35:33 20 C 13.48 g/m*3 20 C 0 km/h
1149 28-07-2008 01:05:34 19.5 C 13.26 g/m*3 19.5 C 0 km/h
1150 28-07-2008 01:35:34 19.2 C 13.19 g/m*3 19.2 C 0 km/h
Sensor: Nr:Datum:Temp:Abs-Feuchte:Windchill:Wind:
Aussen-T/F 1151 28-07-2008 02:05:34 19.1 C 13.28 g/m*3 19.1 C 0 km/h
1152 28-07-2008 02:35:34 19.2 C 13.36 g/m*3 19.2 C 0 km/h
1153 28-07-2008 03:05:34 19.2 C 13.36 g/m*3 19.2 C 0 km/h
1154 28-07-2008 03:35:34 18.9 C 13.61 g/m*3 18.9 C 0 km/h
1155 28-07-2008 04:05:34 18.6 C 13.37 g/m*3 18.6 C 0 km/h
1156 28-07-2008 04:35:34 18.6 C 13.37 g/m*3 18.6 C 0 km/h
1157 28-07-2008 05:05:34 18.3 C 13.29 g/m*3 18.3 C 0 km/h
1158 28-07-2008 05:35:34 18.1 C 13.13 g/m*3 18.1 C 0 km/h
1159 28-07-2008 06:05:34 18 C 13.06 g/m*3 18 C 0 km/h
1160 28-07-2008 06:35:34 18.2 C 13.21 g/m*3 18.2 C 0 km/h
1161 28-07-2008 07:05:34 18.5 C 13.45 g/m*3 18.5 C 0 km/h
1162 28-07-2008 07:35:34 18.9 C 13.77 g/m*3 18.9 C 0 km/h
1163 28-07-2008 08:05:34 19.4 C 13.85 g/m*3 19.4 C 0 km/h
1164 28-07-2008 08:35:34 19.8 C 13.84 g/m*3 19.8 C 0 km/h
1165 28-07-2008 09:05:34 20.9 C 14.21 g/m*3 20.9 C 0 km/h
1166 28-07-2008 09:35:34 22.4 C 13.7 g/m*3 22.4 C 0 km/h
1167 28-07-2008 10:05:34 23.5 C 13.75 g/m*3 23.5 C 0 km/h
1168 28-07-2008 10:35:35 26 C 12.42 g/m*3 26 C 0 km/h
1169 28-07-2008 11:05:35 26.6 C 12.59 g/m*3 26.6 C 0 km/h
1170 28-07-2008 11:35:35 27.9 C 12.17 g/m*3 27.9 C 0 km/h
1171 28-07-2008 12:05:35 28.7 C 11.59 g/m*3 28.7 C 0 km/h
1172 28-07-2008 12:35:35 30.6 C 10.65 g/m*3 30.6 C 0 km/h
1173 28-07-2008 13:05:35 31.5 C 9.86 g/m*3 31.5 C 0 km/h
1174 28-07-2008 13:35:35 32.1 C 9.16 g/m*3 32.1 C 0 km/h
1175 28-07-2008 14:05:35 32.1 C 8.82 g/m*3 32.1 C 0 km/h
Sensor: Nr:Datum:Temp:Abs-Feuchte:Windchill:Wind:
Aussen-T/F 1176 28-07-2008 14:35:35 31.9 C 8.39 g/m*3 31.9 C 0 km/h
1177 28-07-2008 15:05:35 32.6 C 7.67 g/m*3 32.6 C 0 km/h
1178 28-07-2008 15:35:35 32.3 C 6.86 g/m*3 32.3 C 0 km/h
1179 28-07-2008 16:05:35 33.1 C 7.16 g/m*3 33.1 C 0 km/h
1180 28-07-2008 16:35:35 32.6 C 6.97 g/m*3 32.6 C 0 km/h
1181 28-07-2008 17:05:35 33.2 C 7.2 g/m*3 33.2 C 0 km/h
1182 28-07-2008 17:35:35 32.7 C 8.41 g/m*3 32.7 C 0 km/h
1183 28-07-2008 18:05:35 32.8 C 7.75 g/m*3 32.8 C 0 km/h
1184 28-07-2008 18:35:35 31.5 C 9.2 g/m*3 31.5 C 0 km/h
1185 28-07-2008 19:05:35 30.2 C 9.2 g/m*3 30.2 C 0 km/h
1186 28-07-2008 19:35:35 30.3 C 9.55 g/m*3 30.3 C 0 km/h
1187 28-07-2008 20:05:36 29 C 9.77 g/m*3 29 C 0 km/h
1188 28-07-2008 20:35:36 27.8 C 9.68 g/m*3 27.8 C 0 km/h
1189 28-07-2008 21:05:36 27 C 9.52 g/m*3 27 C 0 km/h
1190 28-07-2008 21:35:36 26.3 C 9.65 g/m*3 26.3 C 0 km/h
1191 28-07-2008 22:05:36 25.5 C 9.47 g/m*3 25.5 C 0 km/h
1192 28-07-2008 22:35:36 24.8 C 9.79 g/m*3 24.8 C 0 km/h
1193 28-07-2008 23:05:36 24.1 C 9.63 g/m*3 24.1 C 0 km/h
1194 28-07-2008 23:35:36 23.4 C 9.88 g/m*3 23.4 C 0 km/h
1195 29-07-2008 00:05:36 23 C 9.87 g/m*3 23 C 0 km/h
1196 29-07-2008 00:35:36 22.5 C 10.39 g/m*3 22.5 C 0 km/h
1197 29-07-2008 01:05:36 22.1 C 10.35 g/m*3 22.1 C 0 km/h
1198 29-07-2008 01:35:36 21.6 C 10.43 g/m*3 21.6 C 0 km/h
1199 29-07-2008 02:05:36 21.1 C 11.06 g/m*3 21.1 C 0 km/h
1200 29-07-2008 02:35:36 20.9 C 10.93 g/m*3 20.9 C 0 km/h
Sensor: Nr:Datum:Temp:Abs-Feuchte:Windchill:Wind:
Aussen-T/F 1201 29-07-2008 03:05:36 20.4 C 10.97 g/m*3 20.4 C 0 km/h
1202 29-07-2008 03:35:36 20.1 C 11.3 g/m*3 20.1 C 0 km/h
1203 29-07-2008 04:05:36 19.8 C 11.44 g/m*3 19.8 C 0 km/h
1204 29-07-2008 04:35:36 19.4 C 11.68 g/m*3 19.4 C 0 km/h
1205 29-07-2008 05:05:36 19.2 C 11.87 g/m*3 19.2 C 0 km/h
1206 29-07-2008 05:35:37 19 C 11.57 g/m*3 19 C 0 km/h
1207 29-07-2008 06:05:37 19 C 11.73 g/m*3 19 C 0 km/h
1208 29-07-2008 06:35:37 19 C 11.9 g/m*3 19 C 0 km/h
1209 29-07-2008 07:05:37 19.2 C 12.04 g/m*3 19.2 C 0 km/h
1210 29-07-2008 07:35:37 19.1 C 12.13 g/m*3 19.1 C 0 km/h
1211 29-07-2008 08:05:37 19.4 C 12.35 g/m*3 19.4 C 0 km/h
1212 29-07-2008 08:35:37 20.2 C 12.24 g/m*3 20.2 C 0 km/h
1213 29-07-2008 09:05:37 22 C 12.23 g/m*3 22 C 0 km/h
1214 29-07-2008 09:35:37 23.5 C 11.84 g/m*3 23.5 C 0 km/h
1215 29-07-2008 10:05:37 24.6 C 11.7 g/m*3 24.6 C 0 km/h
1216 29-07-2008 10:35:37 27 C 11.58 g/m*3 27 C 0 km/h
1217 29-07-2008 11:05:37 27.8 C 12.1 g/m*3 27.8 C 0 km/h
1218 29-07-2008 11:35:37 24.8 C 11.84 g/m*3 24.8 C 0 km/h
1219 29-07-2008 12:05:37 20.4 C 13.98 g/m*3 20.4 C 0 km/h
1220 29-07-2008 12:35:37 20.3 C 14.95 g/m*3 20.3 C 0 km/h
1221 29-07-2008 13:05:37 21.4 C 15.37 g/m*3 21.4 C 0 km/h
1222 29-07-2008 13:35:37 24.6 C 16.21 g/m*3 24.6 C 0 km/h
1223 29-07-2008 14:05:37 26.8 C 14 g/m*3 26.8 C 0 km/h
1224 29-07-2008 14:35:37 27.7 C 13.11 g/m*3 27.7 C 0 km/h
1225 29-07-2008 15:05:38 29.8 C 12 g/m*3 29.8 C 0 km/h
Sensor: Nr:Datum:Temp:Abs-Feuchte:Windchill:Wind:
Aussen-T/F 1226 29-07-2008 15:35:38 30.7 C 11.02 g/m*3 30.7 C 0 km/h
1227 29-07-2008 16:05:38 31.4 C 10.46 g/m*3 31.4 C 0 km/h
1228 29-07-2008 16:35:38 32 C 10.13 g/m*3 32 C 0 km/h
1229 29-07-2008 17:05:38 32.1 C 9.5 g/m*3 32.1 C 0 km/h
1230 29-07-2008 17:35:38 31.8 C 10.02 g/m*3 31.8 C 0 km/h
1231 29-07-2008 18:05:38 31.5 C 10.19 g/m*3 31.5 C 0 km/h
1232 29-07-2008 18:35:38 31.9 C 9.07 g/m*3 31.9 C 0 km/h
1233 29-07-2008 19:05:38 31.7 C 9.3 g/m*3 31.7 C 0 km/h
1234 29-07-2008 19:35:38 30.3 C 10.79 g/m*3 30.3 C 0 km/h
1235 29-07-2008 20:05:38 31.3 C 10.73 g/m*3 31.3 C 0 km/h
1236 29-07-2008 20:35:38 30.2 C 9.81 g/m*3 30.2 C 0 km/h
1237 29-07-2008 21:05:38 26.9 C 10.49 g/m*3 26.9 C 0 km/h
1238 29-07-2008 21:35:38 25.1 C 10.65 g/m*3 25.1 C 0 km/h
1239 29-07-2008 22:05:38 24.4 C 11.57 g/m*3 24.4 C 0 km/h
1240 29-07-2008 22:35:38 23.5 C 11.42 g/m*3 23.5 C 0 km/h
1241 29-07-2008 23:05:38 23.1 C 11.78 g/m*3 23.1 C 0 km/h
1242 29-07-2008 23:35:38 22.3 C 11.65 g/m*3 22.3 C 0 km/h
1243 30-07-2008 00:05:38 21.7 C 12.21 g/m*3 21.7 C 0 km/h
1244 30-07-2008 00:35:38 21.1 C 12.53 g/m*3 21.1 C 0 km/h
1245 30-07-2008 01:05:39 20.7 C 12.78 g/m*3 20.7 C 0 km/h
1246 30-07-2008 01:35:39 20.6 C 12.71 g/m*3 20.6 C 0 km/h
1247 30-07-2008 02:05:39 20.3 C 12.49 g/m*3 20.3 C 0 km/h
1248 30-07-2008 02:35:39 19.9 C 12.54 g/m*3 19.9 C 0 km/h
1249 30-07-2008 03:05:39 19.5 C 12.42 g/m*3 19.5 C 0 km/h
1250 30-07-2008 03:35:39 19 C 12.55 g/m*3 19 C 0 km/h
Sensor: Nr:Datum:Temp:Abs-Feuchte:Windchill:Wind:
Aussen-T/F 1251 30-07-2008 04:05:39 18.9 C 12.47 g/m*3 18.9 C 0 km/h
1252 30-07-2008 04:35:39 18.7 C 12.49 g/m*3 18.7 C 0 km/h
1253 30-07-2008 05:05:39 18.3 C 12.51 g/m*3 18.3 C 0 km/h
1254 30-07-2008 05:35:39 18.1 C 12.36 g/m*3 18.1 C 0 km/h
1255 30-07-2008 06:05:39 17.9 C 12.37 g/m*3 17.9 C 0 km/h
1256 30-07-2008 06:35:39 17.8 C 12.45 g/m*3 17.8 C 0 km/h
1257 30-07-2008 07:05:39 17.8 C 12.45 g/m*3 17.8 C 0 km/h
1258 30-07-2008 07:35:39 17.8 C 12.45 g/m*3 17.8 C 0 km/h
1259 30-07-2008 08:05:39 19 C 12.71 g/m*3 19 C 0 km/h
1260 30-07-2008 08:35:39 19.9 C 12.54 g/m*3 19.9 C 0 km/h
1261 30-07-2008 09:05:39 20.7 C 12.6 g/m*3 20.7 C 0 km/h
1262 30-07-2008 09:35:39 22 C 12.81 g/m*3 22 C 0 km/h
1263 30-07-2008 10:05:39 22.7 C 12.93 g/m*3 22.7 C 0 km/h
1264 30-07-2008 10:35:40 24.8 C 12.97 g/m*3 24.8 C 0 km/h
1265 30-07-2008 11:05:40 26.1 C 12.49 g/m*3 26.1 C 0 km/h
1266 30-07-2008 11:35:40 26.8 C 12.22 g/m*3 26.8 C 0 km/h
1267 30-07-2008 12:05:40 27.5 C 12.43 g/m*3 27.5 C 0 km/h
1268 30-07-2008 12:35:40 29.3 C 11.97 g/m*3 29.3 C 0 km/h
1269 30-07-2008 13:05:40 29.6 C 11.87 g/m*3 29.6 C 0 km/h
1270 30-07-2008 13:35:40 30 C 10.92 g/m*3 30 C 0 km/h
1271 30-07-2008 14:05:40 29.8 C 11.4 g/m*3 29.8 C 0 km/h
1272 30-07-2008 14:35:40 31.7 C 10.3 g/m*3 31.7 C 0 km/h
1273 30-07-2008 15:05:40 32.7 C 9.11 g/m*3 32.7 C 0 km/h
1274 30-07-2008 15:35:40 32 C 9.45 g/m*3 32 C 0 km/h
1275 30-07-2008 16:05:40 31.8 C 10.02 g/m*3 31.8 C 0 km/h
Sensor: Nr:Datum:Temp:Abs-Feuchte:Windchill:Wind:
Aussen-T/F 1276 30-07-2008 16:35:40 33.2 C 8.63 g/m*3 33.2 C 0 km/h
1277 30-07-2008 17:05:40 33.3 C 7.96 g/m*3 33.3 C 0 km/h
1278 30-07-2008 17:35:40 33.6 C 8.08 g/m*3 33.6 C 0 km/h
1279 30-07-2008 18:05:40 34 C 7.5 g/m*3 34 C 0 km/h
1280 30-07-2008 18:35:40 24.5 C 5.82 g/m*3 24.5 C 0 km/h
1281 30-07-2008 19:05:40 21.2 C 4.82 g/m*3 21.2 C 0 km/h
1282 30-07-2008 19:35:40 22.4 C 6.16 g/m*3 22.4 C 0 km/h
1283 30-07-2008 20:05:41 24.6 C 18.01 g/m*3 24.6 C 0 km/h
1284 30-07-2008 20:35:41 23 C 15.42 g/m*3 23 C 0 km/h
1285 30-07-2008 21:05:41 22.1 C 13.66 g/m*3 22.1 C 0 km/h
1286 30-07-2008 21:35:41 20.1 C 14.78 g/m*3 20.1 C 0 km/h
1287 30-07-2008 22:05:41 20.1 C 15.12 g/m*3 20.1 C 0 km/h
1288 30-07-2008 22:35:41 20.1 C 15.12 g/m*3 20.1 C 0 km/h
1289 30-07-2008 23:05:41 20 C 14.86 g/m*3 20 C 0 km/h
1290 30-07-2008 23:35:41 19.6 C 14.69 g/m*3 19.6 C 0 km/h
1291 31-07-2008 00:05:41 19.1 C 13.93 g/m*3 19.1 C 0 km/h
1292 31-07-2008 00:35:41 18.7 C 13.77 g/m*3 18.7 C 0 km/h
1293 31-07-2008 01:05:41 18.5 C 13.61 g/m*3 18.5 C 0 km/h
1294 31-07-2008 01:35:41 18.4 C 13.53 g/m*3 18.4 C 0 km/h
1295 31-07-2008 02:05:41 18.1 C 13.44 g/m*3 18.1 C 0 km/h
1296 31-07-2008 02:35:41 17.9 C 13.44 g/m*3 17.9 C 0 km/h
1297 31-07-2008 03:05:41 17.6 C 13.2 g/m*3 17.6 C 0 km/h
1298 31-07-2008 03:35:41 17.4 C 13.04 g/m*3 17.4 C 0 km/h
1299 31-07-2008 04:05:41 17.1 C 12.96 g/m*3 17.1 C 0 km/h
1300 31-07-2008 04:35:41 17.2 C 13.18 g/m*3 17.2 C 0 km/h
Sensor: Nr:Datum:Temp:Abs-Feuchte:Windchill:Wind:
Aussen-T/F 1301 31-07-2008 05:05:41 17.2 C 13.03 g/m*3 17.2 C 0 km/h
1302 31-07-2008 05:35:42 17.4 C 13.19 g/m*3 17.4 C 0 km/h
1303 31-07-2008 06:05:42 17 C 12.73 g/m*3 17 C 0 km/h
1304 31-07-2008 06:35:42 17.5 C 13.12 g/m*3 17.5 C 0 km/h
1305 31-07-2008 07:05:42 17.2 C 12.59 g/m*3 17.2 C 0 km/h
1306 31-07-2008 07:35:42 17.1 C 12.66 g/m*3 17.1 C 0 km/h
1307 31-07-2008 08:05:42 17.9 C 13.28 g/m*3 17.9 C 0 km/h
1308 31-07-2008 08:35:42 18.5 C 13.13 g/m*3 18.5 C 0 km/h
1309 31-07-2008 09:05:42 18.9 C 12.96 g/m*3 18.9 C 0 km/h
1310 31-07-2008 09:35:42 19.7 C 13.75 g/m*3 19.7 C 0 km/h
1311 31-07-2008 10:05:42 21 C 14.29 g/m*3 21 C 0 km/h
1312 31-07-2008 10:35:42 22.9 C 15.12 g/m*3 22.9 C 0 km/h
1313 31-07-2008 11:05:42 24.8 C 13.88 g/m*3 24.8 C 0 km/h
1314 31-07-2008 11:35:42 26.6 C 13.84 g/m*3 26.6 C 0 km/h
1315 31-07-2008 12:05:42 27.8 C 13.18 g/m*3 27.8 C 0 km/h
1316 31-07-2008 12:35:42 29.5 C 12.4 g/m*3 29.5 C 0 km/h
1317 31-07-2008 13:05:42 30.7 C 11.34 g/m*3 30.7 C 0 km/h
1318 31-07-2008 13:35:42 31.6 C 9.91 g/m*3 31.6 C 0 km/h
1319 31-07-2008 14:05:42 31.4 C 9.81 g/m*3 31.4 C 0 km/h
1320 31-07-2008 14:35:42 30.8 C 10.76 g/m*3 30.8 C 0 km/h
1321 31-07-2008 15:05:43 31.5 C 10.19 g/m*3 31.5 C 0 km/h
1322 31-07-2008 15:35:43 31.5 C 10.52 g/m*3 31.5 C 0 km/h
1323 31-07-2008 16:05:43 33.3 C 9.04 g/m*3 33.3 C 0 km/h
1324 31-07-2008 16:35:43 33.8 C 8.54 g/m*3 33.8 C 0 km/h
1325 31-07-2008 17:05:43 33.7 C 8.49 g/m*3 33.7 C 0 km/h
Sensor: Nr:Datum:Temp:Abs-Feuchte:Windchill:Wind:
Aussen-T/F 1326 31-07-2008 17:35:43 33.9 C 7.84 g/m*3 33.9 C 0 km/h
1327 31-07-2008 18:05:43 34.1 C 8.3 g/m*3 34.1 C 0 km/h
1328 31-07-2008 18:35:43 33.8 C 8.91 g/m*3 33.8 C 0 km/h
1329 31-07-2008 19:05:43 33.3 C 9.04 g/m*3 33.3 C 0 km/h
1330 31-07-2008 19:35:43 32.9 C 9.56 g/m*3 32.9 C 0 km/h
1331 31-07-2008 20:05:43 32 C 10.47 g/m*3 32 C 0 km/h
1332 31-07-2008 20:35:43 29.7 C 12.23 g/m*3 29.7 C 0 km/h
1333 31-07-2008 21:05:43 27.9 C 12.17 g/m*3 27.9 C 0 km/h
1334 31-07-2008 21:35:43 26.8 C 12.22 g/m*3 26.8 C 0 km/h
1335 31-07-2008 22:05:43 26.1 C 11.75 g/m*3 26.1 C 0 km/h
1336 31-07-2008 22:35:43 25.6 C 11.67 g/m*3 25.6 C 0 km/h
1337 31-07-2008 23:05:43 25.2 C 11.87 g/m*3 25.2 C 0 km/h
1338 31-07-2008 23:35:43 24.9 C 11.9 g/m*3 24.9 C 0 km/h
1339 01-08-2008 00:05:43 24.6 C 11.93 g/m*3 24.6 C 0 km/h
1340 01-08-2008 00:35:44 24.5 C 12.53 g/m*3 24.5 C 0 km/h
1341 01-08-2008 01:05:44 24.8 C 12.29 g/m*3 24.8 C 0 km/h
1342 01-08-2008 01:35:44 24.6 C 12.38 g/m*3 24.6 C 0 km/h
1343 01-08-2008 02:05:44 24.1 C 12.69 g/m*3 24.1 C 0 km/h
1344 01-08-2008 02:35:44 23.8 C 13.34 g/m*3 23.8 C 0 km/h
1345 01-08-2008 03:05:44 23.7 C 13.48 g/m*3 23.7 C 0 km/h
1346 01-08-2008 03:35:44 23 C 13.57 g/m*3 23 C 0 km/h
1347 01-08-2008 04:05:44 22.8 C 13.61 g/m*3 22.8 C 0 km/h
1348 01-08-2008 04:35:44 22.6 C 13.66 g/m*3 22.6 C 0 km/h
1349 01-08-2008 05:05:44 22.5 C 13.98 g/m*3 22.5 C 0 km/h
1350 01-08-2008 05:35:44 22.1 C 14.05 g/m*3 22.1 C 0 km/h
Sensor: Nr:Datum:Temp:Abs-Feuchte:Windchill:Wind:
Aussen-T/F 1351 01-08-2008 06:05:44 22.2 C 13.94 g/m*3 22.2 C 0 km/h
1352 01-08-2008 06:35:44 22.4 C 13.9 g/m*3 22.4 C 0 km/h
1353 01-08-2008 07:05:44 22.7 C 13.54 g/m*3 22.7 C 0 km/h
1354 01-08-2008 07:35:44 23.4 C 13.67 g/m*3 23.4 C 0 km/h
1355 01-08-2008 08:05:44 23.4 C 13.46 g/m*3 23.4 C 0 km/h
1356 01-08-2008 08:35:44 23.7 C 13.69 g/m*3 23.7 C 0 km/h
1357 01-08-2008 09:05:44 23.8 C 12.48 g/m*3 23.8 C 0 km/h
1358 01-08-2008 09:35:44 24.5 C 12.76 g/m*3 24.5 C 0 km/h
1359 01-08-2008 10:05:45 24.9 C 12.36 g/m*3 24.9 C 0 km/h
1360 01-08-2008 10:35:45 26.3 C 11.64 g/m*3 26.3 C 0 km/h
1361 01-08-2008 11:05:45 27.3 C 11.51 g/m*3 27.3 C 0 km/h
1362 01-08-2008 11:35:45 27.7 C 10.7 g/m*3 27.7 C 0 km/h
1363 01-08-2008 12:05:45 27.7 C 9.9 g/m*3 27.7 C 0 km/h
1364 01-08-2008 12:35:45 28.2 C 8.8 g/m*3 28.2 C 0 km/h
1365 01-08-2008 13:05:45 28.2 C 8.52 g/m*3 28.2 C 0 km/h
1366 01-08-2008 13:35:45 26.5 C 9.26 g/m*3 26.5 C 0 km/h
1367 01-08-2008 14:05:45 26.3 C 9.41 g/m*3 26.3 C 0 km/h
1368 01-08-2008 14:35:45 26.1 C 9.55 g/m*3 26.1 C 0 km/h
1369 01-08-2008 15:05:45 28.2 C 8.8 g/m*3 28.2 C 0 km/h
1370 01-08-2008 15:35:45 29.5 C 8.85 g/m*3 29.5 C 0 km/h
1371 01-08-2008 16:05:45 28.2 C 8.8 g/m*3 28.2 C 0 km/h
1372 01-08-2008 16:35:45 29.3 C 8.47 g/m*3 29.3 C 0 km/h
1373 01-08-2008 17:05:45 28.4 C 8.34 g/m*3 28.4 C 0 km/h
1374 01-08-2008 17:35:45 26.8 C 8.14 g/m*3 26.8 C 0 km/h
1375 01-08-2008 18:05:45 26.3 C 7.92 g/m*3 26.3 C 0 km/h
Sensor: Nr:Datum:Temp:Abs-Feuchte:Windchill:Wind:
Aussen-T/F 1376 01-08-2008 18:35:45 26.4 C 7.97 g/m*3 26.4 C 0 km/h
1377 01-08-2008 19:05:45 26.9 C 7.68 g/m*3 26.9 C 0 km/h
1378 01-08-2008 19:35:46 27.2 C 7.03 g/m*3 27.2 C 0 km/h
1379 01-08-2008 20:05:46 25.6 C 6.43 g/m*3 25.6 C 0 km/h
1380 01-08-2008 20:35:46 24.4 C 6.45 g/m*3 24.4 C 0 km/h
1381 01-08-2008 21:05:46 23.7 C 7.06 g/m*3 23.7 C 0 km/h
1382 01-08-2008 21:35:46 23.1 C 7.44 g/m*3 23.1 C 0 km/h
1383 01-08-2008 22:05:46 22.4 C 7.55 g/m*3 22.4 C 0 km/h
1384 01-08-2008 22:35:46 22 C 7.96 g/m*3 22 C 0 km/h
1385 01-08-2008 23:05:46 21.6 C 8.16 g/m*3 21.6 C 0 km/h
1386 01-08-2008 23:35:46 20.6 C 8.59 g/m*3 20.6 C 0 km/h
1387 02-08-2008 00:05:46 19.6 C 8.61 g/m*3 19.6 C 0 km/h
1388 02-08-2008 00:35:46 19 C 8.8 g/m*3 19 C 0 km/h
1389 02-08-2008 01:05:46 18.4 C 9.12 g/m*3 18.4 C 0 km/h
1390 02-08-2008 01:35:46 18.1 C 9.27 g/m*3 18.1 C 0 km/h
1391 02-08-2008 02:05:46 17.2 C 9.52 g/m*3 17.2 C 0 km/h
1392 02-08-2008 02:35:46 16.9 C 9.78 g/m*3 16.9 C 0 km/h
1393 02-08-2008 03:05:46 16.6 C 9.75 g/m*3 16.6 C 0 km/h
1394 02-08-2008 03:35:46 16.6 C 9.75 g/m*3 16.6 C 0 km/h
1395 02-08-2008 04:05:46 16.3 C 9.85 g/m*3 16.3 C 0 km/h
1396 02-08-2008 04:35:46 16.6 C 9.89 g/m*3 16.6 C 0 km/h
1397 02-08-2008 05:05:47 16.1 C 9.73 g/m*3 16.1 C 0 km/h
1398 02-08-2008 05:35:47 15.7 C 9.9 g/m*3 15.7 C 0 km/h
1399 02-08-2008 06:05:47 15.5 C 10.05 g/m*3 15.5 C 0 km/h
1400 02-08-2008 06:35:47 16.1 C 10.28 g/m*3 16.1 C 0 km/h
Sensor: Nr:Datum:Temp:Abs-Feuchte:Windchill:Wind:
Aussen-T/F 1401 02-08-2008 07:05:47 16.6 C 10.45 g/m*3 16.6 C 0 km/h
1402 02-08-2008 07:35:47 17.2 C 10.4 g/m*3 17.2 C 0 km/h
1403 02-08-2008 08:05:47 18 C 10.29 g/m*3 18 C 0 km/h
1404 02-08-2008 08:35:47 18.5 C 10.13 g/m*3 18.5 C 0 km/h
1405 02-08-2008 09:05:47 20 C 9.85 g/m*3 20 C 0 km/h
1406 02-08-2008 09:35:47 20.4 C 10.26 g/m*3 20.4 C 0 km/h
1407 02-08-2008 10:05:47 21.2 C 10.38 g/m*3 21.2 C 0 km/h
1408 02-08-2008 10:35:47 22 C 8.93 g/m*3 22 C 0 km/h
1409 02-08-2008 11:05:47 22.9 C 8.58 g/m*3 22.9 C 0 km/h
1410 02-08-2008 11:35:47 23.6 C 8.08 g/m*3 23.6 C 0 km/h
1411 02-08-2008 12:05:47 24.4 C 7.79 g/m*3 24.4 C 0 km/h
1412 02-08-2008 12:35:47 25.6 C 7.38 g/m*3 25.6 C 0 km/h
1413 02-08-2008 13:05:47 26.9 C 6.91 g/m*3 26.9 C 0 km/h
1414 02-08-2008 13:35:47 27 C 6.95 g/m*3 27 C 0 km/h
1415 02-08-2008 14:05:47 26.9 C 6.65 g/m*3 26.9 C 0 km/h
1416 02-08-2008 14:35:48 26.5 C 7.01 g/m*3 26.5 C 0 km/h
1417 02-08-2008 15:05:48 27 C 6.95 g/m*3 27 C 0 km/h
1418 02-08-2008 15:35:48 27.3 C 6.8 g/m*3 27.3 C 0 km/h
1419 02-08-2008 16:05:48 26.9 C 6.91 g/m*3 26.9 C 0 km/h
1420 02-08-2008 16:35:48 23.3 C 9.62 g/m*3 23.3 C 0 km/h
1421 02-08-2008 17:05:48 24.6 C 8.55 g/m*3 24.6 C 0 km/h
1422 02-08-2008 17:35:02 24.9 C 8.24 g/m*3 24.9 C 0 km/h
1423 02-08-2008 18:05:02 24.7 C 8.15 g/m*3 24.7 C 0 km/h
1424 02-08-2008 18:35:02 24.1 C 8.53 g/m*3 24.1 C 0 km/h
1425 02-08-2008 19:05:04 24.7 C 8.83 g/m*3 24.7 C 0 km/h
Sensor: Nr:Datum:Temp:Abs-Feuchte:Windchill:Wind:
Aussen-T/F 1426 02-08-2008 19:35:02 24.1 C 8.1 g/m*3 24.1 C 0 km/h
1427 02-08-2008 20:05:02 23.7 C 8.34 g/m*3 23.7 C 0 km/h
1428 02-08-2008 20:35:01 22.8 C 8.94 g/m*3 22.8 C 0 km/h
1429 02-08-2008 21:05:03 22 C 8.93 g/m*3 22 C 0 km/h
1430 02-08-2008 21:35:03 21.8 C 9.4 g/m*3 21.8 C 0 km/h
1431 02-08-2008 22:05:04 21.5 C 9.62 g/m*3 21.5 C 0 km/h
1432 02-08-2008 22:35:03 21.2 C 10.01 g/m*3 21.2 C 0 km/h
1433 02-08-2008 23:05:02 20.7 C 10.26 g/m*3 20.7 C 0 km/h
1434 02-08-2008 23:35:02 20.6 C 10.74 g/m*3 20.6 C 0 km/h
1435 03-08-2008 00:05:03 20.4 C 11.14 g/m*3 20.4 C 0 km/h
1436 03-08-2008 00:35:03 19 C 12.06 g/m*3 19 C 0 km/h
1437 03-08-2008 01:05:02 19.2 C 12.2 g/m*3 19.2 C 0 km/h
1438 03-08-2008 01:35:03 19.6 C 11.99 g/m*3 19.6 C 0 km/h
1439 03-08-2008 02:05:02 18.4 C 13.05 g/m*3 18.4 C 0 km/h
1440 03-08-2008 02:35:03 18.4 C 13.68 g/m*3 18.4 C 0 km/h
1441 03-08-2008 03:06:03 18.2 C 13.68 g/m*3 18.2 C 0 km/h
1442 03-08-2008 03:36:02 18.2 C 13.68 g/m*3 18.2 C 0 km/h
1443 03-08-2008 04:06:02 17.7 C 12.98 g/m*3 17.7 C 0 km/h
1444 03-08-2008 04:36:02 17.6 C 13.05 g/m*3 17.6 C 0 km/h
1445 03-08-2008 05:06:01 17.3 C 12.96 g/m*3 17.3 C 0 km/h
1446 03-08-2008 05:36:01 17.5 C 13.27 g/m*3 17.5 C 0 km/h
1447 03-08-2008 06:06:03 17.5 C 13.27 g/m*3 17.5 C 0 km/h
1448 03-08-2008 06:36:03 17.5 C 13.27 g/m*3 17.5 C 0 km/h
1449 03-08-2008 07:06:02 17.7 C 12.82 g/m*3 17.7 C 0 km/h
1450 03-08-2008 07:36:02 17.8 C 11.99 g/m*3 17.8 C 0 km/h
Sensor: Nr:Datum:Temp:Abs-Feuchte:Windchill:Wind:
Aussen-T/F 1451 03-08-2008 08:06:02 17.9 C 10.84 g/m*3 17.9 C 0 km/h
1452 03-08-2008 08:36:02 18.3 C 10.79 g/m*3 18.3 C 0 km/h
1453 03-08-2008 09:06:02 19 C 10.1 g/m*3 19 C 0 km/h
1454 03-08-2008 09:36:02 19.5 C 10.41 g/m*3 19.5 C 0 km/h
1455 03-08-2008 10:06:02 20.1 C 9.91 g/m*3 20.1 C 0 km/h
1456 03-08-2008 10:36:02 21.1 C 9.95 g/m*3 21.1 C 0 km/h
1457 03-08-2008 11:06:01 22 C 9.7 g/m*3 22 C 0 km/h
1458 03-08-2008 11:36:01 23.6 C 9.57 g/m*3 23.6 C 0 km/h
1459 03-08-2008 12:00:01 22.6 C 9.24 g/m*3 22.6 C 0 km/h
1460 03-08-2008 12:12:02 22.6 C 9.04 g/m*3 22.6 C 0 km/h
1461 03-08-2008 12:24:01 22.5 C 8.99 g/m*3 22.5 C 0 km/h
1462 03-08-2008 12:36:02 23 C 8.84 g/m*3 23 C 0 km/h
1463 03-08-2008 12:48:02 23.1 C 9.1 g/m*3 23.1 C 0 km/h
1464 03-08-2008 13:00:02 23.4 C 9.04 g/m*3 23.4 C 0 km/h
1465 03-08-2008 13:12:01 23.3 C 9.62 g/m*3 23.3 C 0 km/h
1466 03-08-2008 13:24:02 23.2 C 9.15 g/m*3 23.2 C 0 km/h
1467 03-08-2008 13:36:02 24.6 C 9.23 g/m*3 24.6 C 0 km/h
1468 03-08-2008 13:48:02 26.7 C 8.86 g/m*3 26.7 C 0 km/h
1469 03-08-2008 14:00:02 26.5 C 9.01 g/m*3 26.5 C 0 km/h
1470 03-08-2008 14:12:02 26.7 C 8.86 g/m*3 26.7 C 0 km/h
1471 03-08-2008 14:24:01 26.2 C 9.11 g/m*3 26.2 C 0 km/h
1472 03-08-2008 14:36:02 27.2 C 9.11 g/m*3 27.2 C 0 km/h
1473 03-08-2008 14:48:02 27.1 C 8.8 g/m*3 27.1 C 0 km/h
1474 03-08-2008 15:00:03 27.4 C 8.95 g/m*3 27.4 C 0 km/h
1475 03-08-2008 15:12:02 27.6 C 8.78 g/m*3 27.6 C 0 km/h
Sensor: Nr:Datum:Temp:Abs-Feuchte:Windchill:Wind:
Aussen-T/F 1476 03-08-2008 15:24:03 26.9 C 8.7 g/m*3 26.9 C 0 km/h
1477 03-08-2008 15:36:03 27 C 9.01 g/m*3 27 C 0 km/h
1478 03-08-2008 15:48:02 27.3 C 9.16 g/m*3 27.3 C 0 km/h
1479 03-08-2008 16:00:02 27.7 C 9.36 g/m*3 27.7 C 0 km/h
1480 03-08-2008 16:12:02 27.9 C 9.2 g/m*3 27.9 C 0 km/h
1481 03-08-2008 16:24:02 28 C 8.97 g/m*3 28 C 0 km/h
1482 03-08-2008 16:36:01 27.2 C 9.11 g/m*3 27.2 C 0 km/h
1483 03-08-2008 16:48:02 27.2 C 9.11 g/m*3 27.2 C 0 km/h
1484 03-08-2008 17:00:02 28 C 8.97 g/m*3 28 C 0 km/h
1485 03-08-2008 17:12:03 28 C 8.7 g/m*3 28 C 0 km/h
1486 03-08-2008 17:48:02 28.4 C 8.62 g/m*3 28.4 C 0 km/h
1487 03-08-2008 18:00:02 28.4 C 8.9 g/m*3 28.4 C 0 km/h
1488 03-08-2008 18:12:03 28.8 C 8.81 g/m*3 28.8 C 0 km/h
1489 03-08-2008 18:24:03 27.5 C 8.73 g/m*3 27.5 C 0 km/h
1490 03-08-2008 18:36:02 27.2 C 8.85 g/m*3 27.2 C 0 km/h
1491 03-08-2008 18:48:02 27.3 C 9.16 g/m*3 27.3 C 0 km/h
1492 03-08-2008 19:00:02 27.1 C 9.06 g/m*3 27.1 C 0 km/h
1493 03-08-2008 19:12:02 27.3 C 9.16 g/m*3 27.3 C 0 km/h
1494 03-08-2008 19:24:02 26.6 C 9.31 g/m*3 26.6 C 0 km/h
1495 03-08-2008 19:36:02 26.1 C 9.3 g/m*3 26.1 C 0 km/h
1496 03-08-2008 19:48:02 25.8 C 9.63 g/m*3 25.8 C 0 km/h
1497 03-08-2008 20:00:03 25.7 C 9.58 g/m*3 25.7 C 0 km/h
1498 03-08-2008 20:12:02 25.3 C 9.83 g/m*3 25.3 C 0 km/h
1499 03-08-2008 20:24:02 25 C 9.67 g/m*3 25 C 0 km/h
1500 03-08-2008 20:36:02 24.8 C 10.02 g/m*3 24.8 C 0 km/h
Sensor: Nr:Datum:Temp:Abs-Feuchte:Windchill:Wind:
Aussen-T/F 1501 03-08-2008 20:48:02 24.7 C 10.19 g/m*3 24.7 C 0 km/h
1502 03-08-2008 21:00:02 24.5 C 10.3 g/m*3 24.5 C 0 km/h
1503 03-08-2008 21:12:02 24.3 C 10.4 g/m*3 24.3 C 0 km/h
1504 03-08-2008 21:24:02 24.1 C 10.94 g/m*3 24.1 C 0 km/h
1505 03-08-2008 21:36:03 23.6 C 11.27 g/m*3 23.6 C 0 km/h
1506 03-08-2008 21:48:02 22.6 C 12.46 g/m*3 22.6 C 0 km/h
1507 03-08-2008 22:00:02 22.7 C 12.32 g/m*3 22.7 C 0 km/h
1508 03-08-2008 22:12:03 22.9 C 12.06 g/m*3 22.9 C 0 km/h
1509 03-08-2008 22:24:02 22.7 C 11.92 g/m*3 22.7 C 0 km/h
1510 03-08-2008 22:37:04 22.6 C 11.85 g/m*3 22.6 C 0 km/h
1511 03-08-2008 22:49:04 22.5 C 11.98 g/m*3 22.5 C 0 km/h
1512 03-08-2008 23:01:05 22.2 C 11.98 g/m*3 22.2 C 0 km/h
1513 03-08-2008 23:13:05 22.1 C 11.91 g/m*3 22.1 C 0 km/h
1514 03-08-2008 23:25:05 22 C 12.23 g/m*3 22 C 0 km/h
1515 03-08-2008 23:37:05 21.8 C 12.28 g/m*3 21.8 C 0 km/h
1516 03-08-2008 23:49:05 21.9 C 12.35 g/m*3 21.9 C 0 km/h
1517 04-08-2008 00:01:05 21.8 C 12.28 g/m*3 21.8 C 0 km/h
1518 04-08-2008 00:13:05 21.8 C 12.28 g/m*3 21.8 C 0 km/h
1519 04-08-2008 00:25:05 21.6 C 12.33 g/m*3 21.6 C 0 km/h
1520 04-08-2008 00:37:05 21.3 C 12.3 g/m*3 21.3 C 0 km/h
1521 04-08-2008 00:49:05 21.3 C 12.3 g/m*3 21.3 C 0 km/h
1522 04-08-2008 01:01:05 21.6 C 12.14 g/m*3 21.6 C 0 km/h
1523 04-08-2008 01:13:05 21.8 C 11.9 g/m*3 21.8 C 0 km/h
1524 04-08-2008 01:25:05 22.1 C 11.91 g/m*3 22.1 C 0 km/h
1525 04-08-2008 01:37:05 22.6 C 11.85 g/m*3 22.6 C 0 km/h
Sensor: Nr:Datum:Temp:Abs-Feuchte:Windchill:Wind:
Aussen-T/F 1526 04-08-2008 01:49:05 22.9 C 11.65 g/m*3 22.9 C 0 km/h
1527 04-08-2008 02:01:05 23.1 C 11.37 g/m*3 23.1 C 0 km/h
1528 04-08-2008 02:13:05 23.3 C 11.29 g/m*3 23.3 C 0 km/h
1529 04-08-2008 02:25:05 23.4 C 11.14 g/m*3 23.4 C 0 km/h
1530 04-08-2008 02:37:05 23.5 C 11.21 g/m*3 23.5 C 0 km/h
1531 04-08-2008 02:49:06 23.4 C 11.14 g/m*3 23.4 C 0 km/h
1532 04-08-2008 03:01:06 23.3 C 11.29 g/m*3 23.3 C 0 km/h
1533 04-08-2008 03:13:06 23.2 C 11.23 g/m*3 23.2 C 0 km/h
1534 04-08-2008 03:25:06 23 C 11.3 g/m*3 23 C 0 km/h
1535 04-08-2008 03:37:06 22.9 C 11.44 g/m*3 22.9 C 0 km/h
1536 04-08-2008 03:49:06 21.5 C 12.63 g/m*3 21.5 C 0 km/h
1537 04-08-2008 04:01:06 19.8 C 13.84 g/m*3 19.8 C 0 km/h
1538 04-08-2008 04:13:06 19.5 C 14.1 g/m*3 19.5 C 0 km/h
1539 04-08-2008 04:25:06 19.4 C 14.18 g/m*3 19.4 C 0 km/h
1540 04-08-2008 04:37:06 19.1 C 13.93 g/m*3 19.1 C 0 km/h
1541 04-08-2008 04:49:06 19.2 C 13.36 g/m*3 19.2 C 0 km/h
1542 04-08-2008 05:01:06 18.9 C 13.28 g/m*3 18.9 C 0 km/h
1543 04-08-2008 05:13:06 18.8 C 13.53 g/m*3 18.8 C 0 km/h
1544 04-08-2008 05:25:06 18.4 C 13.21 g/m*3 18.4 C 0 km/h
1545 04-08-2008 05:37:06 17.9 C 12.83 g/m*3 17.9 C 0 km/h
1546 04-08-2008 05:49:06 17.7 C 12.82 g/m*3 17.7 C 0 km/h
1547 04-08-2008 06:01:06 17.6 C 12.9 g/m*3 17.6 C 0 km/h
1548 04-08-2008 06:13:06 17.5 C 12.97 g/m*3 17.5 C 0 km/h
1549 04-08-2008 06:25:06 17.2 C 12.89 g/m*3 17.2 C 0 km/h
1550 04-08-2008 06:37:06 16.9 C 12.8 g/m*3 16.9 C 0 km/h
Sensor: Nr:Datum:Temp:Abs-Feuchte:Windchill:Wind:
Aussen-T/F 1551 04-08-2008 06:49:06 16.8 C 12.72 g/m*3 16.8 C 0 km/h
1552 04-08-2008 07:01:07 16.6 C 12.71 g/m*3 16.6 C 0 km/h
1553 04-08-2008 07:13:07 16.3 C 12.49 g/m*3 16.3 C 0 km/h
1554 04-08-2008 07:25:07 16.4 C 12.56 g/m*3 16.4 C 0 km/h
1555 04-08-2008 07:37:07 16.5 C 12.64 g/m*3 16.5 C 0 km/h
1556 04-08-2008 07:49:07 16.5 C 12.64 g/m*3 16.5 C 0 km/h
1557 04-08-2008 08:01:07 17 C 12.73 g/m*3 17 C 0 km/h
1558 04-08-2008 08:13:07 17.2 C 12.59 g/m*3 17.2 C 0 km/h
1559 04-08-2008 08:25:07 17.4 C 12.6 g/m*3 17.4 C 0 km/h
1560 04-08-2008 08:37:07 17.9 C 12.98 g/m*3 17.9 C 0 km/h
1561 04-08-2008 08:49:07 18.1 C 12.98 g/m*3 18.1 C 0 km/h
1562 04-08-2008 09:01:07 18 C 12.75 g/m*3 18 C 0 km/h
1563 04-08-2008 09:13:07 17.9 C 12.67 g/m*3 17.9 C 0 km/h
1564 04-08-2008 09:25:04 18.1 C 12.36 g/m*3 18.1 C 0 km/h
1565 04-08-2008 09:37:04 18.6 C 12.73 g/m*3 18.6 C 0 km/h
1566 04-08-2008 09:49:02 19.1 C 12.62 g/m*3 19.1 C 0 km/h
1567 04-08-2008 10:01:02 19.1 C 11.8 g/m*3 19.1 C 0 km/h
1568 04-08-2008 10:13:02 19 C 11.41 g/m*3 19 C 0 km/h
1569 04-08-2008 10:25:01 19.4 C 11.85 g/m*3 19.4 C 0 km/h
1570 04-08-2008 10:37:02 19.9 C 11.34 g/m*3 19.9 C 0 km/h
1571 04-08-2008 10:49:02 20.4 C 10.08 g/m*3 20.4 C 0 km/h
1572 04-08-2008 11:01:03 20.7 C 9.9 g/m*3 20.7 C 0 km/h
1573 04-08-2008 11:13:03 20.8 C 9.42 g/m*3 20.8 C 0 km/h
1574 04-08-2008 11:25:02 21.4 C 9.19 g/m*3 21.4 C 0 km/h
1575 04-08-2008 11:37:02 21.8 C 9.4 g/m*3 21.8 C 0 km/h
Sensor: Nr:Datum:Temp:Abs-Feuchte:Windchill:Wind:
Aussen-T/F 1576 04-08-2008 11:49:02 22 C 8.73 g/m*3 22 C 0 km/h
1577 04-08-2008 12:01:02 22.6 C 8.84 g/m*3 22.6 C 0 km/h
1578 04-08-2008 12:13:02 22.9 C 8.38 g/m*3 22.9 C 0 km/h
1579 04-08-2008 12:25:02 23.7 C 7.91 g/m*3 23.7 C 0 km/h
1580 04-08-2008 12:37:02 23.1 C 7.65 g/m*3 23.1 C 0 km/h
1581 04-08-2008 12:49:02 23.4 C 7.57 g/m*3 23.4 C 0 km/h
1582 04-08-2008 13:01:02 24.4 C 7.12 g/m*3 24.4 C 0 km/h
1583 04-08-2008 13:13:02 24 C 6.74 g/m*3 24 C 0 km/h
1584 04-08-2008 13:25:02 24 C 6.53 g/m*3 24 C 0 km/h
1585 04-08-2008 13:37:02 24.5 C 6.94 g/m*3 24.5 C 0 km/h
1586 04-08-2008 13:49:03 24.8 C 6.37 g/m*3 24.8 C 0 km/h
1587 04-08-2008 14:01:03 25.7 C 6.46 g/m*3 25.7 C 0 km/h
1588 04-08-2008 14:13:03 25.4 C 7.06 g/m*3 25.4 C 0 km/h
1589 04-08-2008 14:25:03 24.8 C 7.97 g/m*3 24.8 C 0 km/h
1590 04-08-2008 14:37:02 24.4 C 8.23 g/m*3 24.4 C 0 km/h
1591 04-08-2008 14:49:02 25.3 C 7.26 g/m*3 25.3 C 0 km/h
1592 04-08-2008 15:01:01 25.2 C 6.52 g/m*3 25.2 C 0 km/h
1593 04-08-2008 15:13:01 24.7 C 6.34 g/m*3 24.7 C 0 km/h
1594 04-08-2008 15:25:02 25.1 C 6.48 g/m*3 25.1 C 0 km/h
1595 04-08-2008 15:37:01 25.9 C 6.29 g/m*3 25.9 C 0 km/h
1596 04-08-2008 15:49:02 27.1 C 5.69 g/m*3 27.1 C 0 km/h
1597 04-08-2008 16:01:02 26.2 C 5.66 g/m*3 26.2 C 0 km/h
1598 04-08-2008 16:13:02 26.9 C 5.63 g/m*3 26.9 C 0 km/h
1599 04-08-2008 16:25:02 26.8 C 5.6 g/m*3 26.8 C 0 km/h
1600 04-08-2008 16:37:02 25.8 C 5.3 g/m*3 25.8 C 0 km/h
Sensor: Nr:Datum:Temp:Abs-Feuchte:Windchill:Wind:
Aussen-T/F 1601 04-08-2008 16:49:03 26.3 C 6.19 g/m*3 26.3 C 0 km/h
1602 04-08-2008 17:01:02 27.2 C 5.99 g/m*3 27.2 C 0 km/h
1603 04-08-2008 17:13:02 26.3 C 6.19 g/m*3 26.3 C 0 km/h
1604 04-08-2008 17:25:03 26.7 C 5.57 g/m*3 26.7 C 0 km/h
1605 04-08-2008 17:37:02 26.2 C 5.42 g/m*3 26.2 C 0 km/h
1606 04-08-2008 17:49:02 26.3 C 5.2 g/m*3 26.3 C 0 km/h
1607 04-08-2008 18:01:02 26.5 C 5.51 g/m*3 26.5 C 0 km/h
1608 04-08-2008 18:13:02 26.6 C 5.54 g/m*3 26.6 C 0 km/h
1609 04-08-2008 18:25:02 25.9 C 5.57 g/m*3 25.9 C 0 km/h
1610 04-08-2008 18:37:02 26.1 C 5.63 g/m*3 26.1 C 0 km/h
1611 04-08-2008 18:49:01 25.7 C 5.99 g/m*3 25.7 C 0 km/h
1612 04-08-2008 19:01:02 26 C 5.6 g/m*3 26 C 0 km/h
1613 04-08-2008 19:13:02 25.9 C 6.29 g/m*3 25.9 C 0 km/h
1614 04-08-2008 19:25:01 26.1 C 6.12 g/m*3 26.1 C 0 km/h
1615 04-08-2008 19:37:02 26.1 C 5.88 g/m*3 26.1 C 0 km/h
1616 04-08-2008 19:49:02 25.4 C 5.89 g/m*3 25.4 C 0 km/h
1617 04-08-2008 20:01:02 24.5 C 5.82 g/m*3 24.5 C 0 km/h
1618 04-08-2008 20:13:02 23.9 C 6.06 g/m*3 23.9 C 0 km/h
1619 04-08-2008 20:25:02 23.4 C 6.1 g/m*3 23.4 C 0 km/h
1620 04-08-2008 20:37:02 23.1 C 6.41 g/m*3 23.1 C 0 km/h
1621 04-08-2008 20:49:02 22.5 C 6.99 g/m*3 22.5 C 0 km/h
1622 04-08-2008 21:01:01 21.8 C 6.91 g/m*3 21.8 C 0 km/h
1623 04-08-2008 21:13:01 21.5 C 7.17 g/m*3 21.5 C 0 km/h
1624 04-08-2008 21:25:02 21 C 7.14 g/m*3 21 C 0 km/h
1625 04-08-2008 21:37:01 20.6 C 7.16 g/m*3 20.6 C 0 km/h
Sensor: Nr:Datum:Temp:Abs-Feuchte:Windchill:Wind:
Aussen-T/F 1626 04-08-2008 21:49:03 20.4 C 7.25 g/m*3 20.4 C 0 km/h
1627 04-08-2008 22:01:02 20.3 C 7.39 g/m*3 20.3 C 0 km/h
1628 04-08-2008 22:13:02 19.9 C 7.56 g/m*3 19.9 C 0 km/h
1629 04-08-2008 22:25:03 19.5 C 7.55 g/m*3 19.5 C 0 km/h
1630 04-08-2008 22:38:13 19.3 C 7.8 g/m*3 19.3 C 0 km/h
1631 04-08-2008 22:50:13 19.2 C 7.75 g/m*3 19.2 C 0 km/h
1632 04-08-2008 23:02:13 19.2 C 7.91 g/m*3 19.2 C 0 km/h
1633 04-08-2008 23:14:13 19.3 C 7.8 g/m*3 19.3 C 0 km/h
1634 04-08-2008 23:26:13 19.1 C 8.03 g/m*3 19.1 C 0 km/h
1635 04-08-2008 23:38:13 18.9 C 8.1 g/m*3 18.9 C 0 km/h
1636 04-08-2008 23:50:13 18.5 C 8.23 g/m*3 18.5 C 0 km/h
1637 05-08-2008 00:02:13 18.4 C 8.18 g/m*3 18.4 C 0 km/h
1638 05-08-2008 00:14:14 18.2 C 8.24 g/m*3 18.2 C 0 km/h
1639 05-08-2008 00:26:14 18.1 C 8.34 g/m*3 18.1 C 0 km/h
1640 05-08-2008 00:38:14 17.7 C 8.75 g/m*3 17.7 C 0 km/h
1641 05-08-2008 00:50:14 17.4 C 8.6 g/m*3 17.4 C 0 km/h
1642 05-08-2008 01:02:14 17.2 C 8.64 g/m*3 17.2 C 0 km/h
1643 05-08-2008 01:14:14 16.8 C 8.86 g/m*3 16.8 C 0 km/h
1644 05-08-2008 01:26:14 16.6 C 8.76 g/m*3 16.6 C 0 km/h
1645 05-08-2008 01:38:14 16.4 C 8.93 g/m*3 16.4 C 0 km/h
1646 05-08-2008 01:50:14 16.2 C 8.96 g/m*3 16.2 C 0 km/h
1647 05-08-2008 02:02:14 16 C 8.99 g/m*3 16 C 0 km/h
1648 05-08-2008 02:14:14 15.8 C 9.02 g/m*3 15.8 C 0 km/h
1649 05-08-2008 02:26:14 15.6 C 8.91 g/m*3 15.6 C 0 km/h
1650 05-08-2008 02:38:14 15.5 C 9.12 g/m*3 15.5 C 0 km/h
Sensor: Nr:Datum:Temp:Abs-Feuchte:Windchill:Wind:
Aussen-T/F 1651 05-08-2008 02:50:14 15.4 C 8.8 g/m*3 15.4 C 0 km/h
1652 05-08-2008 03:02:14 15.2 C 8.44 g/m*3 15.2 C 0 km/h
1653 05-08-2008 03:14:14 15.3 C 8.62 g/m*3 15.3 C 0 km/h
1654 05-08-2008 03:26:14 15.1 C 8.39 g/m*3 15.1 C 0 km/h
1655 05-08-2008 03:38:14 15 C 8.59 g/m*3 15 C 0 km/h
1656 05-08-2008 03:50:14 14.8 C 8.74 g/m*3 14.8 C 0 km/h
1657 05-08-2008 04:02:14 14.7 C 8.56 g/m*3 14.7 C 0 km/h
1658 05-08-2008 04:14:14 14.7 C 8.18 g/m*3 14.7 C 0 km/h
1659 05-08-2008 04:26:15 14.5 C 8.58 g/m*3 14.5 C 0 km/h
1660 05-08-2008 04:38:15 14.2 C 8.55 g/m*3 14.2 C 0 km/h
1661 05-08-2008 04:50:15 14.2 C 8.43 g/m*3 14.2 C 0 km/h
1662 05-08-2008 05:02:15 14.1 C 8.25 g/m*3 14.1 C 0 km/h
1663 05-08-2008 05:14:15 14 C 8.32 g/m*3 14 C 0 km/h
1664 05-08-2008 05:26:15 13.9 C 8.63 g/m*3 13.9 C 0 km/h
1665 05-08-2008 05:38:15 13.7 C 8.64 g/m*3 13.7 C 0 km/h
1666 05-08-2008 05:50:15 13.5 C 8.54 g/m*3 13.5 C 0 km/h
1667 05-08-2008 06:02:15 13.5 C 8.54 g/m*3 13.5 C 0 km/h
1668 05-08-2008 06:14:15 13.4 C 8.6 g/m*3 13.4 C 0 km/h
1669 05-08-2008 06:26:15 13.4 C 8.6 g/m*3 13.4 C 0 km/h
1670 05-08-2008 06:38:15 13.4 C 8.6 g/m*3 13.4 C 0 km/h
1671 05-08-2008 06:50:15 13.5 C 8.66 g/m*3 13.5 C 0 km/h
1672 05-08-2008 07:02:15 13.6 C 8.71 g/m*3 13.6 C 0 km/h
1673 05-08-2008 07:14:15 13.7 C 8.76 g/m*3 13.7 C 0 km/h
1674 05-08-2008 07:26:15 13.9 C 8.75 g/m*3 13.9 C 0 km/h
1675 05-08-2008 07:38:15 14.2 C 8.67 g/m*3 14.2 C 0 km/h
Sensor: Nr:Datum:Temp:Abs-Feuchte:Windchill:Wind:
Aussen-T/F 1676 05-08-2008 07:50:15 14.4 C 8.53 g/m*3 14.4 C 0 km/h
1677 05-08-2008 08:02:15 14.6 C 8.63 g/m*3 14.6 C 0 km/h
1678 05-08-2008 08:14:15 14.8 C 8.61 g/m*3 14.8 C 0 km/h
1679 05-08-2008 08:26:15 15 C 8.46 g/m*3 15 C 0 km/h
1680 05-08-2008 08:38:03 15.4 C 8.54 g/m*3 15.4 C 0 km/h
1681 05-08-2008 08:50:03 15.6 C 8.38 g/m*3 15.6 C 0 km/h
1682 05-08-2008 09:02:03 15.7 C 8.56 g/m*3 15.7 C 0 km/h
1683 05-08-2008 09:14:03 16.1 C 8.5 g/m*3 16.1 C 0 km/h
1684 05-08-2008 09:26:02 16.4 C 8.51 g/m*3 16.4 C 0 km/h
1685 05-08-2008 09:38:02 16.8 C 8.58 g/m*3 16.8 C 0 km/h
1686 05-08-2008 09:50:02 17.2 C 8.49 g/m*3 17.2 C 0 km/h
1687 05-08-2008 10:02:03 17.9 C 8.7 g/m*3 17.9 C 0 km/h
1688 05-08-2008 10:14:03 18 C 8.45 g/m*3 18 C 0 km/h
1689 05-08-2008 10:26:02 18.4 C 8.49 g/m*3 18.4 C 0 km/h
1690 05-08-2008 10:38:03 19.1 C 8.52 g/m*3 19.1 C 0 km/h
1691 05-08-2008 10:50:03 19.8 C 8.37 g/m*3 19.8 C 0 km/h
1692 05-08-2008 11:02:02 20.1 C 8.17 g/m*3 20.1 C 0 km/h
1693 05-08-2008 11:14:03 20.5 C 8.19 g/m*3 20.5 C 0 km/h
1694 05-08-2008 11:26:02 21.1 C 8.29 g/m*3 21.1 C 0 km/h
1695 05-08-2008 11:38:03 22.7 C 7.88 g/m*3 22.7 C 0 km/h
1696 05-08-2008 11:50:02 22.2 C 8.05 g/m*3 22.2 C 0 km/h
1697 05-08-2008 12:02:02 22.7 C 8.28 g/m*3 22.7 C 0 km/h
1698 05-08-2008 12:14:02 23.8 C 7.96 g/m*3 23.8 C 0 km/h
1699 05-08-2008 12:26:02 24 C 7.83 g/m*3 24 C 0 km/h
1700 05-08-2008 12:38:02 24.5 C 7.83 g/m*3 24.5 C 0 km/h
Sensor: Nr:Datum:Temp:Abs-Feuchte:Windchill:Wind:
Aussen-T/F 1701 05-08-2008 12:50:01 24.3 C 7.52 g/m*3 24.3 C 0 km/h
1702 05-08-2008 13:02:03 24.8 C 7.28 g/m*3 24.8 C 0 km/h
1703 05-08-2008 13:14:03 24.6 C 7.2 g/m*3 24.6 C 0 km/h
1704 05-08-2008 13:26:02 24.4 C 7.34 g/m*3 24.4 C 0 km/h
1705 05-08-2008 13:38:02 25 C 7.37 g/m*3 25 C 0 km/h
1706 05-08-2008 13:50:01 25.2 C 7.45 g/m*3 25.2 C 0 km/h
1707 05-08-2008 14:02:02 25.9 C 7.51 g/m*3 25.9 C 0 km/h
1708 05-08-2008 14:14:02 26.5 C 7.01 g/m*3 26.5 C 0 km/h
1709 05-08-2008 14:26:02 26.9 C 6.65 g/m*3 26.9 C 0 km/h
1710 05-08-2008 14:38:02 26.8 C 6.87 g/m*3 26.8 C 0 km/h
1711 05-08-2008 14:50:01 27.5 C 6.61 g/m*3 27.5 C 0 km/h
1712 05-08-2008 15:02:02 26.9 C 6.65 g/m*3 26.9 C 0 km/h
1713 05-08-2008 15:14:02 26.7 C 6.58 g/m*3 26.7 C 0 km/h
1714 05-08-2008 15:26:02 26.2 C 7.14 g/m*3 26.2 C 0 km/h
1715 05-08-2008 15:38:01 25.8 C 7.22 g/m*3 25.8 C 0 km/h
1716 05-08-2008 15:50:01 26.3 C 7.18 g/m*3 26.3 C 0 km/h
1717 05-08-2008 16:02:02 26.6 C 7.05 g/m*3 26.6 C 0 km/h
1718 05-08-2008 16:14:02 26.6 C 7.3 g/m*3 26.6 C 0 km/h
1719 05-08-2008 16:26:01 27.6 C 7.18 g/m*3 27.6 C 0 km/h
1720 05-08-2008 16:38:02 28.5 C 6.99 g/m*3 28.5 C 0 km/h
1721 05-08-2008 16:50:02 28.6 C 7.03 g/m*3 28.6 C 0 km/h
1722 05-08-2008 17:02:02 29.1 C 6.35 g/m*3 29.1 C 0 km/h
1723 05-08-2008 17:14:02 29.6 C 6.53 g/m*3 29.6 C 0 km/h
1724 05-08-2008 17:26:02 27.9 C 6.76 g/m*3 27.9 C 0 km/h
1725 05-08-2008 17:38:02 27.2 C 6.77 g/m*3 27.2 C 0 km/h
Sensor: Nr:Datum:Temp:Abs-Feuchte:Windchill:Wind:
Aussen-T/F 1726 05-08-2008 17:50:02 28.3 C 6.91 g/m*3 28.3 C 0 km/h
1727 05-08-2008 18:02:02 28.8 C 6.53 g/m*3 28.8 C 0 km/h
1728 05-08-2008 18:14:02 27.1 C 6.47 g/m*3 27.1 C 0 km/h
1729 05-08-2008 18:26:02 26.7 C 7.59 g/m*3 26.7 C 0 km/h
1730 05-08-2008 18:38:02 26.6 C 8.05 g/m*3 26.6 C 0 km/h
1731 05-08-2008 18:50:02 26.2 C 7.88 g/m*3 26.2 C 0 km/h
1732 05-08-2008 19:02:01 25.8 C 7.7 g/m*3 25.8 C 0 km/h
1733 05-08-2008 19:14:01 25.9 C 7.99 g/m*3 25.9 C 0 km/h
1734 05-08-2008 19:26:02 25.6 C 8.09 g/m*3 25.6 C 0 km/h
1735 05-08-2008 19:38:01 25.1 C 8.33 g/m*3 25.1 C 0 km/h
1736 05-08-2008 19:50:01 24.7 C 8.37 g/m*3 24.7 C 0 km/h
1737 05-08-2008 20:02:02 24.7 C 8.37 g/m*3 24.7 C 0 km/h
1738 05-08-2008 20:14:02 24.1 C 8.1 g/m*3 24.1 C 0 km/h
1739 05-08-2008 20:26:02 23.5 C 8.25 g/m*3 23.5 C 0 km/h
1740 05-08-2008 20:38:01 22.9 C 8.58 g/m*3 22.9 C 0 km/h
1741 05-08-2008 20:50:02 22.4 C 8.34 g/m*3 22.4 C 0 km/h
1742 05-08-2008 21:02:03 21.9 C 8.68 g/m*3 21.9 C 0 km/h
1743 05-08-2008 21:14:03 21.5 C 8.67 g/m*3 21.5 C 0 km/h
1744 05-08-2008 21:26:03 21.2 C 8.52 g/m*3 21.2 C 0 km/h
1745 05-08-2008 21:38:02 21 C 8.43 g/m*3 21 C 0 km/h
1746 05-08-2008 21:50:03 20.9 C 9.11 g/m*3 20.9 C 0 km/h
1747 05-08-2008 22:02:02 21 C 8.98 g/m*3 21 C 0 km/h
1748 05-08-2008 22:14:02 20.8 C 9.05 g/m*3 20.8 C 0 km/h
1749 05-08-2008 22:26:03 20.6 C 9.13 g/m*3 20.6 C 0 km/h
1750 05-08-2008 22:39:03 20.3 C 9.15 g/m*3 20.3 C 0 km/h
Sensor: Nr:Datum:Temp:Abs-Feuchte:Windchill:Wind:
Aussen-T/F 1751 05-08-2008 22:51:03 20 C 8.81 g/m*3 20 C 0 km/h
1752 05-08-2008 23:03:03 19.9 C 8.93 g/m*3 19.9 C 0 km/h
1753 05-08-2008 23:15:03 19.5 C 8.89 g/m*3 19.5 C 0 km/h
1754 05-08-2008 23:27:03 19.3 C 8.79 g/m*3 19.3 C 0 km/h
1755 05-08-2008 23:39:03 19.2 C 9.07 g/m*3 19.2 C 0 km/h
1756 05-08-2008 23:51:03 18.9 C 9.23 g/m*3 18.9 C 0 km/h
1757 06-08-2008 00:03:04 18.9 C 9.23 g/m*3 18.9 C 0 km/h
1758 06-08-2008 00:15:04 18.7 C 9.13 g/m*3 18.7 C 0 km/h
1759 06-08-2008 00:27:04 18.7 C 9.29 g/m*3 18.7 C 0 km/h
1760 06-08-2008 00:39:04 18.6 C 9.39 g/m*3 18.6 C 0 km/h
1761 06-08-2008 00:51:04 18.4 C 9.28 g/m*3 18.4 C 0 km/h
1762 06-08-2008 01:03:04 18.3 C 9.22 g/m*3 18.3 C 0 km/h
1763 06-08-2008 01:15:04 18.1 C 9.43 g/m*3 18.1 C 0 km/h
1764 06-08-2008 01:27:04 17.9 C 9.47 g/m*3 17.9 C 0 km/h
1765 06-08-2008 01:39:04 17.9 C 9.62 g/m*3 17.9 C 0 km/h
1766 06-08-2008 01:51:04 17.7 C 9.66 g/m*3 17.7 C 0 km/h
1767 06-08-2008 02:03:04 17.6 C 9.6 g/m*3 17.6 C 0 km/h
1768 06-08-2008 02:15:04 17.5 C 9.54 g/m*3 17.5 C 0 km/h
1769 06-08-2008 02:27:04 17.4 C 9.48 g/m*3 17.4 C 0 km/h
1770 06-08-2008 02:39:04 17.5 C 9.69 g/m*3 17.5 C 0 km/h
1771 06-08-2008 02:51:04 17.6 C 9.6 g/m*3 17.6 C 0 km/h
1772 06-08-2008 03:03:04 17.4 C 9.63 g/m*3 17.4 C 0 km/h
1773 06-08-2008 03:15:04 17 C 9.41 g/m*3 17 C 0 km/h
1774 06-08-2008 03:27:04 16.8 C 9.72 g/m*3 16.8 C 0 km/h
1775 06-08-2008 03:39:04 16.7 C 9.81 g/m*3 16.7 C 0 km/h
Sensor: Nr:Datum:Temp:Abs-Feuchte:Windchill:Wind:
Aussen-T/F 1776 06-08-2008 03:51:05 16.6 C 9.75 g/m*3 16.6 C 0 km/h
1777 06-08-2008 04:03:05 16.6 C 9.75 g/m*3 16.6 C 0 km/h
1778 06-08-2008 04:15:05 16.6 C 9.75 g/m*3 16.6 C 0 km/h
1779 06-08-2008 04:27:05 16.4 C 9.77 g/m*3 16.4 C 0 km/h
1780 06-08-2008 04:39:05 16.2 C 9.79 g/m*3 16.2 C 0 km/h
1781 06-08-2008 04:51:05 16 C 9.81 g/m*3 16 C 0 km/h
1782 06-08-2008 05:03:05 15.9 C 9.89 g/m*3 15.9 C 0 km/h
1783 06-08-2008 05:15:05 15.7 C 9.77 g/m*3 15.7 C 0 km/h
1784 06-08-2008 05:27:05 15.6 C 9.84 g/m*3 15.6 C 0 km/h
1785 06-08-2008 05:39:05 15.4 C 9.72 g/m*3 15.4 C 0 km/h
1786 06-08-2008 05:51:05 15.3 C 9.79 g/m*3 15.3 C 0 km/h
1787 06-08-2008 06:03:05 15.2 C 9.73 g/m*3 15.2 C 0 km/h
1788 06-08-2008 06:15:05 15.2 C 9.99 g/m*3 15.2 C 0 km/h
1789 06-08-2008 06:27:05 15.1 C 9.93 g/m*3 15.1 C 0 km/h
1790 06-08-2008 06:39:05 14.9 C 9.94 g/m*3 14.9 C 0 km/h
1791 06-08-2008 06:51:02 14.9 C 9.94 g/m*3 14.9 C 0 km/h
1792 06-08-2008 07:03:01 15.2 C 10.12 g/m*3 15.2 C 0 km/h
1793 06-08-2008 07:15:02 15.3 C 10.19 g/m*3 15.3 C 0 km/h
1794 06-08-2008 07:27:02 15.5 C 10.31 g/m*3 15.5 C 0 km/h
1795 06-08-2008 07:39:01 15.6 C 10.24 g/m*3 15.6 C 0 km/h
1796 06-08-2008 07:51:02 15.8 C 10.36 g/m*3 15.8 C 0 km/h
1797 06-08-2008 08:03:01 15.9 C 10.29 g/m*3 15.9 C 0 km/h
1798 06-08-2008 08:15:02 16.2 C 10.34 g/m*3 16.2 C 0 km/h
1799 06-08-2008 08:27:02 16.4 C 10.33 g/m*3 16.4 C 0 km/h
1800 06-08-2008 08:39:01 16.6 C 10.45 g/m*3 16.6 C 0 km/h
Sensor: Nr:Datum:Temp:Abs-Feuchte:Windchill:Wind:
Aussen-T/F 1801 06-08-2008 08:51:01 16.9 C 10.36 g/m*3 16.9 C 0 km/h
1802 06-08-2008 09:03:01 17.3 C 10.16 g/m*3 17.3 C 0 km/h
1803 06-08-2008 09:15:02 17.8 C 10.47 g/m*3 17.8 C 0 km/h
1804 06-08-2008 09:27:02 18.3 C 10.32 g/m*3 18.3 C 0 km/h
1805 06-08-2008 09:39:01 18.9 C 10.69 g/m*3 18.9 C 0 km/h
1806 06-08-2008 09:51:01 19.3 C 10.62 g/m*3 19.3 C 0 km/h
1807 06-08-2008 10:03:01 20 C 10.54 g/m*3 20 C 0 km/h
1808 06-08-2008 10:15:01 20.9 C 10.56 g/m*3 20.9 C 0 km/h
1809 06-08-2008 10:27:01 21.7 C 10.11 g/m*3 21.7 C 0 km/h
1810 06-08-2008 10:39:01 22.2 C 10.01 g/m*3 22.2 C 0 km/h
1811 06-08-2008 10:51:01 23.2 C 9.98 g/m*3 23.2 C 0 km/h
1812 06-08-2008 11:03:02 23.7 C 10.27 g/m*3 23.7 C 0 km/h
1813 06-08-2008 11:15:01 24.3 C 9.52 g/m*3 24.3 C 0 km/h
1814 06-08-2008 11:27:01 25.1 C 9.26 g/m*3 25.1 C 0 km/h
1815 06-08-2008 11:39:02 25.8 C 9.39 g/m*3 25.8 C 0 km/h
1816 06-08-2008 11:51:02 26.1 C 9.06 g/m*3 26.1 C 0 km/h
1817 06-08-2008 12:03:02 26.9 C 9.47 g/m*3 26.9 C 0 km/h
1818 06-08-2008 12:15:01 27.1 C 8.8 g/m*3 27.1 C 0 km/h
1819 06-08-2008 12:27:01 27.6 C 9.04 g/m*3 27.6 C 0 km/h
1820 06-08-2008 12:39:02 28.1 C 8.75 g/m*3 28.1 C 0 km/h
1821 06-08-2008 12:51:02 27.8 C 8.61 g/m*3 27.8 C 0 km/h
1822 06-08-2008 13:03:02 28.9 C 8.86 g/m*3 28.9 C 0 km/h
1823 06-08-2008 13:15:02 30 C 8.19 g/m*3 30 C 0 km/h
1824 06-08-2008 13:27:02 30.6 C 8.14 g/m*3 30.6 C 0 km/h
1825 06-08-2008 13:39:02 30.6 C 7.83 g/m*3 30.6 C 0 km/h
Sensor: Nr:Datum:Temp:Abs-Feuchte:Windchill:Wind:
Aussen-T/F 1826 06-08-2008 13:51:02 30.9 C 7.96 g/m*3 30.9 C 0 km/h
1827 06-08-2008 14:03:01 31 C 8 g/m*3 31 C 0 km/h
1828 06-08-2008 14:15:02 31.1 C 8.04 g/m*3 31.1 C 0 km/h
1829 06-08-2008 14:27:02 30.7 C 8.5 g/m*3 30.7 C 0 km/h
1830 06-08-2008 14:39:02 31.3 C 7.81 g/m*3 31.3 C 0 km/h
1831 06-08-2008 14:51:02 31.5 C 7.56 g/m*3 31.5 C 0 km/h
1832 06-08-2008 15:03:02 32.1 C 7.47 g/m*3 32.1 C 0 km/h
1833 06-08-2008 15:15:02 32.3 C 6.86 g/m*3 32.3 C 0 km/h
1834 06-08-2008 15:27:03 32 C 7.09 g/m*3 32 C 0 km/h
1835 06-08-2008 15:39:02 32.5 C 6.93 g/m*3 32.5 C 0 km/h
1836 06-08-2008 15:51:02 32.7 C 7.01 g/m*3 32.7 C 0 km/h
1837 06-08-2008 16:03:02 33 C 7.12 g/m*3 33 C 0 km/h
1838 06-08-2008 16:15:02 33.2 C 7.2 g/m*3 33.2 C 0 km/h
1839 06-08-2008 16:27:02 33.5 C 7.31 g/m*3 33.5 C 0 km/h
1840 06-08-2008 16:39:02 33.6 C 7.35 g/m*3 33.6 C 0 km/h
1841 06-08-2008 16:51:02 33.7 C 7.39 g/m*3 33.7 C 0 km/h
1842 06-08-2008 17:03:02 33.9 C 7.46 g/m*3 33.9 C 0 km/h
1843 06-08-2008 17:15:02 33.9 C 7.46 g/m*3 33.9 C 0 km/h
1844 06-08-2008 17:27:02 33.6 C 7.35 g/m*3 33.6 C 0 km/h
1845 06-08-2008 17:39:02 33.7 C 7.39 g/m*3 33.7 C 0 km/h
1846 06-08-2008 17:51:02 33.8 C 7.43 g/m*3 33.8 C 0 km/h
1847 06-08-2008 18:03:02 34 C 7.5 g/m*3 34 C 0 km/h
1848 06-08-2008 18:15:02 34.2 C 7.58 g/m*3 34.2 C 0 km/h
1849 06-08-2008 18:27:02 33.9 C 7.46 g/m*3 33.9 C 0 km/h
1850 06-08-2008 18:39:02 34 C 7.5 g/m*3 34 C 0 km/h
Sensor: Nr:Datum:Temp:Abs-Feuchte:Windchill:Wind:
Aussen-T/F 1851 06-08-2008 18:51:02 33.9 C 7.46 g/m*3 33.9 C 0 km/h
1852 06-08-2008 19:03:01 33.9 C 7.46 g/m*3 33.9 C 0 km/h
1853 06-08-2008 19:15:02 33.3 C 7.23 g/m*3 33.3 C 0 km/h
1854 06-08-2008 19:27:02 33.3 C 7.59 g/m*3 33.3 C 0 km/h
1855 06-08-2008 19:39:02 32.7 C 7.36 g/m*3 32.7 C 0 km/h
1856 06-08-2008 19:51:02 31.6 C 8.59 g/m*3 31.6 C 0 km/h
1857 06-08-2008 20:03:02 30.6 C 9.4 g/m*3 30.6 C 0 km/h
1858 06-08-2008 20:15:02 30.1 C 9.45 g/m*3 30.1 C 0 km/h
1859 06-08-2008 20:27:03 29.5 C 9.44 g/m*3 29.5 C 0 km/h
1860 06-08-2008 20:39:02 28.9 C 9.43 g/m*3 28.9 C 0 km/h
1861 06-08-2008 20:51:02 28.4 C 9.45 g/m*3 28.4 C 0 km/h
1862 06-08-2008 21:03:02 27.8 C 9.15 g/m*3 27.8 C 0 km/h
1863 06-08-2008 21:15:03 27.3 C 9.16 g/m*3 27.3 C 0 km/h
1864 06-08-2008 21:27:03 27 C 9.01 g/m*3 27 C 0 km/h
1865 06-08-2008 21:39:02 26.7 C 9.11 g/m*3 26.7 C 0 km/h
1866 06-08-2008 21:51:01 26.6 C 9.31 g/m*3 26.6 C 0 km/h
1867 06-08-2008 22:03:01 26.6 C 9.06 g/m*3 26.6 C 0 km/h
1868 06-08-2008 22:15:01 26.4 C 9.21 g/m*3 26.4 C 0 km/h
1869 06-08-2008 22:27:01 26 C 9.49 g/m*3 26 C 0 km/h
1870 06-08-2008 22:40:02 25.8 C 9.39 g/m*3 25.8 C 0 km/h
1871 06-08-2008 22:52:02 25.6 C 9.28 g/m*3 25.6 C 0 km/h
1872 06-08-2008 23:04:02 25.1 C 9.26 g/m*3 25.1 C 0 km/h
1873 06-08-2008 23:16:02 24.8 C 9.79 g/m*3 24.8 C 0 km/h
1874 06-08-2008 23:28:02 24.5 C 10.07 g/m*3 24.5 C 0 km/h
1875 06-08-2008 23:40:02 24.1 C 9.85 g/m*3 24.1 C 0 km/h
Sensor: Nr:Datum:Temp:Abs-Feuchte:Windchill:Wind:
Aussen-T/F 1876 06-08-2008 23:52:02 24 C 10.01 g/m*3 24 C 0 km/h
1877 07-08-2008 00:04:02 23.7 C 9.84 g/m*3 23.7 C 0 km/h
1878 07-08-2008 00:16:02 23.6 C 10.21 g/m*3 23.6 C 0 km/h
1879 07-08-2008 00:28:02 23.3 C 10.25 g/m*3 23.3 C 0 km/h
1880 07-08-2008 00:40:02 23 C 10.28 g/m*3 23 C 0 km/h
1881 07-08-2008 00:52:02 22.7 C 10.51 g/m*3 22.7 C 0 km/h
1882 07-08-2008 01:04:02 22.5 C 10.59 g/m*3 22.5 C 0 km/h
1883 07-08-2008 01:16:02 22.3 C 10.66 g/m*3 22.3 C 0 km/h
1884 07-08-2008 01:28:02 22.1 C 10.74 g/m*3 22.1 C 0 km/h
1885 07-08-2008 01:40:02 21.9 C 11 g/m*3 21.9 C 0 km/h
1886 07-08-2008 01:52:03 21.7 C 11.06 g/m*3 21.7 C 0 km/h
1887 07-08-2008 02:04:03 21.4 C 11.06 g/m*3 21.4 C 0 km/h
1888 07-08-2008 02:16:03 21.3 C 11 g/m*3 21.3 C 0 km/h
1889 07-08-2008 02:28:03 21.1 C 11.06 g/m*3 21.1 C 0 km/h
1890 07-08-2008 02:40:03 20.9 C 11.29 g/m*3 20.9 C 0 km/h
1891 07-08-2008 02:52:03 20.7 C 11.34 g/m*3 20.7 C 0 km/h
1892 07-08-2008 03:04:03 20.6 C 11.28 g/m*3 20.6 C 0 km/h
1893 07-08-2008 03:16:03 20.4 C 11.14 g/m*3 20.4 C 0 km/h
1894 07-08-2008 03:28:03 20.3 C 11.26 g/m*3 20.3 C 0 km/h
1895 07-08-2008 03:40:03 20.3 C 11.26 g/m*3 20.3 C 0 km/h
1896 07-08-2008 03:52:03 20.2 C 11.19 g/m*3 20.2 C 0 km/h
1897 07-08-2008 04:04:03 19.9 C 11.34 g/m*3 19.9 C 0 km/h
1898 07-08-2008 04:16:03 19.7 C 11.38 g/m*3 19.7 C 0 km/h
1899 07-08-2008 04:28:03 19.6 C 11.31 g/m*3 19.6 C 0 km/h
1900 07-08-2008 04:40:03 19.4 C 11.35 g/m*3 19.4 C 0 km/h
Sensor: Nr:Datum:Temp:Abs-Feuchte:Windchill:Wind:
Aussen-T/F 1901 07-08-2008 04:52:03 19.3 C 11.44 g/m*3 19.3 C 0 km/h
1902 07-08-2008 05:04:03 19.3 C 11.44 g/m*3 19.3 C 0 km/h
1903 07-08-2008 05:16:03 19.1 C 11.47 g/m*3 19.1 C 0 km/h
1904 07-08-2008 05:28:03 18.8 C 11.6 g/m*3 18.8 C 0 km/h
1905 07-08-2008 05:40:03 18.8 C 11.6 g/m*3 18.8 C 0 km/h
1906 07-08-2008 05:52:04 18.6 C 11.62 g/m*3 18.6 C 0 km/h
1907 07-08-2008 06:04:04 18.6 C 11.62 g/m*3 18.6 C 0 km/h
1908 07-08-2008 06:16:04 18.5 C 11.71 g/m*3 18.5 C 0 km/h
1909 07-08-2008 06:28:04 18.4 C 11.64 g/m*3 18.4 C 0 km/h
1910 07-08-2008 06:40:04 18.3 C 11.57 g/m*3 18.3 C 0 km/h
1911 07-08-2008 06:52:04 18.5 C 11.87 g/m*3 18.5 C 0 km/h
1912 07-08-2008 07:04:03 18.7 C 12.01 g/m*3 18.7 C 0 km/h
1913 07-08-2008 07:16:02 18.8 C 11.92 g/m*3 18.8 C 0 km/h
1914 07-08-2008 07:28:02 18.6 C 11.94 g/m*3 18.6 C 0 km/h
1915 07-08-2008 07:40:02 18.8 C 12.08 g/m*3 18.8 C 0 km/h
1916 07-08-2008 07:52:02 19.1 C 11.97 g/m*3 19.1 C 0 km/h
1917 07-08-2008 08:04:02 19.2 C 12.04 g/m*3 19.2 C 0 km/h
1918 07-08-2008 08:16:02 19.6 C 12.15 g/m*3 19.6 C 0 km/h
1919 07-08-2008 08:28:02 19.9 C 12.2 g/m*3 19.9 C 0 km/h
1920 07-08-2008 08:40:02 20.3 C 12.14 g/m*3 20.3 C 0 km/h
1921 07-08-2008 08:52:02 20.9 C 12.38 g/m*3 20.9 C 0 km/h
1922 07-08-2008 09:04:02 21.6 C 12.52 g/m*3 21.6 C 0 km/h
1923 07-08-2008 09:16:02 22.5 C 12.58 g/m*3 22.5 C 0 km/h
1924 07-08-2008 09:28:02 23 C 12.33 g/m*3 23 C 0 km/h
1925 07-08-2008 09:40:02 23.7 C 12.62 g/m*3 23.7 C 0 km/h
Sensor: Nr:Datum:Temp:Abs-Feuchte:Windchill:Wind:
Aussen-T/F 1926 07-08-2008 09:52:03 24.2 C 12.54 g/m*3 24.2 C 0 km/h
1927 07-08-2008 10:04:02 24.7 C 12.22 g/m*3 24.7 C 0 km/h
1928 07-08-2008 10:16:02 25.3 C 11.47 g/m*3 25.3 C 0 km/h
1929 07-08-2008 10:28:02 26.2 C 11.32 g/m*3 26.2 C 0 km/h
1930 07-08-2008 10:40:02 26.8 C 11.45 g/m*3 26.8 C 0 km/h
1931 07-08-2008 10:52:02 27.2 C 11.19 g/m*3 27.2 C 0 km/h
1932 07-08-2008 11:04:02 27.4 C 11.31 g/m*3 27.4 C 0 km/h
1933 07-08-2008 11:16:02 28 C 11.42 g/m*3 28 C 0 km/h
1934 07-08-2008 11:28:02 28.3 C 11.06 g/m*3 28.3 C 0 km/h
1935 07-08-2008 11:40:02 28.3 C 11.33 g/m*3 28.3 C 0 km/h
1936 07-08-2008 11:52:02 28.7 C 10.74 g/m*3 28.7 C 0 km/h
1937 07-08-2008 12:04:02 29.1 C 10.69 g/m*3 29.1 C 0 km/h
1938 07-08-2008 12:16:02 29.1 C 10.69 g/m*3 29.1 C 0 km/h
1939 07-08-2008 12:28:02 28.7 C 10.74 g/m*3 28.7 C 0 km/h
1940 07-08-2008 12:40:02 29.3 C 10.51 g/m*3 29.3 C 0 km/h
1941 07-08-2008 12:52:02 29.9 C 10.56 g/m*3 29.9 C 0 km/h
1942 07-08-2008 13:04:02 30.4 C 10.54 g/m*3 30.4 C 0 km/h
1943 07-08-2008 13:16:02 30.6 C 10.02 g/m*3 30.6 C 0 km/h
1944 07-08-2008 13:28:02 30.4 C 10.23 g/m*3 30.4 C 0 km/h
1945 07-08-2008 13:40:02 29.6 C 10.09 g/m*3 29.6 C 0 km/h
1946 07-08-2008 13:52:01 29.8 C 10.5 g/m*3 29.8 C 0 km/h
1947 07-08-2008 14:04:02 29.4 C 10.57 g/m*3 29.4 C 0 km/h
1948 07-08-2008 14:16:01 29.8 C 10.5 g/m*3 29.8 C 0 km/h
1949 07-08-2008 14:28:01 28.8 C 10.51 g/m*3 28.8 C 0 km/h
1950 07-08-2008 14:40:02 28.1 C 10.39 g/m*3 28.1 C 0 km/h
Sensor: Nr:Datum:Temp:Abs-Feuchte:Windchill:Wind:
Aussen-T/F 1951 07-08-2008 14:52:02 28.4 C 10.56 g/m*3 28.4 C 0 km/h
1952 07-08-2008 15:04:02 28 C 10.33 g/m*3 28 C 0 km/h
1953 07-08-2008 15:16:02 28.2 C 10.72 g/m*3 28.2 C 0 km/h
1954 07-08-2008 15:28:02 28.5 C 10.34 g/m*3 28.5 C 0 km/h
1955 07-08-2008 15:40:02 29.2 C 9.87 g/m*3 29.2 C 0 km/h
1956 07-08-2008 15:52:01 29.1 C 9.24 g/m*3 29.1 C 0 km/h
1957 07-08-2008 16:04:02 29.3 C 9.63 g/m*3 29.3 C 0 km/h
1958 07-08-2008 16:16:01 28.7 C 9.89 g/m*3 28.7 C 0 km/h
1959 07-08-2008 16:28:01 29.3 C 9.63 g/m*3 29.3 C 0 km/h
1960 07-08-2008 16:40:02 29.4 C 9.39 g/m*3 29.4 C 0 km/h
1961 07-08-2008 16:52:02 30.4 C 9.3 g/m*3 30.4 C 0 km/h
1962 07-08-2008 17:04:01 30.7 C 9.13 g/m*3 30.7 C 0 km/h
1963 07-08-2008 17:16:02 30.1 C 8.84 g/m*3 30.1 C 0 km/h
1964 07-08-2008 17:28:02 29.4 C 8.81 g/m*3 29.4 C 0 km/h
1965 07-08-2008 17:40:01 29.4 C 8.81 g/m*3 29.4 C 0 km/h
1966 07-08-2008 17:52:02 28.7 C 8.48 g/m*3 28.7 C 0 km/h
1967 07-08-2008 18:04:01 30.1 C 8.54 g/m*3 30.1 C 0 km/h
1968 07-08-2008 18:16:02 29.9 C 8.14 g/m*3 29.9 C 0 km/h
1969 07-08-2008 18:28:03 28.8 C 8.52 g/m*3 28.8 C 0 km/h
1970 07-08-2008 18:40:01 28.6 C 8.71 g/m*3 28.6 C 0 km/h
1971 07-08-2008 18:52:02 28.5 C 8.66 g/m*3 28.5 C 0 km/h
1972 07-08-2008 19:04:01 28.3 C 8.57 g/m*3 28.3 C 0 km/h
1973 07-08-2008 19:16:02 27.7 C 8.56 g/m*3 27.7 C 0 km/h
1974 07-08-2008 19:28:02 27.1 C 8.54 g/m*3 27.1 C 0 km/h
1975 07-08-2008 19:40:01 26.9 C 8.96 g/m*3 26.9 C 0 km/h
Sensor: Nr:Datum:Temp:Abs-Feuchte:Windchill:Wind:
Aussen-T/F 1976 07-08-2008 19:52:02 26.6 C 9.06 g/m*3 26.6 C 0 km/h
1977 07-08-2008 20:04:02 26.7 C 9.11 g/m*3 26.7 C 0 km/h
1978 07-08-2008 20:16:02 27.2 C 8.85 g/m*3 27.2 C 0 km/h
1979 07-08-2008 20:28:02 26.1 C 8.81 g/m*3 26.1 C 0 km/h
1980 07-08-2008 20:40:02 25.4 C 8.71 g/m*3 25.4 C 0 km/h
1981 07-08-2008 20:52:02 24.8 C 8.42 g/m*3 24.8 C 0 km/h
1982 07-08-2008 21:04:02 24.6 C 8.33 g/m*3 24.6 C 0 km/h
1983 07-08-2008 21:16:02 24.3 C 8.41 g/m*3 24.3 C 0 km/h
1984 07-08-2008 21:28:02 24 C 8.49 g/m*3 24 C 0 km/h
1985 07-08-2008 21:40:02 23.7 C 8.77 g/m*3 23.7 C 0 km/h
1986 07-08-2008 21:52:02 23.4 C 8.83 g/m*3 23.4 C 0 km/h
1987 07-08-2008 22:04:02 23.3 C 8.78 g/m*3 23.3 C 0 km/h
1988 07-08-2008 22:17:02 23.3 C 8.57 g/m*3 23.3 C 0 km/h
1989 07-08-2008 22:29:02 23.1 C 8.27 g/m*3 23.1 C 0 km/h
1990 07-08-2008 22:41:02 23 C 8.43 g/m*3 23 C 0 km/h
1991 07-08-2008 22:53:02 20.4 C 10.79 g/m*3 20.4 C 0 km/h
1992 07-08-2008 23:05:02 19.2 C 12.7 g/m*3 19.2 C 0 km/h
1993 07-08-2008 23:17:02 18.5 C 12.82 g/m*3 18.5 C 0 km/h
1994 07-08-2008 23:29:01 17.9 C 12.67 g/m*3 17.9 C 0 km/h
1995 07-08-2008 23:41:01 17.8 C 12.9 g/m*3 17.8 C 0 km/h
1996 07-08-2008 23:53:02 17.9 C 12.98 g/m*3 17.9 C 0 km/h
1997 08-08-2008 00:05:02 18.2 C 13.06 g/m*3 18.2 C 0 km/h
1998 08-08-2008 00:17:02 18.2 C 12.9 g/m*3 18.2 C 0 km/h
1999 08-08-2008 00:29:02 17.9 C 12.67 g/m*3 17.9 C 0 km/h
2000 08-08-2008 00:41:02 17.8 C 12.6 g/m*3 17.8 C 0 km/h
Sensor: Nr:Datum:Temp:Abs-Feuchte:Windchill:Wind:
Aussen-T/F 2001 08-08-2008 00:53:03 17.7 C 12.52 g/m*3 17.7 C 0 km/h
2002 08-08-2008 01:05:03 17.6 C 12.45 g/m*3 17.6 C 0 km/h
2003 08-08-2008 01:17:03 17.6 C 12.45 g/m*3 17.6 C 0 km/h
2004 08-08-2008 01:41:03 17.7 C 12.37 g/m*3 17.7 C 0 km/h
2005 08-08-2008 01:53:03 17.7 C 12.37 g/m*3 17.7 C 0 km/h
2006 08-08-2008 02:05:03 17.7 C 12.22 g/m*3 17.7 C 0 km/h
2007 08-08-2008 02:29:03 17.8 C 12.45 g/m*3 17.8 C 0 km/h
2008 08-08-2008 02:41:04 17.7 C 12.37 g/m*3 17.7 C 0 km/h
2009 08-08-2008 02:53:04 17.7 C 12.37 g/m*3 17.7 C 0 km/h
2010 08-08-2008 03:05:34 17.6 C 12.3 g/m*3 17.6 C 0 km/h
2011 08-08-2008 03:17:34 17.7 C 12.37 g/m*3 17.7 C 0 km/h
2012 08-08-2008 03:29:34 17.7 C 12.37 g/m*3 17.7 C 0 km/h
2013 08-08-2008 03:41:04 17.7 C 12.37 g/m*3 17.7 C 0 km/h
2014 08-08-2008 03:53:05 17.8 C 12.29 g/m*3 17.8 C 0 km/h
2015 08-08-2008 04:05:05 18.1 C 12.05 g/m*3 18.1 C 0 km/h
2016 08-08-2008 04:17:35 18 C 11.83 g/m*3 18 C 0 km/h
2017 08-08-2008 04:29:35 17.9 C 11.76 g/m*3 17.9 C 0 km/h
2018 08-08-2008 04:41:02 17.9 C 11.6 g/m*3 17.9 C 0 km/h
2019 08-08-2008 04:53:02 17.7 C 11.47 g/m*3 17.7 C 0 km/h
2020 08-08-2008 05:05:02 17.7 C 11.47 g/m*3 17.7 C 0 km/h
2021 08-08-2008 05:17:02 17.7 C 11.47 g/m*3 17.7 C 0 km/h
2022 08-08-2008 05:29:01 17.6 C 11.55 g/m*3 17.6 C 0 km/h
2023 08-08-2008 05:41:01 17.7 C 11.47 g/m*3 17.7 C 0 km/h
2024 08-08-2008 05:53:02 17.7 C 11.32 g/m*3 17.7 C 0 km/h
2025 08-08-2008 06:05:02 17.6 C 11.25 g/m*3 17.6 C 0 km/h
Sensor: Nr:Datum:Temp:Abs-Feuchte:Windchill:Wind:
Aussen-T/F 2026 08-08-2008 06:17:02 17.7 C 11.16 g/m*3 17.7 C 0 km/h
2027 08-08-2008 06:29:02 17.8 C 11.23 g/m*3 17.8 C 0 km/h
2028 08-08-2008 06:41:02 17.7 C 11.47 g/m*3 17.7 C 0 km/h
2029 08-08-2008 06:53:33 17.1 C 11.65 g/m*3 17.1 C 0 km/h
2030 08-08-2008 07:05:33 17.2 C 11.72 g/m*3 17.2 C 0 km/h
2031 08-08-2008 07:17:33 17.7 C 11.62 g/m*3 17.7 C 0 km/h
2032 08-08-2008 07:29:33 18 C 11.21 g/m*3 18 C 0 km/h
2033 08-08-2008 07:41:33 17.7 C 11.16 g/m*3 17.7 C 0 km/h
2034 08-08-2008 07:53:33 16.6 C 11.72 g/m*3 16.6 C 0 km/h
2035 08-08-2008 08:17:34 16.3 C 11.93 g/m*3 16.3 C 0 km/h
2036 08-08-2008 08:29:34 16.6 C 12.29 g/m*3 16.6 C 0 km/h
2037 08-08-2008 08:41:34 16.9 C 12.37 g/m*3 16.9 C 0 km/h
2038 08-08-2008 09:05:34 17 C 11.72 g/m*3 17 C 0 km/h
2039 08-08-2008 09:17:34 17 C 11.87 g/m*3 17 C 0 km/h
2040 08-08-2008 09:29:34 16.8 C 11.87 g/m*3 16.8 C 0 km/h
2041 08-08-2008 09:41:03 17.2 C 12.15 g/m*3 17.2 C 0 km/h
2042 08-08-2008 09:53:03 17.5 C 12.08 g/m*3 17.5 C 0 km/h
2043 08-08-2008 10:05:03 17.7 C 11.92 g/m*3 17.7 C 0 km/h
2044 08-08-2008 10:17:02 17.7 C 11.62 g/m*3 17.7 C 0 km/h
2045 08-08-2008 10:29:02 17.8 C 11.84 g/m*3 17.8 C 0 km/h
2046 08-08-2008 10:41:02 18.2 C 11.81 g/m*3 18.2 C 0 km/h
2047 08-08-2008 10:53:02 18.5 C 11.55 g/m*3 18.5 C 0 km/h
2048 08-08-2008 11:05:02 18.8 C 11.76 g/m*3 18.8 C 0 km/h
2049 08-08-2008 11:17:03 19.4 C 11.85 g/m*3 19.4 C 0 km/h
2050 08-08-2008 11:29:03 20.3 C 11.78 g/m*3 20.3 C 0 km/h
Sensor: Nr:Datum:Temp:Abs-Feuchte:Windchill:Wind:
Aussen-T/F 2051 08-08-2008 11:41:02 20.9 C 11.47 g/m*3 20.9 C 0 km/h
2052 08-08-2008 11:53:02 21.9 C 11 g/m*3 21.9 C 0 km/h
2053 08-08-2008 12:05:02 21.7 C 10.68 g/m*3 21.7 C 0 km/h
2054 08-08-2008 12:17:03 21.4 C 10.87 g/m*3 21.4 C 0 km/h
2055 08-08-2008 12:29:03 21.7 C 11.06 g/m*3 21.7 C 0 km/h
2056 08-08-2008 12:41:02 16.9 C 10.64 g/m*3 16.9 C 0 km/h
2057 08-08-2008 12:53:02 16 C 11.44 g/m*3 16 C 0 km/h
2058 08-08-2008 13:05:02 17.8 C 13.2 g/m*3 17.8 C 0 km/h
2059 08-08-2008 13:17:02 19.2 C 13.85 g/m*3 19.2 C 0 km/h
2060 08-08-2008 13:29:02 20.9 C 13.11 g/m*3 20.9 C 0 km/h
2061 08-08-2008 13:41:02 21.8 C 12.28 g/m*3 21.8 C 0 km/h
2062 08-08-2008 13:53:01 20.8 C 13.04 g/m*3 20.8 C 0 km/h
2063 08-08-2008 14:05:02 20.4 C 13.27 g/m*3 20.4 C 0 km/h
2064 08-08-2008 14:17:02 20.3 C 14.07 g/m*3 20.3 C 0 km/h
2065 08-08-2008 14:29:02 21.1 C 13.82 g/m*3 21.1 C 0 km/h
2066 08-08-2008 14:41:02 22 C 13.78 g/m*3 22 C 0 km/h
2067 08-08-2008 14:53:02 22.7 C 12.73 g/m*3 22.7 C 0 km/h
2068 08-08-2008 15:05:02 21.7 C 12.02 g/m*3 21.7 C 0 km/h
2069 08-08-2008 15:17:02 19.2 C 11.71 g/m*3 19.2 C 0 km/h
2070 08-08-2008 15:29:03 20 C 12.96 g/m*3 20 C 0 km/h
2071 08-08-2008 15:41:03 21.9 C 11.77 g/m*3 21.9 C 0 km/h
2072 08-08-2008 15:53:03 22.1 C 11.52 g/m*3 22.1 C 0 km/h
2073 08-08-2008 16:05:03 21.1 C 9.58 g/m*3 21.1 C 0 km/h
2074 08-08-2008 16:17:02 21.1 C 9.95 g/m*3 21.1 C 0 km/h
2075 08-08-2008 16:29:02 22.7 C 9.7 g/m*3 22.7 C 0 km/h
Sensor: Nr:Datum:Temp:Abs-Feuchte:Windchill:Wind:
Aussen-T/F 2076 08-08-2008 16:41:02 22.1 C 9.17 g/m*3 22.1 C 0 km/h
2077 08-08-2008 16:53:01 21.6 C 9.48 g/m*3 21.6 C 0 km/h
2078 08-08-2008 17:05:01 21.8 C 9.21 g/m*3 21.8 C 0 km/h
2079 08-08-2008 17:17:01 21.8 C 9.4 g/m*3 21.8 C 0 km/h
2080 08-08-2008 17:29:01 21.4 C 9.19 g/m*3 21.4 C 0 km/h
2081 08-08-2008 17:41:01 19.7 C 9.85 g/m*3 19.7 C 0 km/h
2082 08-08-2008 17:53:02 18.7 C 11.05 g/m*3 18.7 C 0 km/h
2083 08-08-2008 18:05:02 18.9 C 11.66 g/m*3 18.9 C 0 km/h
2084 08-08-2008 18:17:02 19.5 C 11.24 g/m*3 19.5 C 0 km/h
2085 08-08-2008 18:29:02 19.5 C 10.74 g/m*3 19.5 C 0 km/h
2086 08-08-2008 18:41:02 19.4 C 10.51 g/m*3 19.4 C 0 km/h
2087 08-08-2008 18:53:28 19.3 C 10.28 g/m*3 19.3 C 0 km/h
2088 08-08-2008 19:05:02 19.4 C 10.34 g/m*3 19.4 C 0 km/h
2089 08-08-2008 19:17:03 19.4 C 10.34 g/m*3 19.4 C 0 km/h
2090 08-08-2008 19:29:03 19.3 C 10.28 g/m*3 19.3 C 0 km/h
2091 08-08-2008 19:41:03 19.3 C 10.12 g/m*3 19.3 C 0 km/h
2092 08-08-2008 19:53:02 19.3 C 10.12 g/m*3 19.3 C 0 km/h
2093 08-08-2008 20:05:03 19 C 10.27 g/m*3 19 C 0 km/h
2094 08-08-2008 20:17:02 17.8 C 11.08 g/m*3 17.8 C 0 km/h
2095 08-08-2008 20:29:02 17.5 C 11.18 g/m*3 17.5 C 0 km/h
2096 08-08-2008 20:41:03 16.8 C 11.58 g/m*3 16.8 C 0 km/h
2097 08-08-2008 20:53:02 16.5 C 11.8 g/m*3 16.5 C 0 km/h
2098 08-08-2008 21:05:02 16.4 C 12 g/m*3 16.4 C 0 km/h
2099 08-08-2008 21:17:02 16.3 C 12.07 g/m*3 16.3 C 0 km/h
2100 08-08-2008 21:29:01 16.3 C 12.21 g/m*3 16.3 C 0 km/h
Sensor: Nr:Datum:Temp:Abs-Feuchte:Windchill:Wind:
Aussen-T/F 2101 08-08-2008 21:41:01 16.5 C 12.22 g/m*3 16.5 C 0 km/h
2102 08-08-2008 21:54:01 16.6 C 12.15 g/m*3 16.6 C 0 km/h
2103 08-08-2008 22:06:01 16.7 C 12.08 g/m*3 16.7 C 0 km/h
2104 08-08-2008 22:18:01 16.7 C 11.94 g/m*3 16.7 C 0 km/h
2105 08-08-2008 22:30:01 16.8 C 11.87 g/m*3 16.8 C 0 km/h
2106 08-08-2008 22:42:01 16.4 C 11.58 g/m*3 16.4 C 0 km/h
2107 08-08-2008 22:54:01 16.1 C 11.93 g/m*3 16.1 C 0 km/h
2108 08-08-2008 23:06:01 16 C 11.99 g/m*3 16 C 0 km/h
2109 08-08-2008 23:18:01 16 C 12.13 g/m*3 16 C 0 km/h
2110 08-08-2008 23:30:02 16.1 C 12.34 g/m*3 16.1 C 0 km/h
2111 08-08-2008 23:42:02 16.2 C 12.41 g/m*3 16.2 C 0 km/h
2112 08-08-2008 23:54:02 16.1 C 12.2 g/m*3 16.1 C 0 km/h
2113 09-08-2008 00:06:02 16 C 11.99 g/m*3 16 C 0 km/h
2114 09-08-2008 00:18:02 16.1 C 12.06 g/m*3 16.1 C 0 km/h
2115 09-08-2008 00:30:02 16.2 C 12 g/m*3 16.2 C 0 km/h
2116 09-08-2008 00:42:02 16.2 C 11.86 g/m*3 16.2 C 0 km/h
2117 09-08-2008 00:54:02 16.1 C 11.65 g/m*3 16.1 C 0 km/h
2118 09-08-2008 01:06:02 15.9 C 11.51 g/m*3 15.9 C 0 km/h
2119 09-08-2008 01:18:02 15.7 C 11.37 g/m*3 15.7 C 0 km/h
2120 09-08-2008 01:30:02 15.4 C 11.3 g/m*3 15.4 C 0 km/h
2121 09-08-2008 01:42:02 15.1 C 11.09 g/m*3 15.1 C 0 km/h
2122 09-08-2008 01:54:02 14.9 C 11.22 g/m*3 14.9 C 0 km/h
2123 09-08-2008 02:06:02 14.9 C 11.22 g/m*3 14.9 C 0 km/h
2124 09-08-2008 02:18:02 14.7 C 11.08 g/m*3 14.7 C 0 km/h
2125 09-08-2008 02:30:02 14.5 C 10.94 g/m*3 14.5 C 0 km/h
Sensor: Nr:Datum:Temp:Abs-Feuchte:Windchill:Wind:
Aussen-T/F 2126 09-08-2008 02:42:02 14.5 C 10.94 g/m*3 14.5 C 0 km/h
2127 09-08-2008 02:54:02 14.4 C 10.88 g/m*3 14.4 C 0 km/h
2128 09-08-2008 03:06:02 14.4 C 10.88 g/m*3 14.4 C 0 km/h
2129 09-08-2008 03:18:03 14.5 C 10.7 g/m*3 14.5 C 0 km/h
2130 09-08-2008 03:30:03 14.5 C 10.32 g/m*3 14.5 C 0 km/h
2131 09-08-2008 03:42:03 14.4 C 10.26 g/m*3 14.4 C 0 km/h
2132 09-08-2008 03:54:03 14.4 C 10.26 g/m*3 14.4 C 0 km/h
2133 09-08-2008 04:06:03 14.5 C 10.45 g/m*3 14.5 C 0 km/h
2134 09-08-2008 04:18:03 14.5 C 10.45 g/m*3 14.5 C 0 km/h
2135 09-08-2008 04:30:03 14.5 C 10.57 g/m*3 14.5 C 0 km/h
2136 09-08-2008 04:42:03 14.6 C 10.64 g/m*3 14.6 C 0 km/h
2137 09-08-2008 04:54:03 14.6 C 10.64 g/m*3 14.6 C 0 km/h
2138 09-08-2008 05:06:03 14.7 C 10.58 g/m*3 14.7 C 0 km/h
2139 09-08-2008 05:18:03 14.6 C 10.51 g/m*3 14.6 C 0 km/h
2140 09-08-2008 05:30:03 14.6 C 10.51 g/m*3 14.6 C 0 km/h
2141 09-08-2008 05:42:03 14.6 C 10.39 g/m*3 14.6 C 0 km/h
2142 09-08-2008 05:54:03 14.7 C 10.2 g/m*3 14.7 C 0 km/h
2143 09-08-2008 06:06:03 14.7 C 10.07 g/m*3 14.7 C 0 km/h
2144 09-08-2008 06:18:03 14.9 C 9.81 g/m*3 14.9 C 0 km/h
2145 09-08-2008 06:30:03 14.9 C 9.69 g/m*3 14.9 C 0 km/h
2146 09-08-2008 06:42:03 14.9 C 9.69 g/m*3 14.9 C 0 km/h
2147 09-08-2008 06:54:03 15 C 9.87 g/m*3 15 C 0 km/h
2148 09-08-2008 07:06:03 15 C 9.75 g/m*3 15 C 0 km/h
2149 09-08-2008 07:18:04 14.9 C 9.43 g/m*3 14.9 C 0 km/h
2150 09-08-2008 07:30:04 14.8 C 9.37 g/m*3 14.8 C 0 km/h
Sensor: Nr:Datum:Temp:Abs-Feuchte:Windchill:Wind:
Aussen-T/F 2151 09-08-2008 07:42:04 15 C 9.36 g/m*3 15 C 0 km/h
2152 09-08-2008 07:54:04 15.1 C 9.29 g/m*3 15.1 C 0 km/h
2153 09-08-2008 08:06:02 14.7 C 9.19 g/m*3 14.7 C 0 km/h
2154 09-08-2008 08:18:02 14.7 C 9.44 g/m*3 14.7 C 0 km/h
2155 09-08-2008 08:30:02 15.1 C 9.42 g/m*3 15.1 C 0 km/h
2156 09-08-2008 08:42:01 15.7 C 9.1 g/m*3 15.7 C 0 km/h
2157 09-08-2008 08:54:02 16.2 C 9.38 g/m*3 16.2 C 0 km/h
2158 09-08-2008 09:06:02 16.3 C 9.02 g/m*3 16.3 C 0 km/h
2159 09-08-2008 09:18:02 16.3 C 9.43 g/m*3 16.3 C 0 km/h
2160 09-08-2008 09:30:02 16.8 C 9.72 g/m*3 16.8 C 0 km/h
2161 09-08-2008 09:42:02 17.1 C 9.17 g/m*3 17.1 C 0 km/h
2162 09-08-2008 09:54:02 16.6 C 9.04 g/m*3 16.6 C 0 km/h
2163 09-08-2008 10:06:02 17.6 C 8.85 g/m*3 17.6 C 0 km/h
2164 09-08-2008 10:18:01 17.9 C 8.09 g/m*3 17.9 C 0 km/h
2165 09-08-2008 10:30:01 18.1 C 7.73 g/m*3 18.1 C 0 km/h
2166 09-08-2008 10:42:02 18.5 C 7.91 g/m*3 18.5 C 0 km/h
2167 09-08-2008 10:54:02 18.6 C 6.84 g/m*3 18.6 C 0 km/h
2168 09-08-2008 11:06:02 19 C 7.66 g/m*3 19 C 0 km/h
2169 09-08-2008 11:18:02 20.2 C 6.64 g/m*3 20.2 C 0 km/h
2170 09-08-2008 11:30:02 19.9 C 7.22 g/m*3 19.9 C 0 km/h
2171 09-08-2008 11:42:02 20.4 C 6.72 g/m*3 20.4 C 0 km/h
2172 09-08-2008 11:54:02 20.7 C 6.48 g/m*3 20.7 C 0 km/h
2173 09-08-2008 12:06:01 20.9 C 6.19 g/m*3 20.9 C 0 km/h
2174 09-08-2008 12:18:02 21.9 C 6.18 g/m*3 21.9 C 0 km/h
2175 09-08-2008 12:30:02 22.5 C 6.19 g/m*3 22.5 C 0 km/h
Sensor: Nr:Datum:Temp:Abs-Feuchte:Windchill:Wind:
Aussen-T/F 2176 09-08-2008 12:42:01 21.5 C 6.03 g/m*3 21.5 C 0 km/h
2177 09-08-2008 12:54:02 22.3 C 5.73 g/m*3 22.3 C 0 km/h
2178 09-08-2008 13:06:01 22.4 C 5.56 g/m*3 22.4 C 0 km/h
2179 09-08-2008 13:18:02 23.1 C 5.37 g/m*3 23.1 C 0 km/h
2180 09-08-2008 13:30:02 23.5 C 5.29 g/m*3 23.5 C 0 km/h
2181 09-08-2008 13:42:01 23.5 C 5.5 g/m*3 23.5 C 0 km/h
2182 09-08-2008 13:54:03 22.9 C 5.11 g/m*3 22.9 C 0 km/h
2183 09-08-2008 14:06:02 23.2 C 5.61 g/m*3 23.2 C 0 km/h
2184 09-08-2008 14:18:03 23 C 5.34 g/m*3 23 C 0 km/h
2185 09-08-2008 14:30:03 23.2 C 5.2 g/m*3 23.2 C 0 km/h
2186 09-08-2008 14:42:02 24.4 C 5.56 g/m*3 24.4 C 0 km/h
2187 09-08-2008 14:54:02 25.2 C 5.12 g/m*3 25.2 C 0 km/h
2188 09-08-2008 15:06:03 24.3 C 5.53 g/m*3 24.3 C 0 km/h
2189 09-08-2008 15:18:03 24.9 C 5.72 g/m*3 24.9 C 0 km/h
2190 09-08-2008 15:30:03 25.6 C 5.48 g/m*3 25.6 C 0 km/h
2191 09-08-2008 15:42:03 26.1 C 5.63 g/m*3 26.1 C 0 km/h
2192 09-08-2008 15:54:02 26.1 C 5.39 g/m*3 26.1 C 0 km/h
2193 09-08-2008 16:06:03 25.9 C 5.33 g/m*3 25.9 C 0 km/h
2194 09-08-2008 16:18:02 25.9 C 6.05 g/m*3 25.9 C 0 km/h
2195 09-08-2008 16:30:02 25.4 C 5.65 g/m*3 25.4 C 0 km/h
2196 09-08-2008 16:42:03 24.8 C 5.92 g/m*3 24.8 C 0 km/h
2197 09-08-2008 16:54:03 24.8 C 5.92 g/m*3 24.8 C 0 km/h
2198 09-08-2008 17:06:02 26.3 C 5.94 g/m*3 26.3 C 0 km/h
2199 09-08-2008 17:18:02 26.4 C 5.48 g/m*3 26.4 C 0 km/h
2200 09-08-2008 17:30:02 25.4 C 5.89 g/m*3 25.4 C 0 km/h
Sensor: Nr:Datum:Temp:Abs-Feuchte:Windchill:Wind:
Aussen-T/F 2201 09-08-2008 17:42:02 24.9 C 5.95 g/m*3 24.9 C 0 km/h
2202 09-08-2008 17:54:01 26 C 6.09 g/m*3 26 C 0 km/h
2203 09-08-2008 18:06:02 26.2 C 6.15 g/m*3 26.2 C 0 km/h
2204 09-08-2008 18:18:01 25.2 C 6.05 g/m*3 25.2 C 0 km/h
2205 09-08-2008 18:30:01 25 C 6.22 g/m*3 25 C 0 km/h
2206 09-08-2008 18:42:02 25.9 C 6.29 g/m*3 25.9 C 0 km/h
2207 09-08-2008 18:54:01 25.8 C 6.74 g/m*3 25.8 C 0 km/h
2208 09-08-2008 19:06:02 25.3 C 6.79 g/m*3 25.3 C 0 km/h
2209 09-08-2008 19:18:02 24.9 C 7.1 g/m*3 24.9 C 0 km/h
2210 09-08-2008 19:30:02 23.9 C 7.14 g/m*3 23.9 C 0 km/h
2211 09-08-2008 19:42:01 23.8 C 7.1 g/m*3 23.8 C 0 km/h
2212 09-08-2008 19:54:01 23.3 C 7.32 g/m*3 23.3 C 0 km/h
2213 09-08-2008 20:06:02 22.9 C 7.56 g/m*3 22.9 C 0 km/h
2214 09-08-2008 20:18:01 22.3 C 7.7 g/m*3 22.3 C 0 km/h
2215 09-08-2008 20:30:01 21.6 C 7.78 g/m*3 21.6 C 0 km/h
2216 09-08-2008 20:42:02 21 C 7.69 g/m*3 21 C 0 km/h
2217 09-08-2008 20:54:02 20.7 C 8.1 g/m*3 20.7 C 0 km/h
2218 09-08-2008 21:06:02 20 C 7.95 g/m*3 20 C 0 km/h
2219 09-08-2008 21:18:02 19.9 C 8.25 g/m*3 19.9 C 0 km/h
2220 09-08-2008 21:30:02 19.8 C 8.2 g/m*3 19.8 C 0 km/h
2221 09-08-2008 21:42:02 19.6 C 8.27 g/m*3 19.6 C 0 km/h
2222 09-08-2008 21:54:02 19.5 C 8.39 g/m*3 19.5 C 0 km/h
2223 09-08-2008 22:06:01 19.3 C 8.63 g/m*3 19.3 C 0 km/h
2224 09-08-2008 22:18:02 19 C 8.8 g/m*3 19 C 0 km/h
2225 09-08-2008 22:30:02 19 C 8.8 g/m*3 19 C 0 km/h
Sensor: Nr:Datum:Temp:Abs-Feuchte:Windchill:Wind:
Aussen-T/F 2226 09-08-2008 22:42:01 18.9 C 9.23 g/m*3 18.9 C 0 km/h
2227 09-08-2008 22:54:02 18.9 C 9.23 g/m*3 18.9 C 0 km/h
2228 09-08-2008 23:06:01 18.8 C 9.34 g/m*3 18.8 C 0 km/h
2229 09-08-2008 23:18:02 18.7 C 9.13 g/m*3 18.7 C 0 km/h
2230 09-08-2008 23:30:02 18.4 C 9.28 g/m*3 18.4 C 0 km/h
2231 09-08-2008 23:43:02 18.2 C 9.33 g/m*3 18.2 C 0 km/h
2232 09-08-2008 23:55:02 18 C 9.37 g/m*3 18 C 0 km/h
2233 10-08-2008 00:07:02 17.8 C 9.56 g/m*3 17.8 C 0 km/h
2234 10-08-2008 00:19:02 17.7 C 9.51 g/m*3 17.7 C 0 km/h
2235 10-08-2008 00:31:02 17.7 C 9.51 g/m*3 17.7 C 0 km/h
2236 10-08-2008 00:43:02 17.9 C 9.77 g/m*3 17.9 C 0 km/h
2237 10-08-2008 00:55:02 17.9 C 9.77 g/m*3 17.9 C 0 km/h
2238 10-08-2008 01:07:02 18 C 9.68 g/m*3 18 C 0 km/h
2239 10-08-2008 01:19:02 18.1 C 9.73 g/m*3 18.1 C 0 km/h
2240 10-08-2008 01:31:02 17.9 C 9.77 g/m*3 17.9 C 0 km/h
2241 10-08-2008 01:43:02 17.9 C 9.92 g/m*3 17.9 C 0 km/h
2242 10-08-2008 01:55:02 18 C 9.83 g/m*3 18 C 0 km/h
2243 10-08-2008 02:07:02 17.9 C 10.08 g/m*3 17.9 C 0 km/h
2244 10-08-2008 02:19:02 17.7 C 10.11 g/m*3 17.7 C 0 km/h
2245 10-08-2008 02:31:02 18 C 10.14 g/m*3 18 C 0 km/h
2246 10-08-2008 02:43:02 18.1 C 9.73 g/m*3 18.1 C 0 km/h
2247 10-08-2008 02:55:02 18.3 C 9.85 g/m*3 18.3 C 0 km/h
2248 10-08-2008 03:07:02 18.3 C 9.69 g/m*3 18.3 C 0 km/h
2249 10-08-2008 03:19:03 18.2 C 9.79 g/m*3 18.2 C 0 km/h
2250 10-08-2008 03:31:03 18.2 C 9.79 g/m*3 18.2 C 0 km/h
Sensor: Nr:Datum:Temp:Abs-Feuchte:Windchill:Wind:
Aussen-T/F 2251 10-08-2008 03:43:03 18.2 C 9.64 g/m*3 18.2 C 0 km/h
2252 10-08-2008 03:55:03 17.7 C 10.11 g/m*3 17.7 C 0 km/h
2253 10-08-2008 04:07:03 17.6 C 10.2 g/m*3 17.6 C 0 km/h
2254 10-08-2008 04:19:03 18 C 9.68 g/m*3 18 C 0 km/h
2255 10-08-2008 04:31:03 17.9 C 9.77 g/m*3 17.9 C 0 km/h
2256 10-08-2008 04:43:03 18 C 9.68 g/m*3 18 C 0 km/h
2257 10-08-2008 04:55:03 18 C 9.68 g/m*3 18 C 0 km/h
2258 10-08-2008 05:07:03 18 C 9.68 g/m*3 18 C 0 km/h
2259 10-08-2008 05:19:03 17.9 C 9.47 g/m*3 17.9 C 0 km/h
2260 10-08-2008 05:31:03 17.9 C 9.47 g/m*3 17.9 C 0 km/h
2261 10-08-2008 05:43:03 17.9 C 9.47 g/m*3 17.9 C 0 km/h
2262 10-08-2008 05:55:03 18.2 C 9.33 g/m*3 18.2 C 0 km/h
2263 10-08-2008 06:07:03 18.2 C 9.33 g/m*3 18.2 C 0 km/h
2264 10-08-2008 06:19:03 18.2 C 9.17 g/m*3 18.2 C 0 km/h
2265 10-08-2008 06:31:03 18.1 C 9.27 g/m*3 18.1 C 0 km/h
2266 10-08-2008 06:43:03 17.5 C 9.99 g/m*3 17.5 C 0 km/h
2267 10-08-2008 06:55:03 17.7 C 10.26 g/m*3 17.7 C 0 km/h
2268 10-08-2008 07:07:04 17.9 C 10.08 g/m*3 17.9 C 0 km/h
2269 10-08-2008 07:19:04 18.1 C 9.89 g/m*3 18.1 C 0 km/h
2270 10-08-2008 07:31:04 18.1 C 9.89 g/m*3 18.1 C 0 km/h
2271 10-08-2008 07:43:04 18.4 C 9.75 g/m*3 18.4 C 0 km/h
2272 10-08-2008 07:55:04 18.8 C 9.66 g/m*3 18.8 C 0 km/h
2273 10-08-2008 08:07:04 19.2 C 9.07 g/m*3 19.2 C 0 km/h
2274 10-08-2008 08:19:04 19.4 C 9.01 g/m*3 19.4 C 0 km/h
2275 10-08-2008 08:31:04 19.5 C 9.06 g/m*3 19.5 C 0 km/h
Sensor: Nr:Datum:Temp:Abs-Feuchte:Windchill:Wind:
Aussen-T/F 2276 10-08-2008 08:43:04 19.7 C 9 g/m*3 19.7 C 0 km/h
2277 10-08-2008 08:55:04 19.9 C 8.93 g/m*3 19.9 C 0 km/h
2278 10-08-2008 09:07:02 19.9 C 9.11 g/m*3 19.9 C 0 km/h
2279 10-08-2008 09:19:02 20.2 C 9.09 g/m*3 20.2 C 0 km/h
2280 10-08-2008 09:31:02 20.2 C 8.92 g/m*3 20.2 C 0 km/h
2281 10-08-2008 09:43:02 20.3 C 8.97 g/m*3 20.3 C 0 km/h
2282 10-08-2008 09:55:02 20.1 C 9.04 g/m*3 20.1 C 0 km/h
2283 10-08-2008 10:07:02 20 C 9.16 g/m*3 20 C 0 km/h
2284 10-08-2008 10:19:02 19.9 C 9.79 g/m*3 19.9 C 0 km/h
2285 10-08-2008 10:31:02 19.5 C 9.9 g/m*3 19.5 C 0 km/h
2286 10-08-2008 10:43:02 19.6 C 10.13 g/m*3 19.6 C 0 km/h
2287 10-08-2008 10:55:02 20 C 10.02 g/m*3 20 C 0 km/h
2288 10-08-2008 11:07:02 20 C 9.68 g/m*3 20 C 0 km/h
2289 10-08-2008 11:19:02 19 C 10.27 g/m*3 19 C 0 km/h
2290 10-08-2008 11:31:02 18.8 C 10.79 g/m*3 18.8 C 0 km/h
2291 10-08-2008 11:43:02 18.5 C 10.44 g/m*3 18.5 C 0 km/h
2292 10-08-2008 11:58:02 19.3 C 10.12 g/m*3 19.3 C 0 km/h
2293 10-08-2008 12:10:01 19.6 C 9.96 g/m*3 19.6 C 0 km/h
2294 10-08-2008 12:22:02 20 C 9.68 g/m*3 20 C 0 km/h
2295 10-08-2008 12:34:01 20.7 C 9.9 g/m*3 20.7 C 0 km/h
2296 10-08-2008 12:46:02 20.9 C 9.29 g/m*3 20.9 C 0 km/h
2297 10-08-2008 12:58:02 21.2 C 9.27 g/m*3 21.2 C 0 km/h
2298 10-08-2008 13:10:02 21.5 C 8.86 g/m*3 21.5 C 0 km/h
2299 10-08-2008 13:22:02 21.1 C 9.03 g/m*3 21.1 C 0 km/h
2300 10-08-2008 13:34:02 21.5 C 9.05 g/m*3 21.5 C 0 km/h
Sensor: Nr:Datum:Temp:Abs-Feuchte:Windchill:Wind:
Aussen-T/F 2301 10-08-2008 13:46:02 22.3 C 8.49 g/m*3 22.3 C 0 km/h
2302 10-08-2008 13:58:02 22.8 C 8.33 g/m*3 22.8 C 0 km/h
2303 10-08-2008 14:10:02 22.6 C 8.24 g/m*3 22.6 C 0 km/h
2304 10-08-2008 14:22:02 22.4 C 8.14 g/m*3 22.4 C 0 km/h
2305 10-08-2008 14:34:02 21.6 C 8.91 g/m*3 21.6 C 0 km/h
2306 10-08-2008 14:46:02 20.7 C 9.54 g/m*3 20.7 C 0 km/h
2307 10-08-2008 14:58:02 21.5 C 10.18 g/m*3 21.5 C 0 km/h
2308 10-08-2008 15:10:01 22.6 C 9.24 g/m*3 22.6 C 0 km/h
2309 10-08-2008 15:22:02 22.7 C 9.5 g/m*3 22.7 C 0 km/h
2310 10-08-2008 15:34:01 22.6 C 9.84 g/m*3 22.6 C 0 km/h
2311 10-08-2008 15:46:02 22.2 C 8.83 g/m*3 22.2 C 0 km/h
2312 10-08-2008 15:58:02 22.6 C 8.24 g/m*3 22.6 C 0 km/h
2313 10-08-2008 16:10:02 23.2 C 8.11 g/m*3 23.2 C 0 km/h
2314 10-08-2008 16:22:02 24.5 C 8.06 g/m*3 24.5 C 0 km/h
2315 10-08-2008 16:34:02 24 C 7.61 g/m*3 24 C 0 km/h
2316 10-08-2008 16:46:02 23.8 C 7.74 g/m*3 23.8 C 0 km/h
2317 10-08-2008 16:58:02 24 C 7.4 g/m*3 24 C 0 km/h
2318 10-08-2008 17:10:02 23.8 C 7.74 g/m*3 23.8 C 0 km/h
2319 10-08-2008 17:22:02 23.9 C 7.79 g/m*3 23.9 C 0 km/h
2320 10-08-2008 17:34:01 24 C 7.4 g/m*3 24 C 0 km/h
2321 10-08-2008 17:46:02 23.8 C 7.53 g/m*3 23.8 C 0 km/h
2322 10-08-2008 17:58:02 23.7 C 7.91 g/m*3 23.7 C 0 km/h
2323 10-08-2008 18:10:02 23.5 C 7.61 g/m*3 23.5 C 0 km/h
2324 10-08-2008 18:22:01 23.7 C 7.91 g/m*3 23.7 C 0 km/h
2325 10-08-2008 18:34:03 23.9 C 7.79 g/m*3 23.9 C 0 km/h
Sensor: Nr:Datum:Temp:Abs-Feuchte:Windchill:Wind:
Aussen-T/F 2326 10-08-2008 18:46:03 23.6 C 7.87 g/m*3 23.6 C 0 km/h
2327 10-08-2008 18:58:03 23.3 C 8.36 g/m*3 23.3 C 0 km/h
2328 10-08-2008 19:10:02 23.3 C 8.36 g/m*3 23.3 C 0 km/h
2329 10-08-2008 19:22:03 22.9 C 8.58 g/m*3 22.9 C 0 km/h
2330 10-08-2008 19:34:02 22.5 C 8.39 g/m*3 22.5 C 0 km/h
2331 10-08-2008 19:46:02 22.2 C 8.44 g/m*3 22.2 C 0 km/h
2332 10-08-2008 19:58:02 21.9 C 9.07 g/m*3 21.9 C 0 km/h
2333 10-08-2008 20:10:02 21.7 C 8.97 g/m*3 21.7 C 0 km/h
2334 10-08-2008 20:22:02 21.3 C 9.13 g/m*3 21.3 C 0 km/h
2335 10-08-2008 20:34:02 21 C 8.98 g/m*3 21 C 0 km/h
2336 10-08-2008 20:46:02 21 C 9.16 g/m*3 21 C 0 km/h
2337 10-08-2008 20:58:02 20.8 C 9.42 g/m*3 20.8 C 0 km/h
2338 10-08-2008 21:10:03 20.6 C 9.31 g/m*3 20.6 C 0 km/h
2339 10-08-2008 21:22:02 20.6 C 9.31 g/m*3 20.6 C 0 km/h
2340 10-08-2008 21:34:03 20.4 C 9.55 g/m*3 20.4 C 0 km/h
2341 10-08-2008 21:46:02 20.2 C 9.44 g/m*3 20.2 C 0 km/h
2342 10-08-2008 21:58:03 20 C 9.51 g/m*3 20 C 0 km/h
2343 10-08-2008 22:10:01 19.6 C 9.79 g/m*3 19.6 C 0 km/h
2344 10-08-2008 22:23:02 19.4 C 9.84 g/m*3 19.4 C 0 km/h
2345 10-08-2008 22:35:02 19.1 C 9.84 g/m*3 19.1 C 0 km/h
2346 10-08-2008 22:47:02 19.1 C 10 g/m*3 19.1 C 0 km/h
2347 10-08-2008 22:59:02 19 C 9.78 g/m*3 19 C 0 km/h
2348 10-08-2008 23:11:02 18.8 C 9.82 g/m*3 18.8 C 0 km/h
2349 10-08-2008 23:23:02 18.7 C 9.77 g/m*3 18.7 C 0 km/h
2350 10-08-2008 23:35:03 18.5 C 9.65 g/m*3 18.5 C 0 km/h
Sensor: Nr:Datum:Temp:Abs-Feuchte:Windchill:Wind:
Aussen-T/F 2351 10-08-2008 23:47:03 18.4 C 9.44 g/m*3 18.4 C 0 km/h
2352 10-08-2008 23:59:03 18.3 C 9.07 g/m*3 18.3 C 0 km/h
2353 11-08-2008 00:11:03 18.1 C 9.12 g/m*3 18.1 C 0 km/h
2354 11-08-2008 00:23:03 18.1 C 9.27 g/m*3 18.1 C 0 km/h
2355 11-08-2008 00:35:03 18.1 C 9.27 g/m*3 18.1 C 0 km/h
2356 11-08-2008 00:47:03 18.1 C 9.27 g/m*3 18.1 C 0 km/h
2357 11-08-2008 00:59:03 18.2 C 9.33 g/m*3 18.2 C 0 km/h
2358 11-08-2008 01:11:03 18.4 C 9.28 g/m*3 18.4 C 0 km/h
2359 11-08-2008 01:23:03 18.6 C 9.39 g/m*3 18.6 C 0 km/h
2360 11-08-2008 01:35:03 18.7 C 9.45 g/m*3 18.7 C 0 km/h
2361 11-08-2008 01:47:03 18.5 C 9.65 g/m*3 18.5 C 0 km/h
2362 11-08-2008 01:59:03 18.3 C 9.69 g/m*3 18.3 C 0 km/h
2363 11-08-2008 02:11:03 18 C 9.68 g/m*3 18 C 0 km/h
2364 11-08-2008 02:23:03 17.6 C 9.9 g/m*3 17.6 C 0 km/h
2365 11-08-2008 02:35:03 17.3 C 10.02 g/m*3 17.3 C 0 km/h
2366 11-08-2008 02:47:03 17.4 C 10.23 g/m*3 17.4 C 0 km/h
2367 11-08-2008 02:59:03 17.5 C 10.44 g/m*3 17.5 C 0 km/h
2368 11-08-2008 03:11:03 17.5 C 10.59 g/m*3 17.5 C 0 km/h
2369 11-08-2008 03:23:03 17.5 C 10.59 g/m*3 17.5 C 0 km/h
2370 11-08-2008 03:35:04 17.7 C 10.56 g/m*3 17.7 C 0 km/h
2371 11-08-2008 03:47:04 17.7 C 10.56 g/m*3 17.7 C 0 km/h
2372 11-08-2008 03:59:04 17.5 C 10.44 g/m*3 17.5 C 0 km/h
2373 11-08-2008 04:11:04 17.4 C 10.37 g/m*3 17.4 C 0 km/h
2374 11-08-2008 04:23:04 17.1 C 10.19 g/m*3 17.1 C 0 km/h
2375 11-08-2008 04:35:04 16.8 C 10.15 g/m*3 16.8 C 0 km/h
Sensor: Nr:Datum:Temp:Abs-Feuchte:Windchill:Wind:
Aussen-T/F 2376 11-08-2008 04:47:04 16.6 C 10.03 g/m*3 16.6 C 0 km/h
2377 11-08-2008 04:59:04 16 C 9.67 g/m*3 16 C 0 km/h
2378 11-08-2008 05:11:04 15.7 C 9.63 g/m*3 15.7 C 0 km/h
2379 11-08-2008 05:23:04 15.6 C 9.71 g/m*3 15.6 C 0 km/h
2380 11-08-2008 05:35:04 15.9 C 9.62 g/m*3 15.9 C 0 km/h
2381 11-08-2008 05:47:04 15.8 C 9.69 g/m*3 15.8 C 0 km/h
2382 11-08-2008 05:59:04 15.4 C 9.59 g/m*3 15.4 C 0 km/h
2383 11-08-2008 06:11:02 15.1 C 9.68 g/m*3 15.1 C 0 km/h
2384 11-08-2008 06:23:02 14.8 C 9.88 g/m*3 14.8 C 0 km/h
2385 11-08-2008 06:35:02 15 C 10.13 g/m*3 15 C 0 km/h
2386 11-08-2008 06:47:02 15.2 C 10.12 g/m*3 15.2 C 0 km/h
2387 11-08-2008 06:59:02 15 C 10 g/m*3 15 C 0 km/h
2388 11-08-2008 07:11:02 14.9 C 10.2 g/m*3 14.9 C 0 km/h
2389 11-08-2008 07:23:02 14.9 C 10.2 g/m*3 14.9 C 0 km/h
2390 11-08-2008 07:35:02 15 C 10.26 g/m*3 15 C 0 km/h
2391 11-08-2008 07:47:02 15.4 C 10.51 g/m*3 15.4 C 0 km/h
2392 11-08-2008 07:59:02 15.6 C 10.37 g/m*3 15.6 C 0 km/h
2393 11-08-2008 08:11:01 15.5 C 10.31 g/m*3 15.5 C 0 km/h
2394 11-08-2008 08:23:02 15.9 C 10.56 g/m*3 15.9 C 0 km/h
2395 11-08-2008 08:35:01 16.3 C 10.41 g/m*3 16.3 C 0 km/h
2396 11-08-2008 08:47:02 16.7 C 10.37 g/m*3 16.7 C 0 km/h
2397 11-08-2008 08:59:02 17.5 C 10.14 g/m*3 17.5 C 0 km/h
2398 11-08-2008 09:11:01 18.2 C 10.41 g/m*3 18.2 C 0 km/h
2399 11-08-2008 09:23:02 19.1 C 10.16 g/m*3 19.1 C 0 km/h
2400 11-08-2008 09:35:02 19.6 C 10.13 g/m*3 19.6 C 0 km/h
Sensor: Nr:Datum:Temp:Abs-Feuchte:Windchill:Wind:
Aussen-T/F 2401 11-08-2008 09:47:02 20.2 C 9.97 g/m*3 20.2 C 0 km/h
2402 11-08-2008 09:59:03 20.8 C 9.78 g/m*3 20.8 C 0 km/h
2403 11-08-2008 10:11:02 20.9 C 9.47 g/m*3 20.9 C 0 km/h
2404 11-08-2008 10:23:02 21 C 9.53 g/m*3 21 C 0 km/h
2405 11-08-2008 10:35:01 21.3 C 9.51 g/m*3 21.3 C 0 km/h
2406 11-08-2008 10:47:02 21.6 C 8.72 g/m*3 21.6 C 0 km/h
2407 11-08-2008 10:59:02 21.9 C 8.1 g/m*3 21.9 C 0 km/h
2408 11-08-2008 11:11:01 22.4 C 8.14 g/m*3 22.4 C 0 km/h
2409 11-08-2008 11:23:02 22.5 C 7.99 g/m*3 22.5 C 0 km/h
2410 11-08-2008 11:35:01 22.1 C 8.2 g/m*3 22.1 C 0 km/h
2411 11-08-2008 11:47:01 22.6 C 8.84 g/m*3 22.6 C 0 km/h
2412 11-08-2008 11:59:01 22 C 8.73 g/m*3 22 C 0 km/h
2413 11-08-2008 12:11:02 22.7 C 8.49 g/m*3 22.7 C 0 km/h
2414 11-08-2008 12:23:01 23.4 C 8.41 g/m*3 23.4 C 0 km/h
2415 11-08-2008 12:35:02 23.7 C 7.91 g/m*3 23.7 C 0 km/h
2416 11-08-2008 12:47:02 24.2 C 7.26 g/m*3 24.2 C 0 km/h
2417 11-08-2008 12:59:02 24.1 C 7 g/m*3 24.1 C 0 km/h
2418 11-08-2008 13:11:03 25.2 C 7.22 g/m*3 25.2 C 0 km/h
2419 11-08-2008 13:23:02 25.9 C 6.78 g/m*3 25.9 C 0 km/h
2420 11-08-2008 13:35:02 26 C 6.33 g/m*3 26 C 0 km/h
2421 11-08-2008 13:47:02 25.8 C 6.5 g/m*3 25.8 C 0 km/h
2422 11-08-2008 13:59:02 26.4 C 6.22 g/m*3 26.4 C 0 km/h
2423 11-08-2008 14:11:02 26.2 C 5.91 g/m*3 26.2 C 0 km/h
2424 11-08-2008 14:23:02 26.5 C 6.26 g/m*3 26.5 C 0 km/h
2425 11-08-2008 14:35:02 27.1 C 6.47 g/m*3 27.1 C 0 km/h
Sensor: Nr:Datum:Temp:Abs-Feuchte:Windchill:Wind:
Aussen-T/F 2426 11-08-2008 14:47:01 27.2 C 6.25 g/m*3 27.2 C 0 km/h
2427 11-08-2008 14:59:01 27 C 5.66 g/m*3 27 C 0 km/h
2428 11-08-2008 15:11:02 27.8 C 6.72 g/m*3 27.8 C 0 km/h
2429 11-08-2008 15:23:01 27.4 C 5.26 g/m*3 27.4 C 0 km/h
2430 11-08-2008 15:35:02 26.7 C 5.32 g/m*3 26.7 C 0 km/h
2431 11-08-2008 15:47:02 26.7 C 5.82 g/m*3 26.7 C 0 km/h
2432 11-08-2008 15:59:02 26.8 C 5.85 g/m*3 26.8 C 0 km/h
2433 11-08-2008 16:11:01 26.8 C 5.85 g/m*3 26.8 C 0 km/h
2434 11-08-2008 16:23:02 26.2 C 5.91 g/m*3 26.2 C 0 km/h
2435 11-08-2008 16:35:02 26.2 C 6.15 g/m*3 26.2 C 0 km/h
2436 11-08-2008 16:47:02 25.7 C 6.46 g/m*3 25.7 C 0 km/h
2437 11-08-2008 16:59:02 25 C 6.22 g/m*3 25 C 0 km/h
2438 11-08-2008 17:11:01 25 C 6.22 g/m*3 25 C 0 km/h
2439 11-08-2008 17:23:02 24.5 C 6.49 g/m*3 24.5 C 0 km/h
2440 11-08-2008 17:35:01 24.3 C 6.86 g/m*3 24.3 C 0 km/h
2441 11-08-2008 17:47:02 23.9 C 6.71 g/m*3 23.9 C 0 km/h
2442 11-08-2008 17:59:03 23.9 C 6.49 g/m*3 23.9 C 0 km/h
2443 11-08-2008 18:11:02 23.9 C 6.92 g/m*3 23.9 C 0 km/h
2444 11-08-2008 18:23:02 22.9 C 7.97 g/m*3 22.9 C 0 km/h
2445 11-08-2008 18:35:02 23.3 C 7.95 g/m*3 23.3 C 0 km/h
2446 11-08-2008 18:47:02 23.2 C 8.11 g/m*3 23.2 C 0 km/h
2447 11-08-2008 18:59:02 22.6 C 8.64 g/m*3 22.6 C 0 km/h
2448 11-08-2008 19:11:02 22.7 C 8.28 g/m*3 22.7 C 0 km/h
2449 11-08-2008 19:23:02 22.9 C 8.79 g/m*3 22.9 C 0 km/h
2450 11-08-2008 19:35:01 22.9 C 8.79 g/m*3 22.9 C 0 km/h
Sensor: Nr:Datum:Temp:Abs-Feuchte:Windchill:Wind:
Aussen-T/F 2451 11-08-2008 19:47:02 22.5 C 9.19 g/m*3 22.5 C 0 km/h
2452 11-08-2008 19:59:02 22.1 C 8.98 g/m*3 22.1 C 0 km/h
2453 11-08-2008 20:11:02 21.9 C 9.46 g/m*3 21.9 C 0 km/h
2454 11-08-2008 20:23:01 21.5 C 9.43 g/m*3 21.5 C 0 km/h
2455 11-08-2008 20:35:02 21.2 C 9.45 g/m*3 21.2 C 0 km/h
2456 11-08-2008 20:47:02 21.1 C 9.4 g/m*3 21.1 C 0 km/h
2457 11-08-2008 20:59:02 20.6 C 9.84 g/m*3 20.6 C 0 km/h
2458 11-08-2008 21:11:02 20.1 C 9.91 g/m*3 20.1 C 0 km/h
2459 11-08-2008 21:23:02 19.9 C 10.31 g/m*3 19.9 C 0 km/h
2460 11-08-2008 21:35:02 19.7 C 10.19 g/m*3 19.7 C 0 km/h
2461 11-08-2008 21:47:02 19.9 C 10.14 g/m*3 19.9 C 0 km/h
2462 11-08-2008 21:59:02 20.1 C 10.08 g/m*3 20.1 C 0 km/h
2463 11-08-2008 22:11:03 19.8 C 10.25 g/m*3 19.8 C 0 km/h
2464 11-08-2008 22:24:33 19.9 C 10.65 g/m*3 19.9 C 0 km/h
2465 11-08-2008 22:36:33 20 C 10.71 g/m*3 20 C 0 km/h
2466 11-08-2008 22:48:33 20 C 10.89 g/m*3 20 C 0 km/h
2467 11-08-2008 23:00:33 19.8 C 10.93 g/m*3 19.8 C 0 km/h
2468 11-08-2008 23:12:33 19.9 C 11.17 g/m*3 19.9 C 0 km/h
2469 11-08-2008 23:24:34 19.7 C 11.04 g/m*3 19.7 C 0 km/h
2470 11-08-2008 23:36:34 19.5 C 11.24 g/m*3 19.5 C 0 km/h
2471 11-08-2008 23:48:34 19.1 C 11.64 g/m*3 19.1 C 0 km/h
2472 12-08-2008 00:00:34 18.6 C 11.78 g/m*3 18.6 C 0 km/h
2473 12-08-2008 00:12:34 18.3 C 11.88 g/m*3 18.3 C 0 km/h
2474 12-08-2008 00:24:34 18.2 C 12.12 g/m*3 18.2 C 0 km/h
2475 12-08-2008 00:36:34 17.9 C 12.37 g/m*3 17.9 C 0 km/h
Sensor: Nr:Datum:Temp:Abs-Feuchte:Windchill:Wind:
Aussen-T/F 2476 12-08-2008 00:48:34 17.7 C 12.52 g/m*3 17.7 C 0 km/h
2477 12-08-2008 01:00:34 17.3 C 12.37 g/m*3 17.3 C 0 km/h
2478 12-08-2008 01:12:34 17 C 12.3 g/m*3 17 C 0 km/h
2479 12-08-2008 01:24:34 17.2 C 12.59 g/m*3 17.2 C 0 km/h
2480 12-08-2008 01:36:34 17.5 C 12.82 g/m*3 17.5 C 0 km/h
2481 12-08-2008 01:48:34 17.2 C 12.59 g/m*3 17.2 C 0 km/h
2482 12-08-2008 02:00:34 17.1 C 12.66 g/m*3 17.1 C 0 km/h
2483 12-08-2008 02:12:34 17 C 12.59 g/m*3 17 C 0 km/h
2484 12-08-2008 02:24:34 16.8 C 12.58 g/m*3 16.8 C 0 km/h
2485 12-08-2008 02:36:34 16.8 C 12.72 g/m*3 16.8 C 0 km/h
2486 12-08-2008 02:48:34 16.6 C 12.57 g/m*3 16.6 C 0 km/h
2487 12-08-2008 03:00:34 16.7 C 12.65 g/m*3 16.7 C 0 km/h
2488 12-08-2008 03:12:34 16.8 C 12.72 g/m*3 16.8 C 0 km/h
2489 12-08-2008 03:24:34 16.9 C 12.8 g/m*3 16.9 C 0 km/h
2490 12-08-2008 03:36:35 16.8 C 12.58 g/m*3 16.8 C 0 km/h
2491 12-08-2008 03:48:35 16.4 C 12.28 g/m*3 16.4 C 0 km/h
2492 12-08-2008 04:00:35 16.2 C 12.14 g/m*3 16.2 C 0 km/h
2493 12-08-2008 04:12:35 16 C 11.85 g/m*3 16 C 0 km/h
2494 12-08-2008 04:24:35 15.8 C 11.85 g/m*3 15.8 C 0 km/h
2495 12-08-2008 04:36:35 16 C 11.99 g/m*3 16 C 0 km/h
2496 12-08-2008 04:48:35 15.8 C 11.98 g/m*3 15.8 C 0 km/h
2497 12-08-2008 05:00:35 16 C 11.99 g/m*3 16 C 0 km/h
2498 12-08-2008 05:12:35 16.3 C 12.21 g/m*3 16.3 C 0 km/h
2499 12-08-2008 05:24:35 16.2 C 12.14 g/m*3 16.2 C 0 km/h
2500 12-08-2008 05:36:35 16.2 C 12 g/m*3 16.2 C 0 km/h
Sensor: Nr:Datum:Temp:Abs-Feuchte:Windchill:Wind:
Aussen-T/F 2501 12-08-2008 05:48:35 16.2 C 12 g/m*3 16.2 C 0 km/h
2502 12-08-2008 06:00:35 16.1 C 11.93 g/m*3 16.1 C 0 km/h
2503 12-08-2008 06:12:35 16 C 11.85 g/m*3 16 C 0 km/h
2504 12-08-2008 06:24:35 16 C 11.85 g/m*3 16 C 0 km/h
2505 12-08-2008 06:36:35 16.1 C 12.06 g/m*3 16.1 C 0 km/h
2506 12-08-2008 06:48:35 16 C 11.85 g/m*3 16 C 0 km/h
2507 12-08-2008 07:00:35 16.1 C 12.06 g/m*3 16.1 C 0 km/h
2508 12-08-2008 07:12:04 16.1 C 12.06 g/m*3 16.1 C 0 km/h
2509 12-08-2008 07:24:03 16.1 C 12.06 g/m*3 16.1 C 0 km/h
2510 12-08-2008 07:36:03 16.2 C 12.14 g/m*3 16.2 C 0 km/h
2511 12-08-2008 07:48:02 16.2 C 12.27 g/m*3 16.2 C 0 km/h
2512 12-08-2008 08:00:02 16.2 C 12.27 g/m*3 16.2 C 0 km/h
2513 12-08-2008 08:12:02 16.6 C 12.71 g/m*3 16.6 C 0 km/h
2514 12-08-2008 08:24:02 16.8 C 12.87 g/m*3 16.8 C 0 km/h
2515 12-08-2008 08:36:02 16.8 C 12.72 g/m*3 16.8 C 0 km/h
2516 12-08-2008 08:48:02 16.9 C 12.8 g/m*3 16.9 C 0 km/h
2517 12-08-2008 09:00:02 16.6 C 12.57 g/m*3 16.6 C 0 km/h
2518 12-08-2008 09:12:02 16.6 C 12.71 g/m*3 16.6 C 0 km/h
2519 12-08-2008 09:24:02 16.9 C 12.94 g/m*3 16.9 C 0 km/h
2520 12-08-2008 09:36:03 17 C 12.88 g/m*3 17 C 0 km/h
2521 12-08-2008 09:48:02 17.2 C 13.03 g/m*3 17.2 C 0 km/h
2522 12-08-2008 10:00:02 17.2 C 13.03 g/m*3 17.2 C 0 km/h
2523 12-08-2008 10:12:02 17.3 C 12.96 g/m*3 17.3 C 0 km/h
2524 12-08-2008 10:24:02 17.4 C 13.04 g/m*3 17.4 C 0 km/h
2525 12-08-2008 10:36:02 17.6 C 13.2 g/m*3 17.6 C 0 km/h
Sensor: Nr:Datum:Temp:Abs-Feuchte:Windchill:Wind:
Aussen-T/F 2526 12-08-2008 10:48:02 17.6 C 13.35 g/m*3 17.6 C 0 km/h
2527 12-08-2008 11:00:02 17.9 C 13.59 g/m*3 17.9 C 0 km/h
2528 12-08-2008 11:12:02 18 C 13.52 g/m*3 18 C 0 km/h
2529 12-08-2008 11:24:02 18.2 C 13.68 g/m*3 18.2 C 0 km/h
2530 12-08-2008 11:36:02 18.4 C 13.84 g/m*3 18.4 C 0 km/h
2531 12-08-2008 11:48:02 18.9 C 14.26 g/m*3 18.9 C 0 km/h
2532 12-08-2008 12:00:02 19.5 C 14.27 g/m*3 19.5 C 0 km/h
2533 12-08-2008 12:12:01 19.7 C 14.09 g/m*3 19.7 C 0 km/h
2534 12-08-2008 12:24:02 20.5 C 14.41 g/m*3 20.5 C 0 km/h
2535 12-08-2008 12:36:01 21.1 C 14.19 g/m*3 21.1 C 0 km/h
2536 12-08-2008 12:48:01 21.9 C 14.09 g/m*3 21.9 C 0 km/h
2537 12-08-2008 13:00:01 22.4 C 13.7 g/m*3 22.4 C 0 km/h
2538 12-08-2008 13:12:02 22.1 C 13.27 g/m*3 22.1 C 0 km/h
2539 12-08-2008 13:24:01 22.4 C 13.31 g/m*3 22.4 C 0 km/h
2540 12-08-2008 13:36:02 21.8 C 13.24 g/m*3 21.8 C 0 km/h
2541 12-08-2008 13:48:02 21.3 C 13.42 g/m*3 21.3 C 0 km/h
2542 12-08-2008 14:00:02 20.7 C 13.68 g/m*3 20.7 C 0 km/h
2543 12-08-2008 14:12:02 21.2 C 13.9 g/m*3 21.2 C 0 km/h
2544 12-08-2008 14:24:02 22.2 C 13.55 g/m*3 22.2 C 0 km/h
2545 12-08-2008 14:36:02 23.4 C 13.46 g/m*3 23.4 C 0 km/h
2546 12-08-2008 14:48:02 23.5 C 13.11 g/m*3 23.5 C 0 km/h
2547 12-08-2008 15:00:02 22.8 C 12.4 g/m*3 22.8 C 0 km/h
2548 12-08-2008 15:12:02 22.9 C 12.47 g/m*3 22.9 C 0 km/h
2549 12-08-2008 15:24:02 22.2 C 12.17 g/m*3 22.2 C 0 km/h
2550 12-08-2008 15:36:03 21.4 C 12.75 g/m*3 21.4 C 0 km/h
Sensor: Nr:Datum:Temp:Abs-Feuchte:Windchill:Wind:
Aussen-T/F 2551 12-08-2008 15:48:02 20.6 C 13.07 g/m*3 20.6 C 0 km/h
2552 12-08-2008 16:00:02 19.7 C 13.92 g/m*3 19.7 C 0 km/h
2553 12-08-2008 16:12:03 19.9 C 14.43 g/m*3 19.9 C 0 km/h
2554 12-08-2008 16:24:02 20.9 C 14.93 g/m*3 20.9 C 0 km/h
2555 12-08-2008 16:36:03 21.5 C 14.9 g/m*3 21.5 C 0 km/h
2556 12-08-2008 16:48:02 21.2 C 12.97 g/m*3 21.2 C 0 km/h
2557 12-08-2008 17:00:02 21.6 C 12.52 g/m*3 21.6 C 0 km/h
2558 12-08-2008 17:12:02 21.5 C 12.45 g/m*3 21.5 C 0 km/h
2559 12-08-2008 17:24:02 21.5 C 12.07 g/m*3 21.5 C 0 km/h
2560 12-08-2008 17:36:02 21.3 C 12.86 g/m*3 21.3 C 0 km/h
2561 12-08-2008 17:48:02 21.4 C 12.37 g/m*3 21.4 C 0 km/h
2562 12-08-2008 18:00:02 21.4 C 12 g/m*3 21.4 C 0 km/h
2563 12-08-2008 18:12:02 21.3 C 11.93 g/m*3 21.3 C 0 km/h
2564 12-08-2008 18:24:02 21.5 C 12.26 g/m*3 21.5 C 0 km/h
2565 12-08-2008 18:36:03 21.9 C 12.16 g/m*3 21.9 C 0 km/h
2566 12-08-2008 18:48:02 21.8 C 11.32 g/m*3 21.8 C 0 km/h
2567 12-08-2008 19:00:02 21.9 C 11.39 g/m*3 21.9 C 0 km/h
2568 12-08-2008 19:12:02 22.3 C 11.65 g/m*3 22.3 C 0 km/h
2569 12-08-2008 19:24:02 22.6 C 11.05 g/m*3 22.6 C 0 km/h
2570 12-08-2008 19:36:02 22.5 C 10.79 g/m*3 22.5 C 0 km/h
2571 12-08-2008 19:48:02 22.6 C 10.65 g/m*3 22.6 C 0 km/h
2572 12-08-2008 20:00:02 22.5 C 10.39 g/m*3 22.5 C 0 km/h
2573 12-08-2008 20:12:01 22.8 C 10.36 g/m*3 22.8 C 0 km/h
2574 12-08-2008 20:24:02 22.5 C 10.39 g/m*3 22.5 C 0 km/h
2575 12-08-2008 20:36:01 21.8 C 10.55 g/m*3 21.8 C 0 km/h
Sensor: Nr:Datum:Temp:Abs-Feuchte:Windchill:Wind:
Aussen-T/F 2576 12-08-2008 20:48:01 21.2 C 10.56 g/m*3 21.2 C 0 km/h
2577 12-08-2008 21:00:01 20.7 C 10.62 g/m*3 20.7 C 0 km/h
2578 12-08-2008 21:12:02 20.2 C 10.84 g/m*3 20.2 C 0 km/h
2579 12-08-2008 21:24:02 20 C 11.06 g/m*3 20 C 0 km/h
2580 12-08-2008 21:36:02 19.7 C 11.38 g/m*3 19.7 C 0 km/h
2581 12-08-2008 21:48:03 19.4 C 11.68 g/m*3 19.4 C 0 km/h
2582 12-08-2008 22:00:03 19.1 C 11.8 g/m*3 19.1 C 0 km/h
2583 12-08-2008 22:12:02 19 C 11.57 g/m*3 19 C 0 km/h
2584 12-08-2008 22:24:02 18.9 C 11.83 g/m*3 18.9 C 0 km/h
2585 12-08-2008 22:36:02 18.6 C 11.62 g/m*3 18.6 C 0 km/h
2586 12-08-2008 22:48:02 18.4 C 11.48 g/m*3 18.4 C 0 km/h
2587 12-08-2008 23:00:03 18.6 C 11.46 g/m*3 18.6 C 0 km/h
2588 12-08-2008 23:12:02 18.9 C 11.18 g/m*3 18.9 C 0 km/h
2589 12-08-2008 23:25:03 19.3 C 11.11 g/m*3 19.3 C 0 km/h
2590 12-08-2008 23:37:03 16.6 C 9.89 g/m*3 16.6 C 0 km/h
2591 12-08-2008 23:49:03 15.6 C 9.97 g/m*3 15.6 C 0 km/h
2592 13-08-2008 00:01:03 15.2 C 9.99 g/m*3 15.2 C 0 km/h
2593 13-08-2008 00:13:03 15 C 10.26 g/m*3 15 C 0 km/h
2594 13-08-2008 00:25:03 14.7 C 10.2 g/m*3 14.7 C 0 km/h
2595 13-08-2008 00:37:03 14.4 C 10.14 g/m*3 14.4 C 0 km/h
2596 13-08-2008 00:49:04 14.2 C 10.14 g/m*3 14.2 C 0 km/h
2597 13-08-2008 01:01:04 14.2 C 10.26 g/m*3 14.2 C 0 km/h
2598 13-08-2008 01:13:04 14.3 C 10.44 g/m*3 14.3 C 0 km/h
2599 13-08-2008 01:25:04 14.3 C 10.57 g/m*3 14.3 C 0 km/h
2600 13-08-2008 01:37:04 14.3 C 10.57 g/m*3 14.3 C 0 km/h
Sensor: Nr:Datum:Temp:Abs-Feuchte:Windchill:Wind:
Aussen-T/F 2601 13-08-2008 01:49:04 14.6 C 10.76 g/m*3 14.6 C 0 km/h
2602 13-08-2008 02:01:04 14.6 C 10.76 g/m*3 14.6 C 0 km/h
2603 13-08-2008 02:13:04 14.7 C 10.83 g/m*3 14.7 C 0 km/h
2604 13-08-2008 02:25:04 14.5 C 10.7 g/m*3 14.5 C 0 km/h
2605 13-08-2008 02:37:04 14.3 C 10.57 g/m*3 14.3 C 0 km/h
2606 13-08-2008 02:49:04 14.2 C 10.5 g/m*3 14.2 C 0 km/h
2607 13-08-2008 03:01:04 14.2 C 10.62 g/m*3 14.2 C 0 km/h
2608 13-08-2008 03:13:04 14.3 C 10.81 g/m*3 14.3 C 0 km/h
2609 13-08-2008 03:25:04 14.3 C 10.81 g/m*3 14.3 C 0 km/h
2610 13-08-2008 03:37:04 14.3 C 10.69 g/m*3 14.3 C 0 km/h
2611 13-08-2008 03:49:04 14.2 C 10.62 g/m*3 14.2 C 0 km/h
2612 13-08-2008 04:01:04 14.1 C 10.56 g/m*3 14.1 C 0 km/h
2613 13-08-2008 04:13:04 14.4 C 10.38 g/m*3 14.4 C 0 km/h
2614 13-08-2008 04:25:04 14.7 C 10.07 g/m*3 14.7 C 0 km/h
2615 13-08-2008 04:37:04 15 C 9.49 g/m*3 15 C 0 km/h
2616 13-08-2008 04:49:05 15.4 C 9.2 g/m*3 15.4 C 0 km/h
2617 13-08-2008 05:01:05 15.2 C 9.09 g/m*3 15.2 C 0 km/h
2618 13-08-2008 05:13:05 15.4 C 8.93 g/m*3 15.4 C 0 km/h
2619 13-08-2008 05:25:05 15.4 C 8.93 g/m*3 15.4 C 0 km/h
2620 13-08-2008 05:37:05 15.6 C 8.78 g/m*3 15.6 C 0 km/h
2621 13-08-2008 05:49:05 15.8 C 8.62 g/m*3 15.8 C 0 km/h
2622 13-08-2008 06:01:05 15.8 C 8.62 g/m*3 15.8 C 0 km/h
2623 13-08-2008 06:13:05 15.9 C 8.53 g/m*3 15.9 C 0 km/h
2624 13-08-2008 06:25:05 15.9 C 8.53 g/m*3 15.9 C 0 km/h
2625 13-08-2008 06:37:03 15.9 C 8.53 g/m*3 15.9 C 0 km/h
Sensor: Nr:Datum:Temp:Abs-Feuchte:Windchill:Wind:
Aussen-T/F 2626 13-08-2008 06:49:02 15.7 C 8.43 g/m*3 15.7 C 0 km/h
2627 13-08-2008 07:01:02 15.8 C 8.48 g/m*3 15.8 C 0 km/h
2628 13-08-2008 07:13:02 15.9 C 8.53 g/m*3 15.9 C 0 km/h
2629 13-08-2008 07:25:03 15.9 C 8.53 g/m*3 15.9 C 0 km/h
2630 13-08-2008 07:37:02 16.4 C 8.51 g/m*3 16.4 C 0 km/h
2631 13-08-2008 07:49:02 16.6 C 8.33 g/m*3 16.6 C 0 km/h
2632 13-08-2008 08:01:02 16.5 C 8.43 g/m*3 16.5 C 0 km/h
2633 13-08-2008 08:13:02 16.6 C 8.33 g/m*3 16.6 C 0 km/h
2634 13-08-2008 08:25:02 16.8 C 8.44 g/m*3 16.8 C 0 km/h
2635 13-08-2008 08:37:02 16.9 C 8.2 g/m*3 16.9 C 0 km/h
2636 13-08-2008 08:49:01 16.8 C 8.15 g/m*3 16.8 C 0 km/h
2637 13-08-2008 09:01:02 17.1 C 8.01 g/m*3 17.1 C 0 km/h
2638 13-08-2008 09:13:02 17.4 C 8.15 g/m*3 17.4 C 0 km/h
2639 13-08-2008 09:25:02 17.7 C 8 g/m*3 17.7 C 0 km/h
2640 13-08-2008 09:37:02 17.6 C 8.1 g/m*3 17.6 C 0 km/h
2641 13-08-2008 09:49:02 17.6 C 7.95 g/m*3 17.6 C 0 km/h
2642 13-08-2008 10:01:02 18.1 C 7.88 g/m*3 18.1 C 0 km/h
2643 13-08-2008 10:13:03 18.3 C 7.82 g/m*3 18.3 C 0 km/h
2644 13-08-2008 10:25:02 18.3 C 7.97 g/m*3 18.3 C 0 km/h
2645 13-08-2008 10:37:02 18.5 C 7.91 g/m*3 18.5 C 0 km/h
2646 13-08-2008 10:49:02 17 C 8.54 g/m*3 17 C 0 km/h
2647 13-08-2008 11:01:03 17.2 C 9.08 g/m*3 17.2 C 0 km/h
2648 13-08-2008 11:13:03 18.1 C 9.12 g/m*3 18.1 C 0 km/h
2649 13-08-2008 11:25:02 18.3 C 8.6 g/m*3 18.3 C 0 km/h
2650 13-08-2008 11:37:03 19.3 C 8.46 g/m*3 19.3 C 0 km/h
Sensor: Nr:Datum:Temp:Abs-Feuchte:Windchill:Wind:
Aussen-T/F 2651 13-08-2008 11:49:02 19.7 C 8.15 g/m*3 19.7 C 0 km/h
2652 13-08-2008 12:01:02 20 C 8.12 g/m*3 20 C 0 km/h
2653 13-08-2008 12:13:02 20 C 7.78 g/m*3 20 C 0 km/h
2654 13-08-2008 12:25:02 19.7 C 7.47 g/m*3 19.7 C 0 km/h
2655 13-08-2008 12:37:02 20.7 C 7.74 g/m*3 20.7 C 0 km/h
2656 13-08-2008 12:49:03 21.3 C 7.46 g/m*3 21.3 C 0 km/h
2657 13-08-2008 13:01:02 20.8 C 7.24 g/m*3 20.8 C 0 km/h
2658 13-08-2008 13:13:02 21.2 C 7.41 g/m*3 21.2 C 0 km/h
2659 13-08-2008 13:25:02 21.4 C 7.5 g/m*3 21.4 C 0 km/h
2660 13-08-2008 13:37:02 21.2 C 7.41 g/m*3 21.2 C 0 km/h
2661 13-08-2008 13:49:02 21.2 C 7.41 g/m*3 21.2 C 0 km/h
2662 13-08-2008 14:01:02 21.6 C 7.59 g/m*3 21.6 C 0 km/h
2663 13-08-2008 14:13:02 21.7 C 7.82 g/m*3 21.7 C 0 km/h
2664 13-08-2008 14:25:02 22.5 C 7.59 g/m*3 22.5 C 0 km/h
2665 13-08-2008 14:37:02 22 C 7.38 g/m*3 22 C 0 km/h
2666 13-08-2008 14:49:02 21.6 C 7.59 g/m*3 21.6 C 0 km/h
2667 13-08-2008 15:01:02 19.1 C 6.56 g/m*3 19.1 C 0 km/h
2668 13-08-2008 15:13:02 19.1 C 10.98 g/m*3 19.1 C 0 km/h
2669 13-08-2008 15:25:02 20.5 C 10.32 g/m*3 20.5 C 0 km/h
2670 13-08-2008 15:37:02 20.4 C 9.38 g/m*3 20.4 C 0 km/h
2671 13-08-2008 15:49:02 22.2 C 8.83 g/m*3 22.2 C 0 km/h
2672 13-08-2008 16:01:02 22.6 C 8.24 g/m*3 22.6 C 0 km/h
2673 13-08-2008 16:13:02 23.6 C 7.87 g/m*3 23.6 C 0 km/h
2674 13-08-2008 16:25:02 23.5 C 6.98 g/m*3 23.5 C 0 km/h
2675 13-08-2008 16:37:02 23.8 C 6.88 g/m*3 23.8 C 0 km/h
Sensor: Nr:Datum:Temp:Abs-Feuchte:Windchill:Wind:
Aussen-T/F 2676 13-08-2008 16:49:02 24.3 C 6.86 g/m*3 24.3 C 0 km/h
2677 13-08-2008 17:01:02 24.1 C 6.35 g/m*3 24.1 C 0 km/h
2678 13-08-2008 17:13:02 23.5 C 6.56 g/m*3 23.5 C 0 km/h
2679 13-08-2008 17:25:02 24.3 C 6.64 g/m*3 24.3 C 0 km/h
2680 13-08-2008 17:37:02 23.8 C 6.45 g/m*3 23.8 C 0 km/h
2681 13-08-2008 17:49:02 23.4 C 6.52 g/m*3 23.4 C 0 km/h
2682 13-08-2008 18:01:02 23.3 C 6.48 g/m*3 23.3 C 0 km/h
2683 13-08-2008 18:13:02 23.6 C 6.59 g/m*3 23.6 C 0 km/h
2684 13-08-2008 18:25:02 23.5 C 6.56 g/m*3 23.5 C 0 km/h
2685 13-08-2008 18:37:02 22.6 C 6.63 g/m*3 22.6 C 0 km/h
2686 13-08-2008 18:49:02 22 C 6.79 g/m*3 22 C 0 km/h
2687 13-08-2008 19:01:02 21.6 C 7.59 g/m*3 21.6 C 0 km/h
2688 13-08-2008 19:13:02 21.7 C 7.25 g/m*3 21.7 C 0 km/h
2689 13-08-2008 19:25:02 21.6 C 6.83 g/m*3 21.6 C 0 km/h
2690 13-08-2008 19:37:02 21.3 C 6.9 g/m*3 21.3 C 0 km/h
2691 13-08-2008 19:49:01 21.2 C 7.04 g/m*3 21.2 C 0 km/h
2692 13-08-2008 20:01:02 19.4 C 8.01 g/m*3 19.4 C 0 km/h
2693 13-08-2008 20:13:02 19.5 C 8.39 g/m*3 19.5 C 0 km/h
2694 13-08-2008 20:25:01 19.5 C 8.56 g/m*3 19.5 C 0 km/h
2695 13-08-2008 20:37:02 19.6 C 8.44 g/m*3 19.6 C 0 km/h
2696 13-08-2008 20:49:02 19.5 C 8.39 g/m*3 19.5 C 0 km/h
2697 13-08-2008 21:01:02 19.7 C 6.96 g/m*3 19.7 C 0 km/h
2698 13-08-2008 21:13:02 19.8 C 6.83 g/m*3 19.8 C 0 km/h
2699 13-08-2008 21:25:02 19.5 C 6.88 g/m*3 19.5 C 0 km/h
2700 13-08-2008 21:37:03 18.8 C 7.41 g/m*3 18.8 C 0 km/h
Sensor: Nr:Datum:Temp:Abs-Feuchte:Windchill:Wind:
Aussen-T/F 2701 13-08-2008 21:50:04 18.7 C 7.52 g/m*3 18.7 C 0 km/h
2702 13-08-2008 22:02:04 18.3 C 7.66 g/m*3 18.3 C 0 km/h
2703 13-08-2008 22:14:04 18.3 C 7.66 g/m*3 18.3 C 0 km/h
2704 13-08-2008 22:26:04 18.4 C 7.55 g/m*3 18.4 C 0 km/h
2705 13-08-2008 22:38:04 18 C 7.68 g/m*3 18 C 0 km/h
2706 13-08-2008 22:50:04 17.8 C 7.89 g/m*3 17.8 C 0 km/h
2707 13-08-2008 23:02:04 17.8 C 7.74 g/m*3 17.8 C 0 km/h
2708 13-08-2008 23:14:04 17.4 C 7.85 g/m*3 17.4 C 0 km/h
2709 13-08-2008 23:26:04 17.3 C 7.96 g/m*3 17.3 C 0 km/h
2710 13-08-2008 23:38:04 17.1 C 8.01 g/m*3 17.1 C 0 km/h
2711 13-08-2008 23:50:04 17 C 8.25 g/m*3 17 C 0 km/h
2712 14-08-2008 00:02:04 17.1 C 8.3 g/m*3 17.1 C 0 km/h
2713 14-08-2008 00:14:04 16.8 C 8.29 g/m*3 16.8 C 0 km/h
2714 14-08-2008 00:26:04 16.4 C 8.23 g/m*3 16.4 C 0 km/h
2715 14-08-2008 00:38:04 16.2 C 8.27 g/m*3 16.2 C 0 km/h
2716 14-08-2008 00:50:04 16.4 C 8.51 g/m*3 16.4 C 0 km/h
2717 14-08-2008 01:02:04 16.4 C 8.51 g/m*3 16.4 C 0 km/h
2718 14-08-2008 01:14:04 16.4 C 8.65 g/m*3 16.4 C 0 km/h
2719 14-08-2008 01:26:05 16.1 C 8.5 g/m*3 16.1 C 0 km/h
2720 14-08-2008 01:38:05 15.9 C 8.67 g/m*3 15.9 C 0 km/h
2721 14-08-2008 01:50:05 15.8 C 8.62 g/m*3 15.8 C 0 km/h
2722 14-08-2008 02:02:05 16 C 8.58 g/m*3 16 C 0 km/h
2723 14-08-2008 02:14:05 16 C 8.58 g/m*3 16 C 0 km/h
2724 14-08-2008 02:26:05 15.8 C 8.62 g/m*3 15.8 C 0 km/h
2725 14-08-2008 02:38:05 15.4 C 8.67 g/m*3 15.4 C 0 km/h
Sensor: Nr:Datum:Temp:Abs-Feuchte:Windchill:Wind:
Aussen-T/F 2726 14-08-2008 02:50:05 15.3 C 8.88 g/m*3 15.3 C 0 km/h
2727 14-08-2008 03:02:05 15.1 C 8.77 g/m*3 15.1 C 0 km/h
2728 14-08-2008 03:14:05 15 C 8.85 g/m*3 15 C 0 km/h
2729 14-08-2008 03:26:05 14.9 C 8.92 g/m*3 14.9 C 0 km/h
2730 14-08-2008 03:38:05 14.8 C 8.99 g/m*3 14.8 C 0 km/h
2731 14-08-2008 03:50:05 14.7 C 8.94 g/m*3 14.7 C 0 km/h
2732 14-08-2008 04:02:05 14.5 C 8.95 g/m*3 14.5 C 0 km/h
2733 14-08-2008 04:14:05 14.5 C 9.08 g/m*3 14.5 C 0 km/h
2734 14-08-2008 04:26:05 14.3 C 8.97 g/m*3 14.3 C 0 km/h
2735 14-08-2008 04:38:05 14.1 C 8.98 g/m*3 14.1 C 0 km/h
2736 14-08-2008 04:50:05 13.9 C 8.99 g/m*3 13.9 C 0 km/h
2737 14-08-2008 05:02:05 13.9 C 9.11 g/m*3 13.9 C 0 km/h
2738 14-08-2008 05:14:05 13.8 C 9.17 g/m*3 13.8 C 0 km/h
2739 14-08-2008 05:26:05 13.6 C 9.06 g/m*3 13.6 C 0 km/h
2740 14-08-2008 05:38:06 13.6 C 9.06 g/m*3 13.6 C 0 km/h
2741 14-08-2008 05:50:06 13.5 C 9.12 g/m*3 13.5 C 0 km/h
2742 14-08-2008 06:02:06 13.6 C 9.06 g/m*3 13.6 C 0 km/h
2743 14-08-2008 06:14:06 13.6 C 9.06 g/m*3 13.6 C 0 km/h
2744 14-08-2008 06:26:03 13.7 C 9.12 g/m*3 13.7 C 0 km/h
2745 14-08-2008 06:38:04 13.7 C 9.12 g/m*3 13.7 C 0 km/h
2746 14-08-2008 06:50:02 13.7 C 9.12 g/m*3 13.7 C 0 km/h
2747 14-08-2008 07:02:02 13.8 C 9.06 g/m*3 13.8 C 0 km/h
2748 14-08-2008 07:14:02 13.8 C 9.06 g/m*3 13.8 C 0 km/h
2749 14-08-2008 07:26:02 13.8 C 9.06 g/m*3 13.8 C 0 km/h
2750 14-08-2008 07:38:01 14 C 9.05 g/m*3 14 C 0 km/h
Sensor: Nr:Datum:Temp:Abs-Feuchte:Windchill:Wind:
Aussen-T/F 2751 14-08-2008 07:50:02 14.1 C 9.1 g/m*3 14.1 C 0 km/h
2752 14-08-2008 08:02:01 14.3 C 8.97 g/m*3 14.3 C 0 km/h
2753 14-08-2008 08:14:01 14.5 C 9.08 g/m*3 14.5 C 0 km/h
2754 14-08-2008 08:26:02 14.6 C 9.13 g/m*3 14.6 C 0 km/h
2755 14-08-2008 08:38:01 14.9 C 9.05 g/m*3 14.9 C 0 km/h
2756 14-08-2008 08:50:02 15.4 C 8.41 g/m*3 15.4 C 0 km/h
2757 14-08-2008 09:02:01 15.8 C 8.21 g/m*3 15.8 C 0 km/h
2758 14-08-2008 09:14:01 16.1 C 7.95 g/m*3 16.1 C 0 km/h
2759 14-08-2008 09:26:02 16.4 C 7.82 g/m*3 16.4 C 0 km/h
2760 14-08-2008 09:38:02 16.8 C 7.15 g/m*3 16.8 C 0 km/h
2761 14-08-2008 09:50:02 17.1 C 7.13 g/m*3 17.1 C 0 km/h
2762 14-08-2008 10:02:02 17.4 C 7.11 g/m*3 17.4 C 0 km/h
2763 14-08-2008 10:14:02 17.8 C 7.13 g/m*3 17.8 C 0 km/h
2764 14-08-2008 10:26:01 18.1 C 7.11 g/m*3 18.1 C 0 km/h
2765 14-08-2008 10:38:02 18.3 C 6.88 g/m*3 18.3 C 0 km/h
2766 14-08-2008 10:50:02 18.8 C 7.09 g/m*3 18.8 C 0 km/h
2767 14-08-2008 11:02:02 19.1 C 7.05 g/m*3 19.1 C 0 km/h
2768 14-08-2008 11:14:02 19.5 C 7.05 g/m*3 19.5 C 0 km/h
2769 14-08-2008 11:26:02 19.8 C 7 g/m*3 19.8 C 0 km/h
2770 14-08-2008 11:38:02 20.3 C 7.03 g/m*3 20.3 C 0 km/h
2771 14-08-2008 11:50:02 20.4 C 6.72 g/m*3 20.4 C 0 km/h
2772 14-08-2008 12:02:02 20.8 C 6.34 g/m*3 20.8 C 0 km/h
2773 14-08-2008 12:14:02 21.2 C 6.12 g/m*3 21.2 C 0 km/h
2774 14-08-2008 12:26:01 22 C 6.02 g/m*3 22 C 0 km/h
2775 14-08-2008 12:38:02 21.9 C 5.79 g/m*3 21.9 C 0 km/h
Sensor: Nr:Datum:Temp:Abs-Feuchte:Windchill:Wind:
Aussen-T/F 2776 14-08-2008 12:50:02 22 C 5.43 g/m*3 22 C 0 km/h
2777 14-08-2008 13:02:02 22.9 C 6.13 g/m*3 22.9 C 0 km/h
2778 14-08-2008 13:14:02 23.2 C 6.03 g/m*3 23.2 C 0 km/h
2779 14-08-2008 13:26:02 23.4 C 6.31 g/m*3 23.4 C 0 km/h
2780 14-08-2008 13:38:02 24 C 6.09 g/m*3 24 C 0 km/h
2781 14-08-2008 13:50:02 23.4 C 6.31 g/m*3 23.4 C 0 km/h
2782 14-08-2008 14:02:01 23.4 C 5.89 g/m*3 23.4 C 0 km/h
2783 14-08-2008 14:14:01 23.1 C 5.79 g/m*3 23.1 C 0 km/h
2784 14-08-2008 14:26:02 23 C 5.76 g/m*3 23 C 0 km/h
2785 14-08-2008 14:38:01 23.4 C 6.1 g/m*3 23.4 C 0 km/h
2786 14-08-2008 14:50:02 24.1 C 5.69 g/m*3 24.1 C 0 km/h
2787 14-08-2008 15:02:01 24.3 C 5.53 g/m*3 24.3 C 0 km/h
2788 14-08-2008 15:14:01 24.2 C 5.5 g/m*3 24.2 C 0 km/h
2789 14-08-2008 15:26:02 24.4 C 5.56 g/m*3 24.4 C 0 km/h
2790 14-08-2008 15:38:01 24.5 C 5.6 g/m*3 24.5 C 0 km/h
2791 14-08-2008 15:50:01 24.8 C 5.46 g/m*3 24.8 C 0 km/h
2792 14-08-2008 16:02:01 25.2 C 5.35 g/m*3 25.2 C 0 km/h
2793 14-08-2008 16:14:01 25.1 C 5.56 g/m*3 25.1 C 0 km/h
2794 14-08-2008 16:26:01 25.5 C 5.21 g/m*3 25.5 C 0 km/h
2795 14-08-2008 16:38:01 25.6 C 5 g/m*3 25.6 C 0 km/h
2796 14-08-2008 16:50:01 26.2 C 5.17 g/m*3 26.2 C 0 km/h
2797 14-08-2008 17:02:02 25.1 C 5.09 g/m*3 25.1 C 0 km/h
2798 14-08-2008 17:14:03 26.7 C 5.06 g/m*3 26.7 C 0 km/h
2799 14-08-2008 17:26:01 26.5 C 5.01 g/m*3 26.5 C 0 km/h
2800 14-08-2008 17:38:02 26.7 C 5.06 g/m*3 26.7 C 0 km/h
Sensor: Nr:Datum:Temp:Abs-Feuchte:Windchill:Wind:
Aussen-T/F 2801 14-08-2008 17:50:01 26.6 C 5.03 g/m*3 26.6 C 0 km/h
2802 14-08-2008 18:02:02 26.7 C 5.06 g/m*3 26.7 C 0 km/h
2803 14-08-2008 18:14:02 26.8 C 5.09 g/m*3 26.8 C 0 km/h
2804 14-08-2008 18:26:01 26.8 C 5.09 g/m*3 26.8 C 0 km/h
2805 14-08-2008 18:38:02 26.2 C 4.92 g/m*3 26.2 C 0 km/h
2806 14-08-2008 18:50:02 26.4 C 4.98 g/m*3 26.4 C 0 km/h
2807 14-08-2008 19:02:02 25.8 C 4.82 g/m*3 25.8 C 0 km/h
2808 14-08-2008 19:14:02 25.1 C 5.09 g/m*3 25.1 C 0 km/h
2809 14-08-2008 19:26:02 23.8 C 5.59 g/m*3 23.8 C 0 km/h
2810 14-08-2008 19:38:02 23.7 C 5.56 g/m*3 23.7 C 0 km/h
2811 14-08-2008 19:50:01 23.6 C 5.96 g/m*3 23.6 C 0 km/h
2812 14-08-2008 20:02:02 22.8 C 5.69 g/m*3 22.8 C 0 km/h
2813 14-08-2008 20:14:02 22.6 C 6.03 g/m*3 22.6 C 0 km/h
2814 14-08-2008 20:26:01 21.8 C 5.95 g/m*3 21.8 C 0 km/h
2815 14-08-2008 20:38:02 20.9 C 6.19 g/m*3 20.9 C 0 km/h
2816 14-08-2008 20:50:02 20.5 C 6.23 g/m*3 20.5 C 0 km/h
2817 14-08-2008 21:02:02 19.9 C 6.19 g/m*3 19.9 C 0 km/h
2818 14-08-2008 21:14:02 19.4 C 6.17 g/m*3 19.4 C 0 km/h
2819 14-08-2008 21:26:02 19 C 6.03 g/m*3 19 C 0 km/h
2820 14-08-2008 21:38:01 18.8 C 6.6 g/m*3 18.8 C 0 km/h
2821 14-08-2008 21:51:03 18.6 C 6.68 g/m*3 18.6 C 0 km/h
2822 14-08-2008 22:03:03 18.3 C 6.88 g/m*3 18.3 C 0 km/h
2823 14-08-2008 22:15:03 18.1 C 6.8 g/m*3 18.1 C 0 km/h
2824 14-08-2008 22:27:03 18.1 C 6.64 g/m*3 18.1 C 0 km/h
2825 14-08-2008 22:39:03 17.9 C 6.87 g/m*3 17.9 C 0 km/h
Sensor: Nr:Datum:Temp:Abs-Feuchte:Windchill:Wind:
Aussen-T/F 2826 14-08-2008 22:51:03 17.5 C 7.01 g/m*3 17.5 C 0 km/h
2827 14-08-2008 23:03:03 17.5 C 7.01 g/m*3 17.5 C 0 km/h
2828 14-08-2008 23:15:03 17.4 C 7.41 g/m*3 17.4 C 0 km/h
2829 14-08-2008 23:27:03 17.2 C 7.47 g/m*3 17.2 C 0 km/h
2830 14-08-2008 23:39:03 17 C 7.38 g/m*3 17 C 0 km/h
2831 14-08-2008 23:51:03 17.1 C 7.42 g/m*3 17.1 C 0 km/h
2832 15-08-2008 00:03:03 17 C 7.38 g/m*3 17 C 0 km/h
2833 15-08-2008 00:15:03 17 C 7.52 g/m*3 17 C 0 km/h
2834 15-08-2008 00:27:03 16.8 C 7.72 g/m*3 16.8 C 0 km/h
2835 15-08-2008 00:39:03 16.8 C 7.58 g/m*3 16.8 C 0 km/h
2836 15-08-2008 00:51:03 16.7 C 7.67 g/m*3 16.7 C 0 km/h
2837 15-08-2008 01:03:03 16.6 C 7.63 g/m*3 16.6 C 0 km/h
2838 15-08-2008 01:15:04 16.7 C 7.67 g/m*3 16.7 C 0 km/h
2839 15-08-2008 01:27:04 16.5 C 7.72 g/m*3 16.5 C 0 km/h
2840 15-08-2008 01:39:04 16.3 C 7.77 g/m*3 16.3 C 0 km/h
2841 15-08-2008 01:51:04 16.1 C 7.68 g/m*3 16.1 C 0 km/h
2842 15-08-2008 02:03:04 16.1 C 7.68 g/m*3 16.1 C 0 km/h
2843 15-08-2008 02:15:04 16 C 7.77 g/m*3 16 C 0 km/h
2844 15-08-2008 02:27:04 15.9 C 7.99 g/m*3 15.9 C 0 km/h
2845 15-08-2008 02:39:04 15.7 C 7.89 g/m*3 15.7 C 0 km/h
2846 15-08-2008 02:51:04 15.6 C 7.85 g/m*3 15.6 C 0 km/h
2847 15-08-2008 03:03:04 15.6 C 7.98 g/m*3 15.6 C 0 km/h
2848 15-08-2008 03:15:04 15.5 C 8.06 g/m*3 15.5 C 0 km/h
2849 15-08-2008 03:27:04 15.5 C 8.06 g/m*3 15.5 C 0 km/h
2850 15-08-2008 03:39:04 15.2 C 8.05 g/m*3 15.2 C 0 km/h
Sensor: Nr:Datum:Temp:Abs-Feuchte:Windchill:Wind:
Aussen-T/F 2851 15-08-2008 03:51:04 15.2 C 8.18 g/m*3 15.2 C 0 km/h
2852 15-08-2008 04:03:04 14.9 C 8.28 g/m*3 14.9 C 0 km/h
2853 15-08-2008 04:15:04 14.7 C 8.31 g/m*3 14.7 C 0 km/h
2854 15-08-2008 04:27:04 14.5 C 8.33 g/m*3 14.5 C 0 km/h
2855 15-08-2008 04:39:04 14.6 C 8.38 g/m*3 14.6 C 0 km/h
2856 15-08-2008 04:51:04 14.6 C 8.38 g/m*3 14.6 C 0 km/h
2857 15-08-2008 05:03:05 14.5 C 8.33 g/m*3 14.5 C 0 km/h
2858 15-08-2008 05:15:05 14.3 C 8.35 g/m*3 14.3 C 0 km/h
2859 15-08-2008 05:27:05 14 C 8.32 g/m*3 14 C 0 km/h
2860 15-08-2008 05:39:05 13.8 C 8.46 g/m*3 13.8 C 0 km/h
2861 15-08-2008 05:51:05 13.8 C 8.46 g/m*3 13.8 C 0 km/h
2862 15-08-2008 06:03:05 13.7 C 8.53 g/m*3 13.7 C 0 km/h
2863 15-08-2008 06:15:05 13.6 C 8.47 g/m*3 13.6 C 0 km/h
2864 15-08-2008 06:27:05 13.6 C 8.47 g/m*3 13.6 C 0 km/h
2865 15-08-2008 06:39:05 13.5 C 8.54 g/m*3 13.5 C 0 km/h
2866 15-08-2008 06:51:01 13.5 C 8.54 g/m*3 13.5 C 0 km/h
2867 15-08-2008 07:03:02 13.4 C 8.6 g/m*3 13.4 C 0 km/h
2868 15-08-2008 07:15:01 13.3 C 8.55 g/m*3 13.3 C 0 km/h
2869 15-08-2008 07:27:01 13 C 8.51 g/m*3 13 C 0 km/h
2870 15-08-2008 07:39:02 12.8 C 8.62 g/m*3 12.8 C 0 km/h
2871 15-08-2008 07:51:02 12.8 C 8.74 g/m*3 12.8 C 0 km/h
2872 15-08-2008 08:03:02 12.9 C 8.79 g/m*3 12.9 C 0 km/h
2873 15-08-2008 08:15:02 13 C 8.73 g/m*3 13 C 0 km/h
2874 15-08-2008 08:27:02 13.3 C 8.9 g/m*3 13.3 C 0 km/h
2875 15-08-2008 08:39:02 13.5 C 8.77 g/m*3 13.5 C 0 km/h
Sensor: Nr:Datum:Temp:Abs-Feuchte:Windchill:Wind:
Aussen-T/F 2876 15-08-2008 08:51:02 13.8 C 8.82 g/m*3 13.8 C 0 km/h
2877 15-08-2008 09:03:03 14.1 C 8.86 g/m*3 14.1 C 0 km/h
2878 15-08-2008 09:15:02 14.4 C 8.65 g/m*3 14.4 C 0 km/h
2879 15-08-2008 09:27:03 15 C 8.98 g/m*3 15 C 0 km/h
2880 15-08-2008 09:39:02 16 C 8.86 g/m*3 16 C 0 km/h
2881 15-08-2008 09:51:02 16.8 C 8.72 g/m*3 16.8 C 0 km/h
2882 15-08-2008 10:03:02 17.2 C 8.05 g/m*3 17.2 C 0 km/h
2883 15-08-2008 10:15:02 17.7 C 8.15 g/m*3 17.7 C 0 km/h
2884 15-08-2008 10:27:02 18.1 C 8.19 g/m*3 18.1 C 0 km/h
2885 15-08-2008 10:39:02 18.4 C 8.02 g/m*3 18.4 C 0 km/h
2886 15-08-2008 10:51:01 18.9 C 7.94 g/m*3 18.9 C 0 km/h
2887 15-08-2008 11:03:02 19.3 C 7.3 g/m*3 19.3 C 0 km/h
2888 15-08-2008 11:15:01 19.9 C 7.56 g/m*3 19.9 C 0 km/h
2889 15-08-2008 11:27:01 20.6 C 7.52 g/m*3 20.6 C 0 km/h
2890 15-08-2008 11:39:01 20.8 C 7.42 g/m*3 20.8 C 0 km/h
2891 15-08-2008 11:51:02 20.5 C 7.3 g/m*3 20.5 C 0 km/h
2892 15-08-2008 12:03:02 21.2 C 7.23 g/m*3 21.2 C 0 km/h
2893 15-08-2008 12:15:02 22.1 C 7.22 g/m*3 22.1 C 0 km/h
2894 15-08-2008 12:27:02 22.8 C 7.52 g/m*3 22.8 C 0 km/h
2895 15-08-2008 12:39:02 23 C 6.99 g/m*3 23 C 0 km/h
2896 15-08-2008 12:51:02 22.7 C 7.07 g/m*3 22.7 C 0 km/h
2897 15-08-2008 13:03:03 21.6 C 7.21 g/m*3 21.6 C 0 km/h
2898 15-08-2008 13:15:02 22 C 6.79 g/m*3 22 C 0 km/h
2899 15-08-2008 13:27:02 21.7 C 6.87 g/m*3 21.7 C 0 km/h
2900 15-08-2008 13:39:03 22.1 C 6.83 g/m*3 22.1 C 0 km/h
Sensor: Nr:Datum:Temp:Abs-Feuchte:Windchill:Wind:
Aussen-T/F 2901 15-08-2008 13:51:02 22.7 C 6.67 g/m*3 22.7 C 0 km/h
2902 15-08-2008 14:03:01 22.3 C 7.7 g/m*3 22.3 C 0 km/h
2903 15-08-2008 14:15:02 19.6 C 8.61 g/m*3 19.6 C 0 km/h
2904 15-08-2008 14:27:02 19.2 C 8.08 g/m*3 19.2 C 0 km/h
2905 15-08-2008 14:39:01 19.7 C 7.81 g/m*3 19.7 C 0 km/h
2906 15-08-2008 14:51:02 20.5 C 8.36 g/m*3 20.5 C 0 km/h
2907 15-08-2008 15:03:01 22.7 C 7.07 g/m*3 22.7 C 0 km/h
2908 15-08-2008 15:21:02 20.6 C 7.87 g/m*3 20.6 C 0 km/h
2909 15-08-2008 15:33:01 20.7 C 8.1 g/m*3 20.7 C 0 km/h
2910 15-08-2008 15:45:02 22 C 8.15 g/m*3 22 C 0 km/h
2911 15-08-2008 15:57:02 22.6 C 7.23 g/m*3 22.6 C 0 km/h
2912 15-08-2008 16:09:01 22.9 C 7.56 g/m*3 22.9 C 0 km/h
2913 15-08-2008 16:21:02 23.6 C 7.02 g/m*3 23.6 C 0 km/h
2914 15-08-2008 16:33:01 24.8 C 6.83 g/m*3 24.8 C 0 km/h
2915 15-08-2008 16:45:01 26.1 C 6.12 g/m*3 26.1 C 0 km/h
2916 15-08-2008 16:57:01 24.8 C 6.15 g/m*3 24.8 C 0 km/h
2917 15-08-2008 17:09:01 23.8 C 6.67 g/m*3 23.8 C 0 km/h
2918 15-08-2008 17:21:01 24.4 C 6.9 g/m*3 24.4 C 0 km/h
2919 15-08-2008 17:33:01 25.3 C 6.55 g/m*3 25.3 C 0 km/h
2920 15-08-2008 17:45:01 24.3 C 7.08 g/m*3 24.3 C 0 km/h
2921 15-08-2008 17:57:01 23.6 C 7.44 g/m*3 23.6 C 0 km/h
2922 15-08-2008 18:09:02 24 C 6.74 g/m*3 24 C 0 km/h
2923 15-08-2008 18:21:01 24 C 6.96 g/m*3 24 C 0 km/h
2924 15-08-2008 18:33:02 23.4 C 6.94 g/m*3 23.4 C 0 km/h
2925 15-08-2008 18:45:03 23.8 C 6.88 g/m*3 23.8 C 0 km/h
Sensor: Nr:Datum:Temp:Abs-Feuchte:Windchill:Wind:
Aussen-T/F 2926 15-08-2008 18:57:03 24.1 C 7 g/m*3 24.1 C 0 km/h
2927 15-08-2008 19:09:02 24.6 C 6.98 g/m*3 24.6 C 0 km/h
2928 15-08-2008 19:21:02 24.6 C 6.75 g/m*3 24.6 C 0 km/h
2929 15-08-2008 19:33:02 24.7 C 7.02 g/m*3 24.7 C 0 km/h
2930 15-08-2008 19:45:01 24.2 C 7.26 g/m*3 24.2 C 0 km/h
2931 15-08-2008 19:57:01 22 C 7.38 g/m*3 22 C 0 km/h
2932 15-08-2008 20:09:02 20.6 C 7.52 g/m*3 20.6 C 0 km/h
2933 15-08-2008 20:21:01 19.9 C 7.56 g/m*3 19.9 C 0 km/h
2934 15-08-2008 20:33:02 19.4 C 7.51 g/m*3 19.4 C 0 km/h
2935 15-08-2008 20:45:03 19.1 C 7.54 g/m*3 19.1 C 0 km/h
2936 15-08-2008 20:57:03 18.9 C 7.78 g/m*3 18.9 C 0 km/h
2937 15-08-2008 21:09:02 18.4 C 7.86 g/m*3 18.4 C 0 km/h
2938 15-08-2008 21:21:02 18.1 C 7.57 g/m*3 18.1 C 0 km/h
2939 15-08-2008 21:33:02 18.2 C 8.08 g/m*3 18.2 C 0 km/h
2940 15-08-2008 21:45:01 18 C 7.99 g/m*3 18 C 0 km/h
2941 15-08-2008 21:57:01 17.7 C 8.6 g/m*3 17.7 C 0 km/h
2942 15-08-2008 22:10:03 17.1 C 9.03 g/m*3 17.1 C 0 km/h
2943 15-08-2008 22:22:03 17.1 C 8.88 g/m*3 17.1 C 0 km/h
2944 15-08-2008 22:34:03 16.8 C 8.72 g/m*3 16.8 C 0 km/h
2945 15-08-2008 22:46:03 16.7 C 8.67 g/m*3 16.7 C 0 km/h
2946 15-08-2008 22:58:03 17 C 8.25 g/m*3 17 C 0 km/h
2947 15-08-2008 23:10:03 17 C 8.25 g/m*3 17 C 0 km/h
2948 15-08-2008 23:22:03 16.7 C 8.38 g/m*3 16.7 C 0 km/h
2949 15-08-2008 23:34:03 16.3 C 8.32 g/m*3 16.3 C 0 km/h
2950 15-08-2008 23:46:04 16 C 8.31 g/m*3 16 C 0 km/h
Sensor: Nr:Datum:Temp:Abs-Feuchte:Windchill:Wind:
Aussen-T/F 2951 15-08-2008 23:58:04 15.8 C 8.35 g/m*3 15.8 C 0 km/h
2952 16-08-2008 00:10:04 15.4 C 8.41 g/m*3 15.4 C 0 km/h
2953 16-08-2008 00:22:04 15.4 C 8.41 g/m*3 15.4 C 0 km/h
2954 16-08-2008 00:34:04 15.1 C 8.51 g/m*3 15.1 C 0 km/h
2955 16-08-2008 00:46:04 14.8 C 8.36 g/m*3 14.8 C 0 km/h
2956 16-08-2008 00:58:04 14.7 C 8.56 g/m*3 14.7 C 0 km/h
2957 16-08-2008 01:10:04 14.4 C 8.65 g/m*3 14.4 C 0 km/h
2958 16-08-2008 01:22:04 14.1 C 8.5 g/m*3 14.1 C 0 km/h
2959 16-08-2008 01:34:04 14.1 C 8.62 g/m*3 14.1 C 0 km/h
2960 16-08-2008 01:46:04 13.9 C 8.63 g/m*3 13.9 C 0 km/h
2961 16-08-2008 01:58:04 13.9 C 8.75 g/m*3 13.9 C 0 km/h
2962 16-08-2008 02:10:04 13.7 C 8.64 g/m*3 13.7 C 0 km/h
2963 16-08-2008 02:22:04 13.5 C 8.66 g/m*3 13.5 C 0 km/h
2964 16-08-2008 02:34:04 13.4 C 8.6 g/m*3 13.4 C 0 km/h
2965 16-08-2008 02:46:04 13.2 C 8.5 g/m*3 13.2 C 0 km/h
2966 16-08-2008 02:58:04 13.1 C 8.56 g/m*3 13.1 C 0 km/h
2967 16-08-2008 03:10:04 12.9 C 8.57 g/m*3 12.9 C 0 km/h
2968 16-08-2008 03:22:04 12.7 C 8.68 g/m*3 12.7 C 0 km/h
2969 16-08-2008 03:34:04 12.5 C 8.58 g/m*3 12.5 C 0 km/h
2970 16-08-2008 03:46:04 12.4 C 8.52 g/m*3 12.4 C 0 km/h
2971 16-08-2008 03:58:05 12.4 C 8.63 g/m*3 12.4 C 0 km/h
2972 16-08-2008 04:10:05 12.1 C 8.47 g/m*3 12.1 C 0 km/h
2973 16-08-2008 04:22:05 12 C 8.63 g/m*3 12 C 0 km/h
2974 16-08-2008 04:34:05 11.8 C 8.63 g/m*3 11.8 C 0 km/h
2975 16-08-2008 04:46:05 11.6 C 8.63 g/m*3 11.6 C 0 km/h
Sensor: Nr:Datum:Temp:Abs-Feuchte:Windchill:Wind:
Aussen-T/F 2976 16-08-2008 04:58:05 11.5 C 8.57 g/m*3 11.5 C 0 km/h
2977 16-08-2008 05:10:05 11.4 C 8.52 g/m*3 11.4 C 0 km/h
2978 16-08-2008 05:22:05 11.2 C 8.41 g/m*3 11.2 C 0 km/h
2979 16-08-2008 05:34:05 11.1 C 8.36 g/m*3 11.1 C 0 km/h
2980 16-08-2008 05:46:05 11 C 8.41 g/m*3 11 C 0 km/h
2981 16-08-2008 05:58:05 10.8 C 8.3 g/m*3 10.8 C 0 km/h
2982 16-08-2008 06:10:05 10.8 C 8.3 g/m*3 10.8 C 0 km/h
2983 16-08-2008 06:22:05 10.7 C 8.25 g/m*3 10.7 C 0 km/h
2984 16-08-2008 06:34:05 10.6 C 8.2 g/m*3 10.6 C 0 km/h
2985 16-08-2008 06:46:05 10.5 C 8.24 g/m*3 10.5 C 0 km/h
2986 16-08-2008 06:58:05 10.5 C 8.24 g/m*3 10.5 C 0 km/h
2987 16-08-2008 07:10:05 10.6 C 8.3 g/m*3 10.6 C 0 km/h
2988 16-08-2008 07:22:02 10.7 C 8.25 g/m*3 10.7 C 0 km/h
2989 16-08-2008 07:34:03 10.8 C 8.3 g/m*3 10.8 C 0 km/h
2990 16-08-2008 07:46:02 10.9 C 8.36 g/m*3 10.9 C 0 km/h
2991 16-08-2008 07:58:02 11 C 8.41 g/m*3 11 C 0 km/h
2992 16-08-2008 08:10:02 11.1 C 8.46 g/m*3 11.1 C 0 km/h
2993 16-08-2008 08:22:02 11.4 C 8.62 g/m*3 11.4 C 0 km/h
2994 16-08-2008 08:34:02 11.6 C 8.73 g/m*3 11.6 C 0 km/h
2995 16-08-2008 08:46:03 12 C 8.74 g/m*3 12 C 0 km/h
2996 16-08-2008 08:58:03 12.2 C 8.63 g/m*3 12.2 C 0 km/h
2997 16-08-2008 09:10:02 12.6 C 8.74 g/m*3 12.6 C 0 km/h
2998 16-08-2008 09:22:03 13 C 8.62 g/m*3 13 C 0 km/h
2999 16-08-2008 09:34:02 13.5 C 8.77 g/m*3 13.5 C 0 km/h
3000 16-08-2008 09:46:02 14.1 C 8.74 g/m*3 14.1 C 0 km/h
Sensor: Nr:Datum:Temp:Abs-Feuchte:Windchill:Wind:
Aussen-T/F 3001 16-08-2008 09:58:02 14.7 C 8.69 g/m*3 14.7 C 0 km/h
3002 16-08-2008 10:10:02 15.3 C 8.75 g/m*3 15.3 C 0 km/h
3003 16-08-2008 10:22:02 16.1 C 8.77 g/m*3 16.1 C 0 km/h
3004 16-08-2008 10:34:02 16.7 C 8.81 g/m*3 16.7 C 0 km/h
3005 16-08-2008 10:46:02 17.4 C 8.74 g/m*3 17.4 C 0 km/h
3006 16-08-2008 10:58:02 18.1 C 8.5 g/m*3 18.1 C 0 km/h
3007 16-08-2008 11:10:01 18.9 C 8.59 g/m*3 18.9 C 0 km/h
3008 16-08-2008 11:22:02 20 C 8.64 g/m*3 20 C 0 km/h
3009 16-08-2008 11:34:01 20.7 C 8.28 g/m*3 20.7 C 0 km/h
3010 16-08-2008 11:46:01 20.4 C 7.78 g/m*3 20.4 C 0 km/h
3011 16-08-2008 11:58:01 20.8 C 7.97 g/m*3 20.8 C 0 km/h
3012 16-08-2008 12:10:01 21.4 C 7.31 g/m*3 21.4 C 0 km/h
3013 16-08-2008 12:22:01 22.1 C 6.83 g/m*3 22.1 C 0 km/h
3014 16-08-2008 12:34:01 22.5 C 6.99 g/m*3 22.5 C 0 km/h
3015 16-08-2008 12:46:01 22.4 C 6.16 g/m*3 22.4 C 0 km/h
3016 16-08-2008 12:58:01 22.5 C 5.79 g/m*3 22.5 C 0 km/h
3017 16-08-2008 13:10:02 22.7 C 5.66 g/m*3 22.7 C 0 km/h
3018 16-08-2008 13:22:01 23.5 C 5.5 g/m*3 23.5 C 0 km/h
3019 16-08-2008 13:34:02 24.8 C 5.92 g/m*3 24.8 C 0 km/h
3020 16-08-2008 13:46:02 25.1 C 5.32 g/m*3 25.1 C 0 km/h
3021 16-08-2008 13:58:03 25.2 C 4.89 g/m*3 25.2 C 0 km/h
3022 16-08-2008 14:10:02 24.8 C 5.01 g/m*3 24.8 C 0 km/h
3023 16-08-2008 14:22:02 25.7 C 5.51 g/m*3 25.7 C 0 km/h
3024 16-08-2008 14:34:01 26.7 C 5.06 g/m*3 26.7 C 0 km/h
3025 16-08-2008 14:46:02 26.8 C 5.09 g/m*3 26.8 C 0 km/h
Sensor: Nr:Datum:Temp:Abs-Feuchte:Windchill:Wind:
Aussen-T/F 3026 16-08-2008 14:58:02 27.2 C 5.2 g/m*3 27.2 C 0 km/h
3027 16-08-2008 15:10:02 27.8 C 5.38 g/m*3 27.8 C 0 km/h
3028 16-08-2008 15:22:02 28.3 C 5.53 g/m*3 28.3 C 0 km/h
3029 16-08-2008 15:34:02 28.8 C 5.68 g/m*3 28.8 C 0 km/h
3030 16-08-2008 15:46:01 29.4 C 5.87 g/m*3 29.4 C 0 km/h
3031 16-08-2008 15:58:01 29.9 C 6.03 g/m*3 29.9 C 0 km/h
3032 16-08-2008 16:10:02 30.2 C 6.13 g/m*3 30.2 C 0 km/h
3033 16-08-2008 16:22:01 29.8 C 6 g/m*3 29.8 C 0 km/h
3034 16-08-2008 16:34:02 29.8 C 6 g/m*3 29.8 C 0 km/h
3035 16-08-2008 16:46:02 30.2 C 6.13 g/m*3 30.2 C 0 km/h
3036 16-08-2008 16:58:02 30.6 C 6.26 g/m*3 30.6 C 0 km/h
3037 16-08-2008 17:10:02 30.9 C 6.37 g/m*3 30.9 C 0 km/h
3038 16-08-2008 17:22:02 29.2 C 5.81 g/m*3 29.2 C 0 km/h
3039 16-08-2008 17:34:02 28.6 C 5.62 g/m*3 28.6 C 0 km/h
3040 16-08-2008 17:46:02 29 C 5.74 g/m*3 29 C 0 km/h
3041 16-08-2008 17:58:02 29.5 C 5.9 g/m*3 29.5 C 0 km/h
3042 16-08-2008 18:10:01 30.3 C 6.16 g/m*3 30.3 C 0 km/h
3043 16-08-2008 18:22:02 30.3 C 6.16 g/m*3 30.3 C 0 km/h
3044 16-08-2008 18:34:01 30.3 C 6.16 g/m*3 30.3 C 0 km/h
3045 16-08-2008 18:46:01 30.1 C 6.1 g/m*3 30.1 C 0 km/h
3046 16-08-2008 18:58:01 29.7 C 5.97 g/m*3 29.7 C 0 km/h
3047 16-08-2008 19:10:02 28.4 C 5.56 g/m*3 28.4 C 0 km/h
3048 16-08-2008 19:22:01 26.5 C 6.26 g/m*3 26.5 C 0 km/h
3049 16-08-2008 19:34:02 24.9 C 6.18 g/m*3 24.9 C 0 km/h
3050 16-08-2008 19:46:01 23.6 C 6.38 g/m*3 23.6 C 0 km/h
Sensor: Nr:Datum:Temp:Abs-Feuchte:Windchill:Wind:
Aussen-T/F 3051 16-08-2008 19:58:01 22.8 C 6.3 g/m*3 22.8 C 0 km/h
3052 16-08-2008 20:10:02 22 C 6.4 g/m*3 22 C 0 km/h
3053 16-08-2008 20:22:02 21.3 C 6.52 g/m*3 21.3 C 0 km/h
3054 16-08-2008 20:34:02 20.8 C 6.7 g/m*3 20.8 C 0 km/h
3055 16-08-2008 20:46:02 20.6 C 6.8 g/m*3 20.6 C 0 km/h
3056 16-08-2008 20:58:02 19.6 C 6.92 g/m*3 19.6 C 0 km/h
3057 16-08-2008 21:10:02 19.2 C 6.76 g/m*3 19.2 C 0 km/h
3058 16-08-2008 21:22:01 19 C 6.84 g/m*3 19 C 0 km/h
3059 16-08-2008 21:34:02 18.9 C 6.97 g/m*3 18.9 C 0 km/h
3060 16-08-2008 21:46:02 18.7 C 7.04 g/m*3 18.7 C 0 km/h
3061 16-08-2008 21:58:02 18.6 C 7.16 g/m*3 18.6 C 0 km/h
3062 16-08-2008 22:10:02 18.5 C 7.28 g/m*3 18.5 C 0 km/h
3063 16-08-2008 22:23:02 18.5 C 7.28 g/m*3 18.5 C 0 km/h
3064 16-08-2008 22:35:02 18.2 C 7.15 g/m*3 18.2 C 0 km/h
3065 16-08-2008 22:47:02 18.2 C 7.15 g/m*3 18.2 C 0 km/h
3066 16-08-2008 22:59:02 18 C 7.07 g/m*3 18 C 0 km/h
3067 16-08-2008 23:11:02 17.8 C 7.59 g/m*3 17.8 C 0 km/h
3068 16-08-2008 23:23:02 17.5 C 7.75 g/m*3 17.5 C 0 km/h
3069 16-08-2008 23:35:02 17.3 C 7.37 g/m*3 17.3 C 0 km/h
3070 16-08-2008 23:47:02 17.1 C 7.42 g/m*3 17.1 C 0 km/h
3071 16-08-2008 23:59:03 16.9 C 7.19 g/m*3 16.9 C 0 km/h
3072 17-08-2008 00:11:03 16.6 C 7.06 g/m*3 16.6 C 0 km/h
3073 17-08-2008 00:23:03 16.2 C 7.03 g/m*3 16.2 C 0 km/h
3074 17-08-2008 00:35:03 16.1 C 7.26 g/m*3 16.1 C 0 km/h
3075 17-08-2008 00:47:03 15.9 C 7.31 g/m*3 15.9 C 0 km/h
Sensor: Nr:Datum:Temp:Abs-Feuchte:Windchill:Wind:
Aussen-T/F 3076 17-08-2008 00:59:03 15.8 C 7.4 g/m*3 15.8 C 0 km/h
3077 17-08-2008 01:11:03 15.6 C 7.45 g/m*3 15.6 C 0 km/h
3078 17-08-2008 01:23:03 15.3 C 7.44 g/m*3 15.3 C 0 km/h
3079 17-08-2008 01:35:03 15.1 C 7.48 g/m*3 15.1 C 0 km/h
3080 17-08-2008 01:47:03 14.9 C 7.52 g/m*3 14.9 C 0 km/h
3081 17-08-2008 01:59:03 14.8 C 7.6 g/m*3 14.8 C 0 km/h
3082 17-08-2008 02:11:03 14.7 C 7.55 g/m*3 14.7 C 0 km/h
3083 17-08-2008 02:23:03 14.4 C 7.54 g/m*3 14.4 C 0 km/h
3084 17-08-2008 02:35:03 14.4 C 7.66 g/m*3 14.4 C 0 km/h
3085 17-08-2008 02:47:03 14.3 C 7.62 g/m*3 14.3 C 0 km/h
3086 17-08-2008 02:59:03 14.1 C 7.65 g/m*3 14.1 C 0 km/h
3087 17-08-2008 03:11:03 13.8 C 7.86 g/m*3 13.8 C 0 km/h
3088 17-08-2008 03:23:03 13.7 C 7.82 g/m*3 13.7 C 0 km/h
3089 17-08-2008 03:35:03 13.7 C 7.82 g/m*3 13.7 C 0 km/h
3090 17-08-2008 03:47:03 13.5 C 7.72 g/m*3 13.5 C 0 km/h
3091 17-08-2008 03:59:03 13.6 C 7.77 g/m*3 13.6 C 0 km/h
3092 17-08-2008 04:11:04 13.4 C 7.79 g/m*3 13.4 C 0 km/h
3093 17-08-2008 04:23:04 13.1 C 7.76 g/m*3 13.1 C 0 km/h
3094 17-08-2008 04:35:04 13.1 C 7.87 g/m*3 13.1 C 0 km/h
3095 17-08-2008 04:47:04 12.9 C 7.89 g/m*3 12.9 C 0 km/h
3096 17-08-2008 04:59:04 12.9 C 7.89 g/m*3 12.9 C 0 km/h
3097 17-08-2008 05:11:04 12.8 C 7.95 g/m*3 12.8 C 0 km/h
3098 17-08-2008 05:23:04 12.7 C 7.9 g/m*3 12.7 C 0 km/h
3099 17-08-2008 05:35:04 12.5 C 7.92 g/m*3 12.5 C 0 km/h
3100 17-08-2008 05:47:04 12.3 C 7.82 g/m*3 12.3 C 0 km/h
Sensor: Nr:Datum:Temp:Abs-Feuchte:Windchill:Wind:
Aussen-T/F 3101 17-08-2008 05:59:04 12.4 C 7.98 g/m*3 12.4 C 0 km/h
3102 17-08-2008 06:11:04 12.2 C 7.88 g/m*3 12.2 C 0 km/h
3103 17-08-2008 06:23:04 12.1 C 7.94 g/m*3 12.1 C 0 km/h
3104 17-08-2008 06:35:04 11.9 C 8.05 g/m*3 11.9 C 0 km/h
3105 17-08-2008 06:47:04 11.9 C 8.05 g/m*3 11.9 C 0 km/h
3106 17-08-2008 06:59:04 12 C 7.99 g/m*3 12 C 0 km/h
3107 17-08-2008 07:11:04 12 C 7.99 g/m*3 12 C 0 km/h
3108 17-08-2008 07:23:04 12 C 8.1 g/m*3 12 C 0 km/h
3109 17-08-2008 07:35:04 12 C 8.1 g/m*3 12 C 0 km/h
3110 17-08-2008 07:47:04 12.1 C 8.15 g/m*3 12.1 C 0 km/h
3111 17-08-2008 07:59:04 12.5 C 8.36 g/m*3 12.5 C 0 km/h
3112 17-08-2008 08:11:05 12.5 C 8.36 g/m*3 12.5 C 0 km/h
3113 17-08-2008 08:23:05 12.6 C 8.3 g/m*3 12.6 C 0 km/h
3114 17-08-2008 08:35:05 12.9 C 8.45 g/m*3 12.9 C 0 km/h
3115 17-08-2008 08:47:05 13.2 C 8.38 g/m*3 13.2 C 0 km/h
3116 17-08-2008 08:59:05 13.6 C 8.47 g/m*3 13.6 C 0 km/h
3117 17-08-2008 09:11:02 13.9 C 8.51 g/m*3 13.9 C 0 km/h
3118 17-08-2008 09:23:03 14.6 C 8.51 g/m*3 14.6 C 0 km/h
3119 17-08-2008 09:35:03 15.1 C 8.39 g/m*3 15.1 C 0 km/h
3120 17-08-2008 09:47:01 15.5 C 8.46 g/m*3 15.5 C 0 km/h
3121 17-08-2008 09:59:01 16.2 C 8.69 g/m*3 16.2 C 0 km/h
3122 17-08-2008 10:11:03 17.1 C 8.88 g/m*3 17.1 C 0 km/h
3123 17-08-2008 10:23:02 17.8 C 8.95 g/m*3 17.8 C 0 km/h
3124 17-08-2008 10:35:02 18.7 C 9.13 g/m*3 18.7 C 0 km/h
3125 17-08-2008 10:47:02 19.6 C 8.95 g/m*3 19.6 C 0 km/h
Sensor: Nr:Datum:Temp:Abs-Feuchte:Windchill:Wind:
Aussen-T/F 3126 17-08-2008 10:59:02 20.2 C 8.92 g/m*3 20.2 C 0 km/h
3127 17-08-2008 11:11:03 21 C 8.61 g/m*3 21 C 0 km/h
3128 17-08-2008 11:23:03 21.8 C 8.83 g/m*3 21.8 C 0 km/h
3129 17-08-2008 11:35:03 22.5 C 8.19 g/m*3 22.5 C 0 km/h
3130 17-08-2008 11:47:02 22.9 C 7.77 g/m*3 22.9 C 0 km/h
3131 17-08-2008 11:59:02 23.1 C 7.23 g/m*3 23.1 C 0 km/h
3132 17-08-2008 12:11:02 23.7 C 6.84 g/m*3 23.7 C 0 km/h
3133 17-08-2008 12:23:02 24.3 C 6.64 g/m*3 24.3 C 0 km/h
3134 17-08-2008 12:35:02 24.1 C 5.69 g/m*3 24.1 C 0 km/h
3135 17-08-2008 12:47:03 24.5 C 5.6 g/m*3 24.5 C 0 km/h
3136 17-08-2008 12:59:03 24.5 C 4.7 g/m*3 24.5 C 0 km/h
3137 17-08-2008 13:11:02 25 C 4.83 g/m*3 25 C 0 km/h
3138 17-08-2008 13:23:02 25.5 C 4.73 g/m*3 25.5 C 0 km/h
3139 17-08-2008 13:35:02 26.4 C 4.98 g/m*3 26.4 C 0 km/h
3140 17-08-2008 13:47:02 26.1 C 4.9 g/m*3 26.1 C 0 km/h
3141 17-08-2008 13:59:02 26.6 C 5.03 g/m*3 26.6 C 0 km/h
3142 17-08-2008 14:11:02 26.3 C 4.95 g/m*3 26.3 C 0 km/h
3143 17-08-2008 14:23:01 26.2 C 5.17 g/m*3 26.2 C 0 km/h
3144 17-08-2008 14:35:01 26.8 C 5.35 g/m*3 26.8 C 0 km/h
3145 17-08-2008 14:47:01 26.8 C 5.6 g/m*3 26.8 C 0 km/h
3146 17-08-2008 14:59:01 25.9 C 5.57 g/m*3 25.9 C 0 km/h
3147 17-08-2008 15:11:02 25.1 C 5.56 g/m*3 25.1 C 0 km/h
3148 17-08-2008 15:23:01 25.3 C 5.62 g/m*3 25.3 C 0 km/h
3149 17-08-2008 15:35:01 25.7 C 5.99 g/m*3 25.7 C 0 km/h
3150 17-08-2008 15:47:02 27.6 C 5.59 g/m*3 27.6 C 0 km/h
Sensor: Nr:Datum:Temp:Abs-Feuchte:Windchill:Wind:
Aussen-T/F 3151 17-08-2008 15:59:02 28.5 C 5.87 g/m*3 28.5 C 0 km/h
3152 17-08-2008 16:11:02 27.9 C 5.68 g/m*3 27.9 C 0 km/h
3153 17-08-2008 16:23:02 27.1 C 5.69 g/m*3 27.1 C 0 km/h
3154 17-08-2008 16:35:01 27.1 C 5.43 g/m*3 27.1 C 0 km/h
3155 17-08-2008 16:47:02 26.3 C 5.45 g/m*3 26.3 C 0 km/h
3156 17-08-2008 16:59:02 26.6 C 5.54 g/m*3 26.6 C 0 km/h
3157 17-08-2008 17:11:01 26.3 C 5.69 g/m*3 26.3 C 0 km/h
3158 17-08-2008 17:23:02 26 C 5.84 g/m*3 26 C 0 km/h
3159 17-08-2008 17:35:01 25.9 C 6.54 g/m*3 25.9 C 0 km/h
3160 17-08-2008 17:47:01 25.4 C 6.12 g/m*3 25.4 C 0 km/h
3161 17-08-2008 17:59:01 25.4 C 6.83 g/m*3 25.4 C 0 km/h
3162 17-08-2008 18:11:02 25.2 C 6.98 g/m*3 25.2 C 0 km/h
3163 17-08-2008 18:23:01 25.2 C 6.52 g/m*3 25.2 C 0 km/h
3164 17-08-2008 18:35:02 24.9 C 6.87 g/m*3 24.9 C 0 km/h
3165 17-08-2008 18:47:02 24.6 C 6.75 g/m*3 24.6 C 0 km/h
3166 17-08-2008 18:59:02 24.6 C 6.98 g/m*3 24.6 C 0 km/h
3167 17-08-2008 19:11:02 25.4 C 7.06 g/m*3 25.4 C 0 km/h
3168 17-08-2008 19:23:02 24.8 C 7.28 g/m*3 24.8 C 0 km/h
3169 17-08-2008 19:35:02 23.9 C 7.79 g/m*3 23.9 C 0 km/h
3170 17-08-2008 19:47:01 23.7 C 7.7 g/m*3 23.7 C 0 km/h
3171 17-08-2008 19:59:01 24.1 C 7.88 g/m*3 24.1 C 0 km/h
3172 17-08-2008 20:11:01 23.3 C 7.95 g/m*3 23.3 C 0 km/h
3173 17-08-2008 20:23:01 22.1 C 7.81 g/m*3 22.1 C 0 km/h
3174 17-08-2008 20:35:02 21.4 C 8.06 g/m*3 21.4 C 0 km/h
3175 17-08-2008 20:47:02 21.1 C 7.92 g/m*3 21.1 C 0 km/h
Sensor: Nr:Datum:Temp:Abs-Feuchte:Windchill:Wind:
Aussen-T/F 3176 17-08-2008 20:59:02 20.8 C 8.33 g/m*3 20.8 C 0 km/h
3177 17-08-2008 21:11:02 20.8 C 8.15 g/m*3 20.8 C 0 km/h
3178 17-08-2008 21:23:02 21 C 8.06 g/m*3 21 C 0 km/h
3179 17-08-2008 21:35:02 20.1 C 9.56 g/m*3 20.1 C 0 km/h
3180 17-08-2008 21:47:02 17.7 C 11.32 g/m*3 17.7 C 0 km/h
3181 17-08-2008 21:59:02 17.3 C 11.93 g/m*3 17.3 C 0 km/h
3182 17-08-2008 22:11:01 17.4 C 12.3 g/m*3 17.4 C 0 km/h
3183 17-08-2008 22:23:02 17.6 C 12.6 g/m*3 17.6 C 0 km/h
3184 17-08-2008 22:36:02 17.3 C 12.08 g/m*3 17.3 C 0 km/h
3185 17-08-2008 22:48:02 17.2 C 11.86 g/m*3 17.2 C 0 km/h
3186 17-08-2008 23:00:02 17 C 11.72 g/m*3 17 C 0 km/h
3187 17-08-2008 23:12:02 16.8 C 11.58 g/m*3 16.8 C 0 km/h
3188 17-08-2008 23:24:02 16.5 C 11.37 g/m*3 16.5 C 0 km/h
3189 17-08-2008 23:36:02 16.3 C 11.38 g/m*3 16.3 C 0 km/h
3190 17-08-2008 23:48:02 16.1 C 11.24 g/m*3 16.1 C 0 km/h
3191 18-08-2008 00:00:02 16.1 C 11.24 g/m*3 16.1 C 0 km/h
3192 18-08-2008 00:12:02 16 C 11.17 g/m*3 16 C 0 km/h
3193 18-08-2008 00:24:02 16.1 C 11.24 g/m*3 16.1 C 0 km/h
3194 18-08-2008 00:36:03 16.1 C 11.24 g/m*3 16.1 C 0 km/h
3195 18-08-2008 00:48:03 16.4 C 11.45 g/m*3 16.4 C 0 km/h
3196 18-08-2008 01:00:03 16.5 C 11.37 g/m*3 16.5 C 0 km/h
3197 18-08-2008 01:12:03 16.5 C 11.37 g/m*3 16.5 C 0 km/h
3198 18-08-2008 01:24:03 16.6 C 11.44 g/m*3 16.6 C 0 km/h
3199 18-08-2008 01:36:03 16.5 C 11.37 g/m*3 16.5 C 0 km/h
3200 18-08-2008 01:48:03 16.6 C 11.44 g/m*3 16.6 C 0 km/h
Sensor: Nr:Datum:Temp:Abs-Feuchte:Windchill:Wind:
Aussen-T/F 3201 18-08-2008 02:00:03 16.6 C 11.44 g/m*3 16.6 C 0 km/h
3202 18-08-2008 02:12:03 16.6 C 11.44 g/m*3 16.6 C 0 km/h
3203 18-08-2008 02:24:03 16.6 C 11.44 g/m*3 16.6 C 0 km/h
3204 18-08-2008 02:36:03 16.7 C 11.51 g/m*3 16.7 C 0 km/h
3205 18-08-2008 02:48:03 16.4 C 11.31 g/m*3 16.4 C 0 km/h
3206 18-08-2008 03:00:03 16.3 C 11.38 g/m*3 16.3 C 0 km/h
3207 18-08-2008 03:12:03 16.2 C 11.31 g/m*3 16.2 C 0 km/h
3208 18-08-2008 03:24:03 16 C 11.17 g/m*3 16 C 0 km/h
3209 18-08-2008 03:36:03 15.8 C 11.31 g/m*3 15.8 C 0 km/h
3210 18-08-2008 03:48:03 15.5 C 11.1 g/m*3 15.5 C 0 km/h
3211 18-08-2008 04:00:03 15.4 C 11.04 g/m*3 15.4 C 0 km/h
3212 18-08-2008 04:12:03 15.4 C 11.17 g/m*3 15.4 C 0 km/h
3213 18-08-2008 04:24:03 15.4 C 11.17 g/m*3 15.4 C 0 km/h
3214 18-08-2008 04:36:03 15.4 C 11.17 g/m*3 15.4 C 0 km/h
3215 18-08-2008 04:48:04 15.5 C 11.24 g/m*3 15.5 C 0 km/h
3216 18-08-2008 05:00:04 15.5 C 11.24 g/m*3 15.5 C 0 km/h
3217 18-08-2008 05:12:04 15.7 C 11.51 g/m*3 15.7 C 0 km/h
3218 18-08-2008 05:24:04 15.8 C 11.44 g/m*3 15.8 C 0 km/h
3219 18-08-2008 05:36:04 15.7 C 11.24 g/m*3 15.7 C 0 km/h
3220 18-08-2008 05:48:04 15.8 C 11.44 g/m*3 15.8 C 0 km/h
3221 18-08-2008 06:00:04 15.9 C 11.38 g/m*3 15.9 C 0 km/h
3222 18-08-2008 06:12:04 15.9 C 11.38 g/m*3 15.9 C 0 km/h
3223 18-08-2008 06:24:04 15.5 C 11.1 g/m*3 15.5 C